<?xml version="1.0" encoding="UTF-8" standalone="no" ?>
<gpx xmlns="http://www.topografix.com/GPX/1/1" xmlns:xsi="http://www.w3.org/2001/XMLSchema-instance" xsi:schemaLocation="http://www.topografix.com/GPX/1/1 http://www.topografix.com/GPX/1/1/gpx.xsd" version="1.1" creator="VisuGPX - https://www.visugpx.com">
  <metadata>
    <name>TRACES &amp;amp; GITES 5m/7pts</name>
  </metadata>
  <wpt lat="44.11547" lon="3.41205">
    <ele>723.6796875</ele>
    <name><![CDATA[AIGUEBONNE Chez Denis]]></name>
    <type><![CDATA[user]]></type>
  </wpt>
  <wpt lat="44.40878" lon="3.41314">
    <ele>934.109375</ele>
    <name><![CDATA[CHAMPERBOUX Les Dolmens]]></name>
    <type><![CDATA[user]]></type>
  </wpt>
  <wpt lat="44.18932" lon="3.20806">
    <ele>426.30078125</ele>
    <name><![CDATA[Forêt]]></name>
    <type><![CDATA[user]]></type>
  </wpt>
  <wpt lat="44.37201" lon="3.5332">
    <ele>520.00390625</ele>
    <name><![CDATA[ISPAGNAC Le Vallon]]></name>
    <desc><![CDATA[Vallon
D907 Bis
Ispagnac, Languedoc-Roussilion, 48320, France
0033-4-66442124]]></desc>
    <cmt><![CDATA[Vallon
D907 Bis
Ispagnac, Languedoc-Roussilion, 48320, France
0033-4-66442124]]></cmt>
    <type><![CDATA[user]]></type>
  </wpt>
  <wpt lat="44.22528" lon="3.51366">
    <ele>1079.17578125</ele>
    <name><![CDATA[L'HOM La ferme]]></name>
    <desc><![CDATA[Chambre D'Hôtes L'Hom
Lieu-Dit L'Hom
Fraissinet-de-Fourques, Languedoc-Roussilion, 48400, France]]></desc>
    <cmt><![CDATA[Chambre D'Hôtes L'Hom
Lieu-Dit L'Hom
Fraissinet-de-Fourques, Languedoc-Roussilion, 48400, France]]></cmt>
    <type><![CDATA[user]]></type>
  </wpt>
  <wpt lat="44.3401" lon="3.47271">
    <ele>525.08984375</ele>
    <name><![CDATA[LE CERET Gite des gorges du Tarn/Les copains d'abord]]></name>
    <type><![CDATA[user]]></type>
  </wpt>
  <wpt lat="44.18913" lon="3.20754">
    <ele>435.7421875</ele>
    <name><![CDATA[LE ROZIER Le gevaudan ou PEYRELEAU Evolution]]></name>
    <type><![CDATA[user]]></type>
  </wpt>
  <wpt lat="44.27777" lon="3.22748">
    <ele>424.09375</ele>
    <name><![CDATA[LES VIGNES Chez Alex]]></name>
    <type><![CDATA[user]]></type>
  </wpt>
  <wpt lat="44.37425" lon="3.77646">
    <ele>1243.0078125</ele>
    <name><![CDATA[VILLENEUVE Ferme de séjour chez Molines J.C.]]></name>
    <type><![CDATA[user]]></type>
  </wpt>
  <trk>
    <name><![CDATA[5 L'Hom à Villeneuve]]></name>
    <trkseg>
      <trkpt lat="44.22538" lon="3.51417">
        <ele>1077</ele>
        <time>2019-11-15T21:14:29Z</time>
      </trkpt>
      <trkpt lat="44.22552" lon="3.51388">
        <ele>1081</ele>
        <time>2019-11-15T21:14:33Z</time>
      </trkpt>
      <trkpt lat="44.22557" lon="3.51393">
        <ele>1081</ele>
        <time>2019-11-15T21:14:35Z</time>
      </trkpt>
      <trkpt lat="44.22566" lon="3.5141">
        <ele>1081</ele>
        <time>2019-11-15T21:14:37Z</time>
      </trkpt>
      <trkpt lat="44.22572" lon="3.51434">
        <ele>1079</ele>
        <time>2019-11-15T21:14:40Z</time>
      </trkpt>
      <trkpt lat="44.22585" lon="3.51464">
        <ele>1077</ele>
        <time>2019-11-15T21:14:45Z</time>
      </trkpt>
      <trkpt lat="44.22596" lon="3.51507">
        <ele>1074</ele>
        <time>2019-11-15T21:14:51Z</time>
      </trkpt>
      <trkpt lat="44.226" lon="3.51515">
        <ele>1073</ele>
        <time>2019-11-15T21:14:52Z</time>
      </trkpt>
      <trkpt lat="44.22617" lon="3.5153">
        <ele>1073</ele>
        <time>2019-11-15T21:14:56Z</time>
      </trkpt>
      <trkpt lat="44.22626" lon="3.51543">
        <ele>1072</ele>
        <time>2019-11-15T21:14:58Z</time>
      </trkpt>
      <trkpt lat="44.22632" lon="3.51558">
        <ele>1070</ele>
        <time>2019-11-15T21:15:00Z</time>
      </trkpt>
      <trkpt lat="44.22634" lon="3.51571">
        <ele>1069</ele>
        <time>2019-11-15T21:15:02Z</time>
      </trkpt>
      <trkpt lat="44.2263" lon="3.51584">
        <ele>1067</ele>
        <time>2019-11-15T21:15:04Z</time>
      </trkpt>
      <trkpt lat="44.2263" lon="3.51593">
        <ele>1066</ele>
        <time>2019-11-15T21:15:05Z</time>
      </trkpt>
      <trkpt lat="44.22634" lon="3.51603">
        <ele>1066</ele>
        <time>2019-11-15T21:15:06Z</time>
      </trkpt>
      <trkpt lat="44.22645" lon="3.51614">
        <ele>1065</ele>
        <time>2019-11-15T21:15:09Z</time>
      </trkpt>
      <trkpt lat="44.2266" lon="3.51642">
        <ele>1064</ele>
        <time>2019-11-15T21:15:13Z</time>
      </trkpt>
      <trkpt lat="44.22664" lon="3.51661">
        <ele>1062</ele>
        <time>2019-11-15T21:15:16Z</time>
      </trkpt>
      <trkpt lat="44.22688" lon="3.51732">
        <ele>1063</ele>
        <time>2019-11-15T21:15:26Z</time>
      </trkpt>
      <trkpt lat="44.2269" lon="3.51753">
        <ele>1063</ele>
        <time>2019-11-15T21:15:28Z</time>
      </trkpt>
      <trkpt lat="44.22702" lon="3.5179">
        <ele>1064</ele>
        <time>2019-11-15T21:15:33Z</time>
      </trkpt>
      <trkpt lat="44.22712" lon="3.51846">
        <ele>1065</ele>
        <time>2019-11-15T21:15:41Z</time>
      </trkpt>
      <trkpt lat="44.22733" lon="3.51884">
        <ele>1065</ele>
        <time>2019-11-15T21:15:47Z</time>
      </trkpt>
      <trkpt lat="44.2275" lon="3.51904">
        <ele>1065</ele>
        <time>2019-11-15T21:15:51Z</time>
      </trkpt>
      <trkpt lat="44.22765" lon="3.51914">
        <ele>1065</ele>
        <time>2019-11-15T21:15:54Z</time>
      </trkpt>
      <trkpt lat="44.2278" lon="3.51934">
        <ele>1065</ele>
        <time>2019-11-15T21:15:58Z</time>
      </trkpt>
      <trkpt lat="44.22791" lon="3.51968">
        <ele>1066</ele>
        <time>2019-11-15T21:16:02Z</time>
      </trkpt>
      <trkpt lat="44.22791" lon="3.51977">
        <ele>1066</ele>
        <time>2019-11-15T21:16:03Z</time>
      </trkpt>
      <trkpt lat="44.22795" lon="3.5199">
        <ele>1066</ele>
        <time>2019-11-15T21:16:05Z</time>
      </trkpt>
      <trkpt lat="44.22804" lon="3.51998">
        <ele>1066</ele>
        <time>2019-11-15T21:16:07Z</time>
      </trkpt>
      <trkpt lat="44.22808" lon="3.52007">
        <ele>1066</ele>
        <time>2019-11-15T21:16:09Z</time>
      </trkpt>
      <trkpt lat="44.22819" lon="3.5202">
        <ele>1066</ele>
        <time>2019-11-15T21:16:11Z</time>
      </trkpt>
      <trkpt lat="44.22834" lon="3.52045">
        <ele>1067</ele>
        <time>2019-11-15T21:16:15Z</time>
      </trkpt>
      <trkpt lat="44.22851" lon="3.52082">
        <ele>1068</ele>
        <time>2019-11-15T21:16:21Z</time>
      </trkpt>
      <trkpt lat="44.22849" lon="3.52108">
        <ele>1069</ele>
        <time>2019-11-15T21:16:24Z</time>
      </trkpt>
      <trkpt lat="44.22851" lon="3.52142">
        <ele>1070</ele>
        <time>2019-11-15T21:16:29Z</time>
      </trkpt>
      <trkpt lat="44.22864" lon="3.52251">
        <ele>1076</ele>
        <time>2019-11-15T21:16:43Z</time>
      </trkpt>
      <trkpt lat="44.22864" lon="3.52277">
        <ele>1078</ele>
        <time>2019-11-15T21:16:46Z</time>
      </trkpt>
      <trkpt lat="44.22868" lon="3.52301">
        <ele>1080</ele>
        <time>2019-11-15T21:16:49Z</time>
      </trkpt>
      <trkpt lat="44.2287" lon="3.52344">
        <ele>1084</ele>
        <time>2019-11-15T21:16:55Z</time>
      </trkpt>
      <trkpt lat="44.22883" lon="3.52389">
        <ele>1089</ele>
        <time>2019-11-15T21:17:01Z</time>
      </trkpt>
      <trkpt lat="44.229" lon="3.52397">
        <ele>1092</ele>
        <time>2019-11-15T21:17:04Z</time>
      </trkpt>
      <trkpt lat="44.22898" lon="3.52408">
        <ele>1092</ele>
        <time>2019-11-15T21:17:05Z</time>
      </trkpt>
      <trkpt lat="44.22888" lon="3.52423">
        <ele>1093</ele>
        <time>2019-11-15T21:17:08Z</time>
      </trkpt>
      <trkpt lat="44.22879" lon="3.52427">
        <ele>1092</ele>
        <time>2019-11-15T21:17:10Z</time>
      </trkpt>
      <trkpt lat="44.22879" lon="3.52453">
        <ele>1094</ele>
        <time>2019-11-15T21:17:13Z</time>
      </trkpt>
      <trkpt lat="44.22905" lon="3.52462">
        <ele>1098</ele>
        <time>2019-11-15T21:17:18Z</time>
      </trkpt>
      <trkpt lat="44.22926" lon="3.52464">
        <ele>1102</ele>
        <time>2019-11-15T21:17:22Z</time>
      </trkpt>
      <trkpt lat="44.22956" lon="3.52474">
        <ele>1107</ele>
        <time>2019-11-15T21:17:27Z</time>
      </trkpt>
      <trkpt lat="44.22963" lon="3.52474">
        <ele>1108</ele>
        <time>2019-11-15T21:17:28Z</time>
      </trkpt>
      <trkpt lat="44.22963" lon="3.52485">
        <ele>1110</ele>
        <time>2019-11-15T21:17:30Z</time>
      </trkpt>
      <trkpt lat="44.22954" lon="3.52504">
        <ele>1110</ele>
        <time>2019-11-15T21:17:33Z</time>
      </trkpt>
      <trkpt lat="44.22948" lon="3.52526">
        <ele>1110</ele>
        <time>2019-11-15T21:17:36Z</time>
      </trkpt>
      <trkpt lat="44.22941" lon="3.52537">
        <ele>1110</ele>
        <time>2019-11-15T21:17:37Z</time>
      </trkpt>
      <trkpt lat="44.22937" lon="3.52554">
        <ele>1110</ele>
        <time>2019-11-15T21:17:40Z</time>
      </trkpt>
      <trkpt lat="44.22945" lon="3.52565">
        <ele>1112</ele>
        <time>2019-11-15T21:17:42Z</time>
      </trkpt>
      <trkpt lat="44.22952" lon="3.52556">
        <ele>1112</ele>
        <time>2019-11-15T21:17:43Z</time>
      </trkpt>
      <trkpt lat="44.23037" lon="3.52492">
        <ele>1121</ele>
        <time>2019-11-15T21:18:01Z</time>
      </trkpt>
      <trkpt lat="44.23037" lon="3.52488">
        <ele>1120</ele>
        <time>2019-11-15T21:18:01Z</time>
      </trkpt>
      <trkpt lat="44.23073" lon="3.52469">
        <ele>1123</ele>
        <time>2019-11-15T21:18:08Z</time>
      </trkpt>
      <trkpt lat="44.23129" lon="3.52429">
        <ele>1125</ele>
        <time>2019-11-15T21:18:19Z</time>
      </trkpt>
      <trkpt lat="44.23187" lon="3.52395">
        <ele>1128</ele>
        <time>2019-11-15T21:18:30Z</time>
      </trkpt>
      <trkpt lat="44.23258" lon="3.52374">
        <ele>1132</ele>
        <time>2019-11-15T21:18:43Z</time>
      </trkpt>
      <trkpt lat="44.23287" lon="3.52361">
        <ele>1132</ele>
        <time>2019-11-15T21:18:49Z</time>
      </trkpt>
      <trkpt lat="44.23316" lon="3.52339">
        <ele>1132</ele>
        <time>2019-11-15T21:18:55Z</time>
      </trkpt>
      <trkpt lat="44.23363" lon="3.5231">
        <ele>1133</ele>
        <time>2019-11-15T21:19:04Z</time>
      </trkpt>
      <trkpt lat="44.23396" lon="3.523">
        <ele>1135</ele>
        <time>2019-11-15T21:19:10Z</time>
      </trkpt>
      <trkpt lat="44.23433" lon="3.52275">
        <ele>1135</ele>
        <time>2019-11-15T21:19:17Z</time>
      </trkpt>
      <trkpt lat="44.23458" lon="3.52255">
        <ele>1134</ele>
        <time>2019-11-15T21:19:22Z</time>
      </trkpt>
      <trkpt lat="44.23466" lon="3.52244">
        <ele>1134</ele>
        <time>2019-11-15T21:19:24Z</time>
      </trkpt>
      <trkpt lat="44.23477" lon="3.52217">
        <ele>1135</ele>
        <time>2019-11-15T21:19:28Z</time>
      </trkpt>
      <trkpt lat="44.2348" lon="3.52174">
        <ele>1137</ele>
        <time>2019-11-15T21:19:34Z</time>
      </trkpt>
      <trkpt lat="44.23473" lon="3.5214">
        <ele>1139</ele>
        <time>2019-11-15T21:19:38Z</time>
      </trkpt>
      <trkpt lat="44.23452" lon="3.52083">
        <ele>1140</ele>
        <time>2019-11-15T21:19:46Z</time>
      </trkpt>
      <trkpt lat="44.23451" lon="3.52075">
        <ele>1140</ele>
        <time>2019-11-15T21:19:47Z</time>
      </trkpt>
      <trkpt lat="44.23454" lon="3.52067">
        <ele>1141</ele>
        <time>2019-11-15T21:19:48Z</time>
      </trkpt>
      <trkpt lat="44.23462" lon="3.52066">
        <ele>1142</ele>
        <time>2019-11-15T21:19:50Z</time>
      </trkpt>
      <trkpt lat="44.23474" lon="3.52078">
        <ele>1143</ele>
        <time>2019-11-15T21:19:53Z</time>
      </trkpt>
      <trkpt lat="44.23483" lon="3.52082">
        <ele>1144</ele>
        <time>2019-11-15T21:19:54Z</time>
      </trkpt>
      <trkpt lat="44.23533" lon="3.52087">
        <ele>1147</ele>
        <time>2019-11-15T21:20:03Z</time>
      </trkpt>
      <trkpt lat="44.23568" lon="3.52096">
        <ele>1148</ele>
        <time>2019-11-15T21:20:09Z</time>
      </trkpt>
      <trkpt lat="44.23583" lon="3.52094">
        <ele>1149</ele>
        <time>2019-11-15T21:20:12Z</time>
      </trkpt>
      <trkpt lat="44.23622" lon="3.52071">
        <ele>1149</ele>
        <time>2019-11-15T21:20:20Z</time>
      </trkpt>
      <trkpt lat="44.2365" lon="3.52042">
        <ele>1150</ele>
        <time>2019-11-15T21:20:26Z</time>
      </trkpt>
      <trkpt lat="44.23713" lon="3.51991">
        <ele>1152</ele>
        <time>2019-11-15T21:20:39Z</time>
      </trkpt>
      <trkpt lat="44.23725" lon="3.51992">
        <ele>1152</ele>
        <time>2019-11-15T21:20:41Z</time>
      </trkpt>
      <trkpt lat="44.23764" lon="3.52014">
        <ele>1152</ele>
        <time>2019-11-15T21:20:48Z</time>
      </trkpt>
      <trkpt lat="44.23786" lon="3.52032">
        <ele>1152</ele>
        <time>2019-11-15T21:20:53Z</time>
      </trkpt>
      <trkpt lat="44.23845" lon="3.52053">
        <ele>1153</ele>
        <time>2019-11-15T21:21:04Z</time>
      </trkpt>
      <trkpt lat="44.23875" lon="3.5207">
        <ele>1153</ele>
        <time>2019-11-15T21:21:10Z</time>
      </trkpt>
      <trkpt lat="44.23887" lon="3.52081">
        <ele>1153</ele>
        <time>2019-11-15T21:21:12Z</time>
      </trkpt>
      <trkpt lat="44.23906" lon="3.52112">
        <ele>1153</ele>
        <time>2019-11-15T21:21:17Z</time>
      </trkpt>
      <trkpt lat="44.23926" lon="3.52136">
        <ele>1153</ele>
        <time>2019-11-15T21:21:22Z</time>
      </trkpt>
      <trkpt lat="44.23946" lon="3.52148">
        <ele>1153</ele>
        <time>2019-11-15T21:21:26Z</time>
      </trkpt>
      <trkpt lat="44.23956" lon="3.5215">
        <ele>1153</ele>
        <time>2019-11-15T21:21:28Z</time>
      </trkpt>
      <trkpt lat="44.23973" lon="3.52148">
        <ele>1153</ele>
        <time>2019-11-15T21:21:31Z</time>
      </trkpt>
      <trkpt lat="44.24041" lon="3.52134">
        <ele>1152</ele>
        <time>2019-11-15T21:21:43Z</time>
      </trkpt>
      <trkpt lat="44.24099" lon="3.52141">
        <ele>1150</ele>
        <time>2019-11-15T21:21:53Z</time>
      </trkpt>
      <trkpt lat="44.24211" lon="3.52162">
        <ele>1147</ele>
        <time>2019-11-15T21:22:13Z</time>
      </trkpt>
      <trkpt lat="44.24281" lon="3.52179">
        <ele>1142</ele>
        <time>2019-11-15T21:22:26Z</time>
      </trkpt>
      <trkpt lat="44.24416" lon="3.52227">
        <ele>1130</ele>
        <time>2019-11-15T21:22:51Z</time>
      </trkpt>
      <trkpt lat="44.24487" lon="3.52248">
        <ele>1126</ele>
        <time>2019-11-15T21:23:04Z</time>
      </trkpt>
      <trkpt lat="44.24545" lon="3.52251">
        <ele>1124</ele>
        <time>2019-11-15T21:23:14Z</time>
      </trkpt>
      <trkpt lat="44.24588" lon="3.52243">
        <ele>1122</ele>
        <time>2019-11-15T21:23:22Z</time>
      </trkpt>
      <trkpt lat="44.24618" lon="3.52251">
        <ele>1121</ele>
        <time>2019-11-15T21:23:27Z</time>
      </trkpt>
      <trkpt lat="44.24652" lon="3.52278">
        <ele>1121</ele>
        <time>2019-11-15T21:23:34Z</time>
      </trkpt>
      <trkpt lat="44.2468" lon="3.52287">
        <ele>1120</ele>
        <time>2019-11-15T21:23:39Z</time>
      </trkpt>
      <trkpt lat="44.24758" lon="3.52296">
        <ele>1115</ele>
        <time>2019-11-15T21:23:53Z</time>
      </trkpt>
      <trkpt lat="44.24789" lon="3.52304">
        <ele>1113</ele>
        <time>2019-11-15T21:23:59Z</time>
      </trkpt>
      <trkpt lat="44.24878" lon="3.52351">
        <ele>1110</ele>
        <time>2019-11-15T21:24:16Z</time>
      </trkpt>
      <trkpt lat="44.24887" lon="3.52353">
        <ele>1110</ele>
        <time>2019-11-15T21:24:17Z</time>
      </trkpt>
      <trkpt lat="44.24898" lon="3.52349">
        <ele>1110</ele>
        <time>2019-11-15T21:24:19Z</time>
      </trkpt>
      <trkpt lat="44.2492" lon="3.52325">
        <ele>1110</ele>
        <time>2019-11-15T21:24:24Z</time>
      </trkpt>
      <trkpt lat="44.24936" lon="3.5232">
        <ele>1112</ele>
        <time>2019-11-15T21:24:27Z</time>
      </trkpt>
      <trkpt lat="44.24958" lon="3.5232">
        <ele>1113</ele>
        <time>2019-11-15T21:24:31Z</time>
      </trkpt>
      <trkpt lat="44.2498" lon="3.52325">
        <ele>1114</ele>
        <time>2019-11-15T21:24:35Z</time>
      </trkpt>
      <trkpt lat="44.25022" lon="3.5233">
        <ele>1117</ele>
        <time>2019-11-15T21:24:43Z</time>
      </trkpt>
      <trkpt lat="44.25045" lon="3.52326">
        <ele>1119</ele>
        <time>2019-11-15T21:24:47Z</time>
      </trkpt>
      <trkpt lat="44.25051" lon="3.52322">
        <ele>1120</ele>
        <time>2019-11-15T21:24:48Z</time>
      </trkpt>
      <trkpt lat="44.25053" lon="3.5231">
        <ele>1121</ele>
        <time>2019-11-15T21:24:50Z</time>
      </trkpt>
      <trkpt lat="44.25059" lon="3.52315">
        <ele>1121</ele>
        <time>2019-11-15T21:24:51Z</time>
      </trkpt>
      <trkpt lat="44.25064" lon="3.52316">
        <ele>1121</ele>
        <time>2019-11-15T21:24:52Z</time>
      </trkpt>
      <trkpt lat="44.2508" lon="3.52313">
        <ele>1123</ele>
        <time>2019-11-15T21:24:55Z</time>
      </trkpt>
      <trkpt lat="44.2509" lon="3.52317">
        <ele>1123</ele>
        <time>2019-11-15T21:24:56Z</time>
      </trkpt>
      <trkpt lat="44.25107" lon="3.52325">
        <ele>1124</ele>
        <time>2019-11-15T21:25:00Z</time>
      </trkpt>
      <trkpt lat="44.25148" lon="3.52352">
        <ele>1122</ele>
        <time>2019-11-15T21:25:08Z</time>
      </trkpt>
      <trkpt lat="44.25175" lon="3.52375">
        <ele>1120</ele>
        <time>2019-11-15T21:25:13Z</time>
      </trkpt>
      <trkpt lat="44.25218" lon="3.52396">
        <ele>1121</ele>
        <time>2019-11-15T21:25:21Z</time>
      </trkpt>
      <trkpt lat="44.25239" lon="3.52402">
        <ele>1123</ele>
        <time>2019-11-15T21:25:25Z</time>
      </trkpt>
      <trkpt lat="44.25252" lon="3.52411">
        <ele>1122</ele>
        <time>2019-11-15T21:25:28Z</time>
      </trkpt>
      <trkpt lat="44.25304" lon="3.52466">
        <ele>1123</ele>
        <time>2019-11-15T21:25:39Z</time>
      </trkpt>
      <trkpt lat="44.25342" lon="3.52513">
        <ele>1122</ele>
        <time>2019-11-15T21:25:48Z</time>
      </trkpt>
      <trkpt lat="44.25353" lon="3.52521">
        <ele>1122</ele>
        <time>2019-11-15T21:25:51Z</time>
      </trkpt>
      <trkpt lat="44.25379" lon="3.52531">
        <ele>1124</ele>
        <time>2019-11-15T21:25:55Z</time>
      </trkpt>
      <trkpt lat="44.25401" lon="3.52545">
        <ele>1125</ele>
        <time>2019-11-15T21:26:00Z</time>
      </trkpt>
      <trkpt lat="44.25409" lon="3.52553">
        <ele>1124</ele>
        <time>2019-11-15T21:26:02Z</time>
      </trkpt>
      <trkpt lat="44.25442" lon="3.52599">
        <ele>1121</ele>
        <time>2019-11-15T21:26:10Z</time>
      </trkpt>
      <trkpt lat="44.25456" lon="3.52613">
        <ele>1121</ele>
        <time>2019-11-15T21:26:13Z</time>
      </trkpt>
      <trkpt lat="44.25499" lon="3.52636">
        <ele>1124</ele>
        <time>2019-11-15T21:26:21Z</time>
      </trkpt>
      <trkpt lat="44.25509" lon="3.52649">
        <ele>1122</ele>
        <time>2019-11-15T21:26:24Z</time>
      </trkpt>
      <trkpt lat="44.25545" lon="3.52683">
        <ele>1118</ele>
        <time>2019-11-15T21:26:31Z</time>
      </trkpt>
      <trkpt lat="44.25556" lon="3.5269">
        <ele>1118</ele>
        <time>2019-11-15T21:26:33Z</time>
      </trkpt>
      <trkpt lat="44.25589" lon="3.52704">
        <ele>1117</ele>
        <time>2019-11-15T21:26:40Z</time>
      </trkpt>
      <trkpt lat="44.25624" lon="3.52727">
        <ele>1113</ele>
        <time>2019-11-15T21:26:46Z</time>
      </trkpt>
      <trkpt lat="44.2565" lon="3.52756">
        <ele>1111</ele>
        <time>2019-11-15T21:26:52Z</time>
      </trkpt>
      <trkpt lat="44.25685" lon="3.52743">
        <ele>1109</ele>
        <time>2019-11-15T21:26:59Z</time>
      </trkpt>
      <trkpt lat="44.25702" lon="3.5274">
        <ele>1109</ele>
        <time>2019-11-15T21:27:02Z</time>
      </trkpt>
      <trkpt lat="44.25783" lon="3.5273">
        <ele>1106</ele>
        <time>2019-11-15T21:27:16Z</time>
      </trkpt>
      <trkpt lat="44.25824" lon="3.52729">
        <ele>1106</ele>
        <time>2019-11-15T21:27:24Z</time>
      </trkpt>
      <trkpt lat="44.25839" lon="3.52731">
        <ele>1105</ele>
        <time>2019-11-15T21:27:26Z</time>
      </trkpt>
      <trkpt lat="44.25897" lon="3.5276">
        <ele>1105</ele>
        <time>2019-11-15T21:27:37Z</time>
      </trkpt>
      <trkpt lat="44.25916" lon="3.5276">
        <ele>1105</ele>
        <time>2019-11-15T21:27:41Z</time>
      </trkpt>
      <trkpt lat="44.25943" lon="3.52755">
        <ele>1104</ele>
        <time>2019-11-15T21:27:45Z</time>
      </trkpt>
      <trkpt lat="44.25995" lon="3.52755">
        <ele>1102</ele>
        <time>2019-11-15T21:27:55Z</time>
      </trkpt>
      <trkpt lat="44.26027" lon="3.52765">
        <ele>1101</ele>
        <time>2019-11-15T21:28:01Z</time>
      </trkpt>
      <trkpt lat="44.26038" lon="3.52772">
        <ele>1101</ele>
        <time>2019-11-15T21:28:03Z</time>
      </trkpt>
      <trkpt lat="44.26054" lon="3.52788">
        <ele>1101</ele>
        <time>2019-11-15T21:28:06Z</time>
      </trkpt>
      <trkpt lat="44.26082" lon="3.52828">
        <ele>1099</ele>
        <time>2019-11-15T21:28:13Z</time>
      </trkpt>
      <trkpt lat="44.26106" lon="3.52852">
        <ele>1099</ele>
        <time>2019-11-15T21:28:19Z</time>
      </trkpt>
      <trkpt lat="44.26135" lon="3.52891">
        <ele>1097</ele>
        <time>2019-11-15T21:28:26Z</time>
      </trkpt>
      <trkpt lat="44.26176" lon="3.52969">
        <ele>1095</ele>
        <time>2019-11-15T21:28:38Z</time>
      </trkpt>
      <trkpt lat="44.26207" lon="3.53016">
        <ele>1094</ele>
        <time>2019-11-15T21:28:46Z</time>
      </trkpt>
      <trkpt lat="44.2622" lon="3.53051">
        <ele>1095</ele>
        <time>2019-11-15T21:28:51Z</time>
      </trkpt>
      <trkpt lat="44.26237" lon="3.53074">
        <ele>1094</ele>
        <time>2019-11-15T21:28:55Z</time>
      </trkpt>
      <trkpt lat="44.26252" lon="3.53091">
        <ele>1093</ele>
        <time>2019-11-15T21:28:59Z</time>
      </trkpt>
      <trkpt lat="44.26259" lon="3.53095">
        <ele>1093</ele>
        <time>2019-11-15T21:29:00Z</time>
      </trkpt>
      <trkpt lat="44.26292" lon="3.53104">
        <ele>1090</ele>
        <time>2019-11-15T21:29:06Z</time>
      </trkpt>
      <trkpt lat="44.26367" lon="3.53179">
        <ele>1090</ele>
        <time>2019-11-15T21:29:23Z</time>
      </trkpt>
      <trkpt lat="44.2638" lon="3.53197">
        <ele>1090</ele>
        <time>2019-11-15T21:29:26Z</time>
      </trkpt>
      <trkpt lat="44.26393" lon="3.5322">
        <ele>1090</ele>
        <time>2019-11-15T21:29:30Z</time>
      </trkpt>
      <trkpt lat="44.26399" lon="3.53236">
        <ele>1090</ele>
        <time>2019-11-15T21:29:32Z</time>
      </trkpt>
      <trkpt lat="44.26438" lon="3.53303">
        <ele>1090</ele>
        <time>2019-11-15T21:29:43Z</time>
      </trkpt>
      <trkpt lat="44.26468" lon="3.53332">
        <ele>1089</ele>
        <time>2019-11-15T21:29:49Z</time>
      </trkpt>
      <trkpt lat="44.26496" lon="3.53372">
        <ele>1088</ele>
        <time>2019-11-15T21:29:57Z</time>
      </trkpt>
      <trkpt lat="44.26533" lon="3.53411">
        <ele>1088</ele>
        <time>2019-11-15T21:30:05Z</time>
      </trkpt>
      <trkpt lat="44.26552" lon="3.53428">
        <ele>1087</ele>
        <time>2019-11-15T21:30:09Z</time>
      </trkpt>
      <trkpt lat="44.26591" lon="3.53455">
        <ele>1086</ele>
        <time>2019-11-15T21:30:17Z</time>
      </trkpt>
      <trkpt lat="44.26606" lon="3.53475">
        <ele>1086</ele>
        <time>2019-11-15T21:30:20Z</time>
      </trkpt>
      <trkpt lat="44.2662" lon="3.53507">
        <ele>1088</ele>
        <time>2019-11-15T21:30:25Z</time>
      </trkpt>
      <trkpt lat="44.26631" lon="3.53524">
        <ele>1089</ele>
        <time>2019-11-15T21:30:28Z</time>
      </trkpt>
      <trkpt lat="44.26668" lon="3.53556">
        <ele>1090</ele>
        <time>2019-11-15T21:30:36Z</time>
      </trkpt>
      <trkpt lat="44.26683" lon="3.5358">
        <ele>1092</ele>
        <time>2019-11-15T21:30:40Z</time>
      </trkpt>
      <trkpt lat="44.267" lon="3.53595">
        <ele>1092</ele>
        <time>2019-11-15T21:30:43Z</time>
      </trkpt>
      <trkpt lat="44.26715" lon="3.53618">
        <ele>1093</ele>
        <time>2019-11-15T21:30:47Z</time>
      </trkpt>
      <trkpt lat="44.26732" lon="3.53654">
        <ele>1093</ele>
        <time>2019-11-15T21:30:53Z</time>
      </trkpt>
      <trkpt lat="44.26751" lon="3.53681">
        <ele>1093</ele>
        <time>2019-11-15T21:30:58Z</time>
      </trkpt>
      <trkpt lat="44.26785" lon="3.53739">
        <ele>1098</ele>
        <time>2019-11-15T21:31:07Z</time>
      </trkpt>
      <trkpt lat="44.2679" lon="3.53742">
        <ele>1098</ele>
        <time>2019-11-15T21:31:08Z</time>
      </trkpt>
      <trkpt lat="44.26809" lon="3.53739">
        <ele>1098</ele>
        <time>2019-11-15T21:31:12Z</time>
      </trkpt>
      <trkpt lat="44.26825" lon="3.5374">
        <ele>1097</ele>
        <time>2019-11-15T21:31:14Z</time>
      </trkpt>
      <trkpt lat="44.26842" lon="3.53748">
        <ele>1098</ele>
        <time>2019-11-15T21:31:18Z</time>
      </trkpt>
      <trkpt lat="44.2687" lon="3.53756">
        <ele>1100</ele>
        <time>2019-11-15T21:31:23Z</time>
      </trkpt>
      <trkpt lat="44.26884" lon="3.53765">
        <ele>1102</ele>
        <time>2019-11-15T21:31:25Z</time>
      </trkpt>
      <trkpt lat="44.26901" lon="3.53772">
        <ele>1104</ele>
        <time>2019-11-15T21:31:29Z</time>
      </trkpt>
      <trkpt lat="44.26917" lon="3.53783">
        <ele>1106</ele>
        <time>2019-11-15T21:31:32Z</time>
      </trkpt>
      <trkpt lat="44.26954" lon="3.53816">
        <ele>1112</ele>
        <time>2019-11-15T21:31:40Z</time>
      </trkpt>
      <trkpt lat="44.26968" lon="3.53821">
        <ele>1114</ele>
        <time>2019-11-15T21:31:42Z</time>
      </trkpt>
      <trkpt lat="44.27013" lon="3.53817">
        <ele>1116</ele>
        <time>2019-11-15T21:31:50Z</time>
      </trkpt>
      <trkpt lat="44.2703" lon="3.53821">
        <ele>1117</ele>
        <time>2019-11-15T21:31:53Z</time>
      </trkpt>
      <trkpt lat="44.27042" lon="3.53828">
        <ele>1118</ele>
        <time>2019-11-15T21:31:56Z</time>
      </trkpt>
      <trkpt lat="44.27064" lon="3.53843">
        <ele>1119</ele>
        <time>2019-11-15T21:32:00Z</time>
      </trkpt>
      <trkpt lat="44.2711" lon="3.53885">
        <ele>1118</ele>
        <time>2019-11-15T21:32:10Z</time>
      </trkpt>
      <trkpt lat="44.2716" lon="3.53916">
        <ele>1114</ele>
        <time>2019-11-15T21:32:19Z</time>
      </trkpt>
      <trkpt lat="44.2718" lon="3.53941">
        <ele>1111</ele>
        <time>2019-11-15T21:32:24Z</time>
      </trkpt>
      <trkpt lat="44.27197" lon="3.53972">
        <ele>1109</ele>
        <time>2019-11-15T21:32:29Z</time>
      </trkpt>
      <trkpt lat="44.27234" lon="3.54006">
        <ele>1103</ele>
        <time>2019-11-15T21:32:37Z</time>
      </trkpt>
      <trkpt lat="44.27275" lon="3.54025">
        <ele>1096</ele>
        <time>2019-11-15T21:32:45Z</time>
      </trkpt>
      <trkpt lat="44.27307" lon="3.54056">
        <ele>1090</ele>
        <time>2019-11-15T21:32:52Z</time>
      </trkpt>
      <trkpt lat="44.27338" lon="3.54103">
        <ele>1084</ele>
        <time>2019-11-15T21:33:00Z</time>
      </trkpt>
      <trkpt lat="44.27359" lon="3.54118">
        <ele>1081</ele>
        <time>2019-11-15T21:33:04Z</time>
      </trkpt>
      <trkpt lat="44.2741" lon="3.54098">
        <ele>1066</ele>
        <time>2019-11-15T21:33:13Z</time>
      </trkpt>
      <trkpt lat="44.27438" lon="3.54102">
        <ele>1060</ele>
        <time>2019-11-15T21:33:18Z</time>
      </trkpt>
      <trkpt lat="44.27475" lon="3.54118">
        <ele>1053</ele>
        <time>2019-11-15T21:33:25Z</time>
      </trkpt>
      <trkpt lat="44.27488" lon="3.54127">
        <ele>1051</ele>
        <time>2019-11-15T21:33:28Z</time>
      </trkpt>
      <trkpt lat="44.27497" lon="3.5414">
        <ele>1049</ele>
        <time>2019-11-15T21:33:30Z</time>
      </trkpt>
      <trkpt lat="44.2751" lon="3.54125">
        <ele>1048</ele>
        <time>2019-11-15T21:33:33Z</time>
      </trkpt>
      <trkpt lat="44.27526" lon="3.54095">
        <ele>1049</ele>
        <time>2019-11-15T21:33:38Z</time>
      </trkpt>
      <trkpt lat="44.27541" lon="3.54077">
        <ele>1050</ele>
        <time>2019-11-15T21:33:41Z</time>
      </trkpt>
      <trkpt lat="44.27556" lon="3.54086">
        <ele>1050</ele>
        <time>2019-11-15T21:33:44Z</time>
      </trkpt>
      <trkpt lat="44.27571" lon="3.5412">
        <ele>1048</ele>
        <time>2019-11-15T21:33:49Z</time>
      </trkpt>
      <trkpt lat="44.27588" lon="3.54138">
        <ele>1046</ele>
        <time>2019-11-15T21:33:53Z</time>
      </trkpt>
      <trkpt lat="44.27617" lon="3.54145">
        <ele>1045</ele>
        <time>2019-11-15T21:33:58Z</time>
      </trkpt>
      <trkpt lat="44.27709" lon="3.54116">
        <ele>1048</ele>
        <time>2019-11-15T21:34:15Z</time>
      </trkpt>
      <trkpt lat="44.27735" lon="3.5412">
        <ele>1047</ele>
        <time>2019-11-15T21:34:20Z</time>
      </trkpt>
      <trkpt lat="44.27824" lon="3.54174">
        <ele>1035</ele>
        <time>2019-11-15T21:34:37Z</time>
      </trkpt>
      <trkpt lat="44.27924" lon="3.5421">
        <ele>1028</ele>
        <time>2019-11-15T21:34:56Z</time>
      </trkpt>
      <trkpt lat="44.27962" lon="3.54213">
        <ele>1026</ele>
        <time>2019-11-15T21:35:02Z</time>
      </trkpt>
      <trkpt lat="44.28004" lon="3.54223">
        <ele>1024</ele>
        <time>2019-11-15T21:35:10Z</time>
      </trkpt>
      <trkpt lat="44.28026" lon="3.54236">
        <ele>1023</ele>
        <time>2019-11-15T21:35:14Z</time>
      </trkpt>
      <trkpt lat="44.28028" lon="3.54308">
        <ele>1019</ele>
        <time>2019-11-15T21:35:23Z</time>
      </trkpt>
      <trkpt lat="44.27993" lon="3.54479">
        <ele>1018</ele>
        <time>2019-11-15T21:35:46Z</time>
      </trkpt>
      <trkpt lat="44.27988" lon="3.54493">
        <ele>1019</ele>
        <time>2019-11-15T21:35:48Z</time>
      </trkpt>
      <trkpt lat="44.27989" lon="3.54505">
        <ele>1020</ele>
        <time>2019-11-15T21:35:50Z</time>
      </trkpt>
      <trkpt lat="44.27993" lon="3.54514">
        <ele>1020</ele>
        <time>2019-11-15T21:35:51Z</time>
      </trkpt>
      <trkpt lat="44.28043" lon="3.54544">
        <ele>1019</ele>
        <time>2019-11-15T21:36:01Z</time>
      </trkpt>
      <trkpt lat="44.28072" lon="3.54575">
        <ele>1018</ele>
        <time>2019-11-15T21:36:07Z</time>
      </trkpt>
      <trkpt lat="44.28087" lon="3.54599">
        <ele>1019</ele>
        <time>2019-11-15T21:36:11Z</time>
      </trkpt>
      <trkpt lat="44.28097" lon="3.54606">
        <ele>1018</ele>
        <time>2019-11-15T21:36:13Z</time>
      </trkpt>
      <trkpt lat="44.28104" lon="3.5462">
        <ele>1019</ele>
        <time>2019-11-15T21:36:15Z</time>
      </trkpt>
      <trkpt lat="44.28141" lon="3.54643">
        <ele>1018</ele>
        <time>2019-11-15T21:36:22Z</time>
      </trkpt>
      <trkpt lat="44.28187" lon="3.54691">
        <ele>1019</ele>
        <time>2019-11-15T21:36:33Z</time>
      </trkpt>
      <trkpt lat="44.28201" lon="3.54686">
        <ele>1017</ele>
        <time>2019-11-15T21:36:35Z</time>
      </trkpt>
      <trkpt lat="44.28207" lon="3.54687">
        <ele>1016</ele>
        <time>2019-11-15T21:36:36Z</time>
      </trkpt>
      <trkpt lat="44.28249" lon="3.54707">
        <ele>1014</ele>
        <time>2019-11-15T21:36:44Z</time>
      </trkpt>
      <trkpt lat="44.28272" lon="3.54711">
        <ele>1012</ele>
        <time>2019-11-15T21:36:48Z</time>
      </trkpt>
      <trkpt lat="44.28323" lon="3.54706">
        <ele>1006</ele>
        <time>2019-11-15T21:36:57Z</time>
      </trkpt>
      <trkpt lat="44.28354" lon="3.54708">
        <ele>1004</ele>
        <time>2019-11-15T21:37:03Z</time>
      </trkpt>
      <trkpt lat="44.28414" lon="3.54743">
        <ele>1002</ele>
        <time>2019-11-15T21:37:15Z</time>
      </trkpt>
      <trkpt lat="44.28484" lon="3.54791">
        <ele>1000</ele>
        <time>2019-11-15T21:37:28Z</time>
      </trkpt>
      <trkpt lat="44.28489" lon="3.5479">
        <ele>999</ele>
        <time>2019-11-15T21:37:29Z</time>
      </trkpt>
      <trkpt lat="44.28496" lon="3.5477">
        <ele>997</ele>
        <time>2019-11-15T21:37:32Z</time>
      </trkpt>
      <trkpt lat="44.28513" lon="3.54677">
        <ele>996</ele>
        <time>2019-11-15T21:37:44Z</time>
      </trkpt>
      <trkpt lat="44.28523" lon="3.54561">
        <ele>996</ele>
        <time>2019-11-15T21:37:59Z</time>
      </trkpt>
      <trkpt lat="44.2852" lon="3.54543">
        <ele>996</ele>
        <time>2019-11-15T21:38:02Z</time>
      </trkpt>
      <trkpt lat="44.28529" lon="3.54465">
        <ele>998</ele>
        <time>2019-11-15T21:38:12Z</time>
      </trkpt>
      <trkpt lat="44.28557" lon="3.54478">
        <ele>995</ele>
        <time>2019-11-15T21:38:17Z</time>
      </trkpt>
      <trkpt lat="44.28689" lon="3.54525">
        <ele>991</ele>
        <time>2019-11-15T21:38:41Z</time>
      </trkpt>
      <trkpt lat="44.28798" lon="3.54569">
        <ele>989</ele>
        <time>2019-11-15T21:39:01Z</time>
      </trkpt>
      <trkpt lat="44.28864" lon="3.54602">
        <ele>988</ele>
        <time>2019-11-15T21:39:14Z</time>
      </trkpt>
      <trkpt lat="44.28913" lon="3.5463">
        <ele>987</ele>
        <time>2019-11-15T21:39:23Z</time>
      </trkpt>
      <trkpt lat="44.28984" lon="3.5466">
        <ele>986</ele>
        <time>2019-11-15T21:39:36Z</time>
      </trkpt>
      <trkpt lat="44.29025" lon="3.54691">
        <ele>987</ele>
        <time>2019-11-15T21:39:45Z</time>
      </trkpt>
      <trkpt lat="44.29042" lon="3.54699">
        <ele>988</ele>
        <time>2019-11-15T21:39:48Z</time>
      </trkpt>
      <trkpt lat="44.29052" lon="3.54697">
        <ele>987</ele>
        <time>2019-11-15T21:39:50Z</time>
      </trkpt>
      <trkpt lat="44.29072" lon="3.54682">
        <ele>987</ele>
        <time>2019-11-15T21:39:54Z</time>
      </trkpt>
      <trkpt lat="44.29095" lon="3.54672">
        <ele>986</ele>
        <time>2019-11-15T21:39:58Z</time>
      </trkpt>
      <trkpt lat="44.29112" lon="3.54668">
        <ele>986</ele>
        <time>2019-11-15T21:40:01Z</time>
      </trkpt>
      <trkpt lat="44.2914" lon="3.5467">
        <ele>986</ele>
        <time>2019-11-15T21:40:06Z</time>
      </trkpt>
      <trkpt lat="44.29207" lon="3.54646">
        <ele>986</ele>
        <time>2019-11-15T21:40:18Z</time>
      </trkpt>
      <trkpt lat="44.29215" lon="3.54641">
        <ele>986</ele>
        <time>2019-11-15T21:40:20Z</time>
      </trkpt>
      <trkpt lat="44.29279" lon="3.54581">
        <ele>985</ele>
        <time>2019-11-15T21:40:34Z</time>
      </trkpt>
      <trkpt lat="44.2931" lon="3.54549">
        <ele>985</ele>
        <time>2019-11-15T21:40:41Z</time>
      </trkpt>
      <trkpt lat="44.29368" lon="3.54505">
        <ele>985</ele>
        <time>2019-11-15T21:40:52Z</time>
      </trkpt>
      <trkpt lat="44.29383" lon="3.54504">
        <ele>985</ele>
        <time>2019-11-15T21:40:55Z</time>
      </trkpt>
      <trkpt lat="44.29413" lon="3.54516">
        <ele>986</ele>
        <time>2019-11-15T21:41:01Z</time>
      </trkpt>
      <trkpt lat="44.29439" lon="3.54513">
        <ele>985</ele>
        <time>2019-11-15T21:41:05Z</time>
      </trkpt>
      <trkpt lat="44.29474" lon="3.54504">
        <ele>984</ele>
        <time>2019-11-15T21:41:12Z</time>
      </trkpt>
      <trkpt lat="44.29505" lon="3.54502">
        <ele>984</ele>
        <time>2019-11-15T21:41:17Z</time>
      </trkpt>
      <trkpt lat="44.29515" lon="3.54495">
        <ele>984</ele>
        <time>2019-11-15T21:41:19Z</time>
      </trkpt>
      <trkpt lat="44.29524" lon="3.54483">
        <ele>984</ele>
        <time>2019-11-15T21:41:21Z</time>
      </trkpt>
      <trkpt lat="44.29583" lon="3.54361">
        <ele>981</ele>
        <time>2019-11-15T21:41:40Z</time>
      </trkpt>
      <trkpt lat="44.2959" lon="3.54307">
        <ele>979</ele>
        <time>2019-11-15T21:41:47Z</time>
      </trkpt>
      <trkpt lat="44.29595" lon="3.54291">
        <ele>979</ele>
        <time>2019-11-15T21:41:49Z</time>
      </trkpt>
      <trkpt lat="44.2962" lon="3.54238">
        <ele>978</ele>
        <time>2019-11-15T21:41:57Z</time>
      </trkpt>
      <trkpt lat="44.29649" lon="3.5405">
        <ele>975</ele>
        <time>2019-11-15T21:42:22Z</time>
      </trkpt>
      <trkpt lat="44.29665" lon="3.54005">
        <ele>975</ele>
        <time>2019-11-15T21:42:28Z</time>
      </trkpt>
      <trkpt lat="44.29675" lon="3.53989">
        <ele>975</ele>
        <time>2019-11-15T21:42:31Z</time>
      </trkpt>
      <trkpt lat="44.29685" lon="3.53978">
        <ele>975</ele>
        <time>2019-11-15T21:42:33Z</time>
      </trkpt>
      <trkpt lat="44.29736" lon="3.5394">
        <ele>975</ele>
        <time>2019-11-15T21:42:43Z</time>
      </trkpt>
      <trkpt lat="44.29751" lon="3.53934">
        <ele>976</ele>
        <time>2019-11-15T21:42:46Z</time>
      </trkpt>
      <trkpt lat="44.29853" lon="3.53912">
        <ele>974</ele>
        <time>2019-11-15T21:43:05Z</time>
      </trkpt>
      <trkpt lat="44.3004" lon="3.53881">
        <ele>970</ele>
        <time>2019-11-15T21:43:38Z</time>
      </trkpt>
      <trkpt lat="44.30062" lon="3.53876">
        <ele>969</ele>
        <time>2019-11-15T21:43:42Z</time>
      </trkpt>
      <trkpt lat="44.30072" lon="3.53868">
        <ele>969</ele>
        <time>2019-11-15T21:43:44Z</time>
      </trkpt>
      <trkpt lat="44.30066" lon="3.53894">
        <ele>969</ele>
        <time>2019-11-15T21:43:48Z</time>
      </trkpt>
      <trkpt lat="44.30068" lon="3.53919">
        <ele>969</ele>
        <time>2019-11-15T21:43:51Z</time>
      </trkpt>
      <trkpt lat="44.30075" lon="3.5393">
        <ele>969</ele>
        <time>2019-11-15T21:43:53Z</time>
      </trkpt>
      <trkpt lat="44.30148" lon="3.54005">
        <ele>971</ele>
        <time>2019-11-15T21:44:09Z</time>
      </trkpt>
      <trkpt lat="44.30218" lon="3.54122">
        <ele>976</ele>
        <time>2019-11-15T21:44:28Z</time>
      </trkpt>
      <trkpt lat="44.30263" lon="3.5421">
        <ele>979</ele>
        <time>2019-11-15T21:44:42Z</time>
      </trkpt>
      <trkpt lat="44.30265" lon="3.54234">
        <ele>980</ele>
        <time>2019-11-15T21:44:45Z</time>
      </trkpt>
      <trkpt lat="44.30233" lon="3.54326">
        <ele>983</ele>
        <time>2019-11-15T21:44:58Z</time>
      </trkpt>
      <trkpt lat="44.30222" lon="3.54346">
        <ele>984</ele>
        <time>2019-11-15T21:45:01Z</time>
      </trkpt>
      <trkpt lat="44.30213" lon="3.54356">
        <ele>985</ele>
        <time>2019-11-15T21:45:03Z</time>
      </trkpt>
      <trkpt lat="44.30207" lon="3.54369">
        <ele>986</ele>
        <time>2019-11-15T21:45:05Z</time>
      </trkpt>
      <trkpt lat="44.30202" lon="3.54421">
        <ele>986</ele>
        <time>2019-11-15T21:45:12Z</time>
      </trkpt>
      <trkpt lat="44.30194" lon="3.54466">
        <ele>988</ele>
        <time>2019-11-15T21:45:18Z</time>
      </trkpt>
      <trkpt lat="44.30198" lon="3.54534">
        <ele>989</ele>
        <time>2019-11-15T21:45:27Z</time>
      </trkpt>
      <trkpt lat="44.30196" lon="3.54547">
        <ele>989</ele>
        <time>2019-11-15T21:45:28Z</time>
      </trkpt>
      <trkpt lat="44.30185" lon="3.54573">
        <ele>989</ele>
        <time>2019-11-15T21:45:32Z</time>
      </trkpt>
      <trkpt lat="44.30187" lon="3.54588">
        <ele>989</ele>
        <time>2019-11-15T21:45:34Z</time>
      </trkpt>
      <trkpt lat="44.30248" lon="3.54689">
        <ele>992</ele>
        <time>2019-11-15T21:45:51Z</time>
      </trkpt>
      <trkpt lat="44.3026" lon="3.54725">
        <ele>995</ele>
        <time>2019-11-15T21:45:56Z</time>
      </trkpt>
      <trkpt lat="44.3026" lon="3.54736">
        <ele>996</ele>
        <time>2019-11-15T21:45:57Z</time>
      </trkpt>
      <trkpt lat="44.30256" lon="3.54751">
        <ele>997</ele>
        <time>2019-11-15T21:45:59Z</time>
      </trkpt>
      <trkpt lat="44.30237" lon="3.54768">
        <ele>998</ele>
        <time>2019-11-15T21:46:03Z</time>
      </trkpt>
      <trkpt lat="44.30237" lon="3.54779">
        <ele>999</ele>
        <time>2019-11-15T21:46:05Z</time>
      </trkpt>
      <trkpt lat="44.30245" lon="3.54813">
        <ele>1003</ele>
        <time>2019-11-15T21:46:09Z</time>
      </trkpt>
      <trkpt lat="44.30245" lon="3.54835">
        <ele>1005</ele>
        <time>2019-11-15T21:46:12Z</time>
      </trkpt>
      <trkpt lat="44.30258" lon="3.54858">
        <ele>1008</ele>
        <time>2019-11-15T21:46:16Z</time>
      </trkpt>
      <trkpt lat="44.30269" lon="3.54865">
        <ele>1009</ele>
        <time>2019-11-15T21:46:18Z</time>
      </trkpt>
      <trkpt lat="44.30312" lon="3.54876">
        <ele>1012</ele>
        <time>2019-11-15T21:46:26Z</time>
      </trkpt>
      <trkpt lat="44.30325" lon="3.54895">
        <ele>1015</ele>
        <time>2019-11-15T21:46:29Z</time>
      </trkpt>
      <trkpt lat="44.30344" lon="3.54916">
        <ele>1016</ele>
        <time>2019-11-15T21:46:33Z</time>
      </trkpt>
      <trkpt lat="44.30348" lon="3.54927">
        <ele>1017</ele>
        <time>2019-11-15T21:46:35Z</time>
      </trkpt>
      <trkpt lat="44.30353" lon="3.54979">
        <ele>1019</ele>
        <time>2019-11-15T21:46:42Z</time>
      </trkpt>
      <trkpt lat="44.30351" lon="3.55028">
        <ele>1023</ele>
        <time>2019-11-15T21:46:48Z</time>
      </trkpt>
      <trkpt lat="44.30355" lon="3.55174">
        <ele>1034</ele>
        <time>2019-11-15T21:47:07Z</time>
      </trkpt>
      <trkpt lat="44.30351" lon="3.55193">
        <ele>1036</ele>
        <time>2019-11-15T21:47:09Z</time>
      </trkpt>
      <trkpt lat="44.30342" lon="3.55215">
        <ele>1038</ele>
        <time>2019-11-15T21:47:12Z</time>
      </trkpt>
      <trkpt lat="44.30331" lon="3.55232">
        <ele>1040</ele>
        <time>2019-11-15T21:47:15Z</time>
      </trkpt>
      <trkpt lat="44.30321" lon="3.55242">
        <ele>1040</ele>
        <time>2019-11-15T21:47:17Z</time>
      </trkpt>
      <trkpt lat="44.3028" lon="3.55273">
        <ele>1040</ele>
        <time>2019-11-15T21:47:26Z</time>
      </trkpt>
      <trkpt lat="44.30228" lon="3.55247">
        <ele>1039</ele>
        <time>2019-11-15T21:47:36Z</time>
      </trkpt>
      <trkpt lat="44.30205" lon="3.5524">
        <ele>1037</ele>
        <time>2019-11-15T21:47:40Z</time>
      </trkpt>
      <trkpt lat="44.30196" lon="3.5524">
        <ele>1037</ele>
        <time>2019-11-15T21:47:41Z</time>
      </trkpt>
      <trkpt lat="44.30187" lon="3.55245">
        <ele>1037</ele>
        <time>2019-11-15T21:47:43Z</time>
      </trkpt>
      <trkpt lat="44.30175" lon="3.55279">
        <ele>1037</ele>
        <time>2019-11-15T21:47:48Z</time>
      </trkpt>
      <trkpt lat="44.30166" lon="3.55285">
        <ele>1036</ele>
        <time>2019-11-15T21:47:50Z</time>
      </trkpt>
      <trkpt lat="44.30157" lon="3.55285">
        <ele>1037</ele>
        <time>2019-11-15T21:47:51Z</time>
      </trkpt>
      <trkpt lat="44.30127" lon="3.5527">
        <ele>1037</ele>
        <time>2019-11-15T21:47:57Z</time>
      </trkpt>
      <trkpt lat="44.30104" lon="3.55249">
        <ele>1036</ele>
        <time>2019-11-15T21:48:02Z</time>
      </trkpt>
      <trkpt lat="44.30091" lon="3.55249">
        <ele>1036</ele>
        <time>2019-11-15T21:48:04Z</time>
      </trkpt>
      <trkpt lat="44.30061" lon="3.55266">
        <ele>1038</ele>
        <time>2019-11-15T21:48:10Z</time>
      </trkpt>
      <trkpt lat="44.30042" lon="3.55294">
        <ele>1041</ele>
        <time>2019-11-15T21:48:15Z</time>
      </trkpt>
      <trkpt lat="44.30037" lon="3.55305">
        <ele>1042</ele>
        <time>2019-11-15T21:48:16Z</time>
      </trkpt>
      <trkpt lat="44.30037" lon="3.55315">
        <ele>1043</ele>
        <time>2019-11-15T21:48:18Z</time>
      </trkpt>
      <trkpt lat="44.30048" lon="3.55335">
        <ele>1044</ele>
        <time>2019-11-15T21:48:21Z</time>
      </trkpt>
      <trkpt lat="44.3005" lon="3.55343">
        <ele>1044</ele>
        <time>2019-11-15T21:48:22Z</time>
      </trkpt>
      <trkpt lat="44.30048" lon="3.55352">
        <ele>1045</ele>
        <time>2019-11-15T21:48:23Z</time>
      </trkpt>
      <trkpt lat="44.30022" lon="3.55363">
        <ele>1048</ele>
        <time>2019-11-15T21:48:28Z</time>
      </trkpt>
      <trkpt lat="44.29979" lon="3.55399">
        <ele>1054</ele>
        <time>2019-11-15T21:48:37Z</time>
      </trkpt>
      <trkpt lat="44.29964" lon="3.55393">
        <ele>1055</ele>
        <time>2019-11-15T21:48:40Z</time>
      </trkpt>
      <trkpt lat="44.29947" lon="3.55393">
        <ele>1056</ele>
        <time>2019-11-15T21:48:43Z</time>
      </trkpt>
      <trkpt lat="44.29928" lon="3.55384">
        <ele>1056</ele>
        <time>2019-11-15T21:48:46Z</time>
      </trkpt>
      <trkpt lat="44.29913" lon="3.55386">
        <ele>1057</ele>
        <time>2019-11-15T21:48:49Z</time>
      </trkpt>
      <trkpt lat="44.29904" lon="3.55395">
        <ele>1058</ele>
        <time>2019-11-15T21:48:51Z</time>
      </trkpt>
      <trkpt lat="44.29898" lon="3.5541">
        <ele>1059</ele>
        <time>2019-11-15T21:48:53Z</time>
      </trkpt>
      <trkpt lat="44.29878" lon="3.55436">
        <ele>1062</ele>
        <time>2019-11-15T21:48:58Z</time>
      </trkpt>
      <trkpt lat="44.29868" lon="3.55466">
        <ele>1065</ele>
        <time>2019-11-15T21:49:02Z</time>
      </trkpt>
      <trkpt lat="44.29861" lon="3.55479">
        <ele>1066</ele>
        <time>2019-11-15T21:49:04Z</time>
      </trkpt>
      <trkpt lat="44.29846" lon="3.55496">
        <ele>1068</ele>
        <time>2019-11-15T21:49:08Z</time>
      </trkpt>
      <trkpt lat="44.29831" lon="3.55528">
        <ele>1070</ele>
        <time>2019-11-15T21:49:13Z</time>
      </trkpt>
      <trkpt lat="44.29829" lon="3.55545">
        <ele>1071</ele>
        <time>2019-11-15T21:49:15Z</time>
      </trkpt>
      <trkpt lat="44.29818" lon="3.55584">
        <ele>1072</ele>
        <time>2019-11-15T21:49:20Z</time>
      </trkpt>
      <trkpt lat="44.29806" lon="3.55665">
        <ele>1074</ele>
        <time>2019-11-15T21:49:31Z</time>
      </trkpt>
      <trkpt lat="44.29801" lon="3.55682">
        <ele>1073</ele>
        <time>2019-11-15T21:49:33Z</time>
      </trkpt>
      <trkpt lat="44.29799" lon="3.55721">
        <ele>1072</ele>
        <time>2019-11-15T21:49:38Z</time>
      </trkpt>
      <trkpt lat="44.29801" lon="3.55738">
        <ele>1072</ele>
        <time>2019-11-15T21:49:40Z</time>
      </trkpt>
      <trkpt lat="44.2981" lon="3.55764">
        <ele>1073</ele>
        <time>2019-11-15T21:49:44Z</time>
      </trkpt>
      <trkpt lat="44.29812" lon="3.55777">
        <ele>1072</ele>
        <time>2019-11-15T21:49:46Z</time>
      </trkpt>
      <trkpt lat="44.29803" lon="3.5583">
        <ele>1068</ele>
        <time>2019-11-15T21:49:53Z</time>
      </trkpt>
      <trkpt lat="44.29799" lon="3.55841">
        <ele>1067</ele>
        <time>2019-11-15T21:49:54Z</time>
      </trkpt>
      <trkpt lat="44.29795" lon="3.55845">
        <ele>1067</ele>
        <time>2019-11-15T21:49:55Z</time>
      </trkpt>
      <trkpt lat="44.29808" lon="3.55852">
        <ele>1068</ele>
        <time>2019-11-15T21:49:57Z</time>
      </trkpt>
      <trkpt lat="44.29844" lon="3.5588">
        <ele>1069</ele>
        <time>2019-11-15T21:50:05Z</time>
      </trkpt>
      <trkpt lat="44.29863" lon="3.55912">
        <ele>1068</ele>
        <time>2019-11-15T21:50:10Z</time>
      </trkpt>
      <trkpt lat="44.29878" lon="3.55931">
        <ele>1068</ele>
        <time>2019-11-15T21:50:14Z</time>
      </trkpt>
      <trkpt lat="44.29889" lon="3.55953">
        <ele>1067</ele>
        <time>2019-11-15T21:50:17Z</time>
      </trkpt>
      <trkpt lat="44.29893" lon="3.55968">
        <ele>1067</ele>
        <time>2019-11-15T21:50:19Z</time>
      </trkpt>
      <trkpt lat="44.29893" lon="3.56021">
        <ele>1064</ele>
        <time>2019-11-15T21:50:26Z</time>
      </trkpt>
      <trkpt lat="44.29887" lon="3.56069">
        <ele>1061</ele>
        <time>2019-11-15T21:50:32Z</time>
      </trkpt>
      <trkpt lat="44.29885" lon="3.5612">
        <ele>1060</ele>
        <time>2019-11-15T21:50:39Z</time>
      </trkpt>
      <trkpt lat="44.29911" lon="3.56223">
        <ele>1061</ele>
        <time>2019-11-15T21:50:53Z</time>
      </trkpt>
      <trkpt lat="44.29919" lon="3.56249">
        <ele>1062</ele>
        <time>2019-11-15T21:50:56Z</time>
      </trkpt>
      <trkpt lat="44.2993" lon="3.56268">
        <ele>1062</ele>
        <time>2019-11-15T21:50:59Z</time>
      </trkpt>
      <trkpt lat="44.29943" lon="3.56277">
        <ele>1061</ele>
        <time>2019-11-15T21:51:02Z</time>
      </trkpt>
      <trkpt lat="44.29962" lon="3.56283">
        <ele>1058</ele>
        <time>2019-11-15T21:51:05Z</time>
      </trkpt>
      <trkpt lat="44.29986" lon="3.56296">
        <ele>1056</ele>
        <time>2019-11-15T21:51:10Z</time>
      </trkpt>
      <trkpt lat="44.30016" lon="3.56326">
        <ele>1054</ele>
        <time>2019-11-15T21:51:16Z</time>
      </trkpt>
      <trkpt lat="44.30042" lon="3.56348">
        <ele>1052</ele>
        <time>2019-11-15T21:51:22Z</time>
      </trkpt>
      <trkpt lat="44.3008" lon="3.56412">
        <ele>1050</ele>
        <time>2019-11-15T21:51:32Z</time>
      </trkpt>
      <trkpt lat="44.30093" lon="3.56429">
        <ele>1050</ele>
        <time>2019-11-15T21:51:36Z</time>
      </trkpt>
      <trkpt lat="44.30168" lon="3.56498">
        <ele>1043</ele>
        <time>2019-11-15T21:51:52Z</time>
      </trkpt>
      <trkpt lat="44.302" lon="3.56534">
        <ele>1040</ele>
        <time>2019-11-15T21:51:59Z</time>
      </trkpt>
      <trkpt lat="44.30282" lon="3.56665">
        <ele>1035</ele>
        <time>2019-11-15T21:52:21Z</time>
      </trkpt>
      <trkpt lat="44.30376" lon="3.56768">
        <ele>1028</ele>
        <time>2019-11-15T21:52:42Z</time>
      </trkpt>
      <trkpt lat="44.30391" lon="3.56807">
        <ele>1028</ele>
        <time>2019-11-15T21:52:48Z</time>
      </trkpt>
      <trkpt lat="44.30359" lon="3.56828">
        <ele>1032</ele>
        <time>2019-11-15T21:52:54Z</time>
      </trkpt>
      <trkpt lat="44.30329" lon="3.56841">
        <ele>1035</ele>
        <time>2019-11-15T21:53:00Z</time>
      </trkpt>
      <trkpt lat="44.30293" lon="3.56865">
        <ele>1039</ele>
        <time>2019-11-15T21:53:07Z</time>
      </trkpt>
      <trkpt lat="44.30263" lon="3.56875">
        <ele>1040</ele>
        <time>2019-11-15T21:53:12Z</time>
      </trkpt>
      <trkpt lat="44.30222" lon="3.56916">
        <ele>1043</ele>
        <time>2019-11-15T21:53:21Z</time>
      </trkpt>
      <trkpt lat="44.30192" lon="3.56966">
        <ele>1048</ele>
        <time>2019-11-15T21:53:30Z</time>
      </trkpt>
      <trkpt lat="44.30164" lon="3.56985">
        <ele>1049</ele>
        <time>2019-11-15T21:53:35Z</time>
      </trkpt>
      <trkpt lat="44.3016" lon="3.57066">
        <ele>1054</ele>
        <time>2019-11-15T21:53:46Z</time>
      </trkpt>
      <trkpt lat="44.30172" lon="3.57167">
        <ele>1059</ele>
        <time>2019-11-15T21:53:59Z</time>
      </trkpt>
      <trkpt lat="44.30168" lon="3.57169">
        <ele>1059</ele>
        <time>2019-11-15T21:53:59Z</time>
      </trkpt>
      <trkpt lat="44.3016" lon="3.57167">
        <ele>1060</ele>
        <time>2019-11-15T21:54:01Z</time>
      </trkpt>
      <trkpt lat="44.30119" lon="3.5715">
        <ele>1062</ele>
        <time>2019-11-15T21:54:08Z</time>
      </trkpt>
      <trkpt lat="44.30059" lon="3.57135">
        <ele>1066</ele>
        <time>2019-11-15T21:54:19Z</time>
      </trkpt>
      <trkpt lat="44.30009" lon="3.57131">
        <ele>1070</ele>
        <time>2019-11-15T21:54:28Z</time>
      </trkpt>
      <trkpt lat="44.29981" lon="3.5712">
        <ele>1071</ele>
        <time>2019-11-15T21:54:33Z</time>
      </trkpt>
      <trkpt lat="44.29956" lon="3.57116">
        <ele>1072</ele>
        <time>2019-11-15T21:54:38Z</time>
      </trkpt>
      <trkpt lat="44.29941" lon="3.57111">
        <ele>1073</ele>
        <time>2019-11-15T21:54:41Z</time>
      </trkpt>
      <trkpt lat="44.2993" lon="3.57111">
        <ele>1073</ele>
        <time>2019-11-15T21:54:42Z</time>
      </trkpt>
      <trkpt lat="44.29919" lon="3.57116">
        <ele>1074</ele>
        <time>2019-11-15T21:54:45Z</time>
      </trkpt>
      <trkpt lat="44.29911" lon="3.57124">
        <ele>1075</ele>
        <time>2019-11-15T21:54:46Z</time>
      </trkpt>
      <trkpt lat="44.29909" lon="3.57139">
        <ele>1075</ele>
        <time>2019-11-15T21:54:48Z</time>
      </trkpt>
      <trkpt lat="44.29913" lon="3.5718">
        <ele>1076</ele>
        <time>2019-11-15T21:54:54Z</time>
      </trkpt>
      <trkpt lat="44.29911" lon="3.5721">
        <ele>1078</ele>
        <time>2019-11-15T21:54:57Z</time>
      </trkpt>
      <trkpt lat="44.29898" lon="3.57232">
        <ele>1080</ele>
        <time>2019-11-15T21:55:01Z</time>
      </trkpt>
      <trkpt lat="44.29887" lon="3.5724">
        <ele>1080</ele>
        <time>2019-11-15T21:55:03Z</time>
      </trkpt>
      <trkpt lat="44.2981" lon="3.5727">
        <ele>1082</ele>
        <time>2019-11-15T21:55:17Z</time>
      </trkpt>
      <trkpt lat="44.29748" lon="3.57287">
        <ele>1081</ele>
        <time>2019-11-15T21:55:29Z</time>
      </trkpt>
      <trkpt lat="44.29728" lon="3.57302">
        <ele>1080</ele>
        <time>2019-11-15T21:55:33Z</time>
      </trkpt>
      <trkpt lat="44.29715" lon="3.57328">
        <ele>1079</ele>
        <time>2019-11-15T21:55:37Z</time>
      </trkpt>
      <trkpt lat="44.29707" lon="3.57339">
        <ele>1079</ele>
        <time>2019-11-15T21:55:39Z</time>
      </trkpt>
      <trkpt lat="44.29675" lon="3.57365">
        <ele>1078</ele>
        <time>2019-11-15T21:55:45Z</time>
      </trkpt>
      <trkpt lat="44.29642" lon="3.57386">
        <ele>1077</ele>
        <time>2019-11-15T21:55:52Z</time>
      </trkpt>
      <trkpt lat="44.29619" lon="3.5739">
        <ele>1076</ele>
        <time>2019-11-15T21:55:56Z</time>
      </trkpt>
      <trkpt lat="44.29604" lon="3.57386">
        <ele>1076</ele>
        <time>2019-11-15T21:55:59Z</time>
      </trkpt>
      <trkpt lat="44.29582" lon="3.57378">
        <ele>1075</ele>
        <time>2019-11-15T21:56:03Z</time>
      </trkpt>
      <trkpt lat="44.29544" lon="3.57347">
        <ele>1075</ele>
        <time>2019-11-15T21:56:10Z</time>
      </trkpt>
      <trkpt lat="44.29535" lon="3.57347">
        <ele>1075</ele>
        <time>2019-11-15T21:56:12Z</time>
      </trkpt>
      <trkpt lat="44.29529" lon="3.5735">
        <ele>1075</ele>
        <time>2019-11-15T21:56:13Z</time>
      </trkpt>
      <trkpt lat="44.2952" lon="3.57371">
        <ele>1075</ele>
        <time>2019-11-15T21:56:16Z</time>
      </trkpt>
      <trkpt lat="44.2952" lon="3.57384">
        <ele>1074</ele>
        <time>2019-11-15T21:56:18Z</time>
      </trkpt>
      <trkpt lat="44.29527" lon="3.57405">
        <ele>1074</ele>
        <time>2019-11-15T21:56:21Z</time>
      </trkpt>
      <trkpt lat="44.29527" lon="3.57416">
        <ele>1074</ele>
        <time>2019-11-15T21:56:22Z</time>
      </trkpt>
      <trkpt lat="44.29531" lon="3.57433">
        <ele>1074</ele>
        <time>2019-11-15T21:56:25Z</time>
      </trkpt>
      <trkpt lat="44.29531" lon="3.57448">
        <ele>1073</ele>
        <time>2019-11-15T21:56:27Z</time>
      </trkpt>
      <trkpt lat="44.29527" lon="3.57463">
        <ele>1073</ele>
        <time>2019-11-15T21:56:29Z</time>
      </trkpt>
      <trkpt lat="44.29514" lon="3.57476">
        <ele>1073</ele>
        <time>2019-11-15T21:56:31Z</time>
      </trkpt>
      <trkpt lat="44.2949" lon="3.57487">
        <ele>1073</ele>
        <time>2019-11-15T21:56:36Z</time>
      </trkpt>
      <trkpt lat="44.2943" lon="3.57498">
        <ele>1075</ele>
        <time>2019-11-15T21:56:47Z</time>
      </trkpt>
      <trkpt lat="44.29394" lon="3.575">
        <ele>1075</ele>
        <time>2019-11-15T21:56:53Z</time>
      </trkpt>
      <trkpt lat="44.2937" lon="3.57498">
        <ele>1075</ele>
        <time>2019-11-15T21:56:57Z</time>
      </trkpt>
      <trkpt lat="44.29331" lon="3.57481">
        <ele>1074</ele>
        <time>2019-11-15T21:57:05Z</time>
      </trkpt>
      <trkpt lat="44.29318" lon="3.57481">
        <ele>1075</ele>
        <time>2019-11-15T21:57:07Z</time>
      </trkpt>
      <trkpt lat="44.29306" lon="3.57491">
        <ele>1077</ele>
        <time>2019-11-15T21:57:09Z</time>
      </trkpt>
      <trkpt lat="44.29299" lon="3.57493">
        <ele>1077</ele>
        <time>2019-11-15T21:57:11Z</time>
      </trkpt>
      <trkpt lat="44.29282" lon="3.57491">
        <ele>1078</ele>
        <time>2019-11-15T21:57:14Z</time>
      </trkpt>
      <trkpt lat="44.2926" lon="3.57493">
        <ele>1080</ele>
        <time>2019-11-15T21:57:18Z</time>
      </trkpt>
      <trkpt lat="44.29233" lon="3.57485">
        <ele>1082</ele>
        <time>2019-11-15T21:57:23Z</time>
      </trkpt>
      <trkpt lat="44.29213" lon="3.57491">
        <ele>1083</ele>
        <time>2019-11-15T21:57:26Z</time>
      </trkpt>
      <trkpt lat="44.29117" lon="3.57485">
        <ele>1088</ele>
        <time>2019-11-15T21:57:43Z</time>
      </trkpt>
      <trkpt lat="44.29106" lon="3.57489">
        <ele>1088</ele>
        <time>2019-11-15T21:57:45Z</time>
      </trkpt>
      <trkpt lat="44.29089" lon="3.57491">
        <ele>1089</ele>
        <time>2019-11-15T21:57:48Z</time>
      </trkpt>
      <trkpt lat="44.29082" lon="3.57498">
        <ele>1090</ele>
        <time>2019-11-15T21:57:50Z</time>
      </trkpt>
      <trkpt lat="44.29072" lon="3.575">
        <ele>1091</ele>
        <time>2019-11-15T21:57:52Z</time>
      </trkpt>
      <trkpt lat="44.29061" lon="3.57506">
        <ele>1091</ele>
        <time>2019-11-15T21:57:54Z</time>
      </trkpt>
      <trkpt lat="44.29014" lon="3.57517">
        <ele>1094</ele>
        <time>2019-11-15T21:58:02Z</time>
      </trkpt>
      <trkpt lat="44.29007" lon="3.57515">
        <ele>1094</ele>
        <time>2019-11-15T21:58:04Z</time>
      </trkpt>
      <trkpt lat="44.28982" lon="3.57496">
        <ele>1094</ele>
        <time>2019-11-15T21:58:09Z</time>
      </trkpt>
      <trkpt lat="44.2893" lon="3.5747">
        <ele>1092</ele>
        <time>2019-11-15T21:58:18Z</time>
      </trkpt>
      <trkpt lat="44.28913" lon="3.57472">
        <ele>1091</ele>
        <time>2019-11-15T21:58:21Z</time>
      </trkpt>
      <trkpt lat="44.2893" lon="3.5747">
        <ele>1092</ele>
        <time>2019-11-15T21:58:25Z</time>
      </trkpt>
      <trkpt lat="44.28982" lon="3.57496">
        <ele>1094</ele>
        <time>2019-11-15T21:58:34Z</time>
      </trkpt>
      <trkpt lat="44.29007" lon="3.57515">
        <ele>1094</ele>
        <time>2019-11-15T21:58:39Z</time>
      </trkpt>
      <trkpt lat="44.29014" lon="3.57517">
        <ele>1094</ele>
        <time>2019-11-15T21:58:41Z</time>
      </trkpt>
      <trkpt lat="44.29061" lon="3.57506">
        <ele>1091</ele>
        <time>2019-11-15T21:58:49Z</time>
      </trkpt>
      <trkpt lat="44.29072" lon="3.575">
        <ele>1091</ele>
        <time>2019-11-15T21:58:51Z</time>
      </trkpt>
      <trkpt lat="44.29082" lon="3.57498">
        <ele>1090</ele>
        <time>2019-11-15T21:58:53Z</time>
      </trkpt>
      <trkpt lat="44.29089" lon="3.57491">
        <ele>1089</ele>
        <time>2019-11-15T21:58:55Z</time>
      </trkpt>
      <trkpt lat="44.29106" lon="3.57489">
        <ele>1088</ele>
        <time>2019-11-15T21:58:58Z</time>
      </trkpt>
      <trkpt lat="44.29115" lon="3.57485">
        <ele>1088</ele>
        <time>2019-11-15T21:58:59Z</time>
      </trkpt>
      <trkpt lat="44.29208" lon="3.57491">
        <ele>1083</ele>
        <time>2019-11-15T21:59:16Z</time>
      </trkpt>
      <trkpt lat="44.29117" lon="3.57485">
        <ele>1088</ele>
        <time>2019-11-15T21:59:32Z</time>
      </trkpt>
      <trkpt lat="44.29106" lon="3.57489">
        <ele>1088</ele>
        <time>2019-11-15T21:59:34Z</time>
      </trkpt>
      <trkpt lat="44.29089" lon="3.57491">
        <ele>1089</ele>
        <time>2019-11-15T21:59:37Z</time>
      </trkpt>
      <trkpt lat="44.29082" lon="3.57498">
        <ele>1090</ele>
        <time>2019-11-15T21:59:39Z</time>
      </trkpt>
      <trkpt lat="44.29072" lon="3.575">
        <ele>1091</ele>
        <time>2019-11-15T21:59:40Z</time>
      </trkpt>
      <trkpt lat="44.29061" lon="3.57506">
        <ele>1091</ele>
        <time>2019-11-15T21:59:43Z</time>
      </trkpt>
      <trkpt lat="44.29014" lon="3.57517">
        <ele>1094</ele>
        <time>2019-11-15T21:59:51Z</time>
      </trkpt>
      <trkpt lat="44.29007" lon="3.57515">
        <ele>1094</ele>
        <time>2019-11-15T21:59:52Z</time>
      </trkpt>
      <trkpt lat="44.28982" lon="3.57496">
        <ele>1094</ele>
        <time>2019-11-15T21:59:57Z</time>
      </trkpt>
      <trkpt lat="44.2893" lon="3.5747">
        <ele>1092</ele>
        <time>2019-11-15T22:00:07Z</time>
      </trkpt>
      <trkpt lat="44.28913" lon="3.57472">
        <ele>1091</ele>
        <time>2019-11-15T22:00:10Z</time>
      </trkpt>
      <trkpt lat="44.28917" lon="3.57487">
        <ele>1091</ele>
        <time>2019-11-15T22:00:12Z</time>
      </trkpt>
      <trkpt lat="44.28943" lon="3.57513">
        <ele>1092</ele>
        <time>2019-11-15T22:00:18Z</time>
      </trkpt>
      <trkpt lat="44.28973" lon="3.57553">
        <ele>1092</ele>
        <time>2019-11-15T22:00:25Z</time>
      </trkpt>
      <trkpt lat="44.29001" lon="3.57601">
        <ele>1092</ele>
        <time>2019-11-15T22:00:33Z</time>
      </trkpt>
      <trkpt lat="44.29016" lon="3.5762">
        <ele>1091</ele>
        <time>2019-11-15T22:00:37Z</time>
      </trkpt>
      <trkpt lat="44.29035" lon="3.57639">
        <ele>1090</ele>
        <time>2019-11-15T22:00:41Z</time>
      </trkpt>
      <trkpt lat="44.29078" lon="3.57671">
        <ele>1090</ele>
        <time>2019-11-15T22:00:50Z</time>
      </trkpt>
      <trkpt lat="44.29132" lon="3.57721">
        <ele>1084</ele>
        <time>2019-11-15T22:01:01Z</time>
      </trkpt>
      <trkpt lat="44.2914" lon="3.57725">
        <ele>1083</ele>
        <time>2019-11-15T22:01:03Z</time>
      </trkpt>
      <trkpt lat="44.29149" lon="3.57734">
        <ele>1082</ele>
        <time>2019-11-15T22:01:05Z</time>
      </trkpt>
      <trkpt lat="44.29151" lon="3.57742">
        <ele>1082</ele>
        <time>2019-11-15T22:01:06Z</time>
      </trkpt>
      <trkpt lat="44.29155" lon="3.57747">
        <ele>1082</ele>
        <time>2019-11-15T22:01:07Z</time>
      </trkpt>
      <trkpt lat="44.29168" lon="3.57755">
        <ele>1081</ele>
        <time>2019-11-15T22:01:09Z</time>
      </trkpt>
      <trkpt lat="44.29181" lon="3.5777">
        <ele>1080</ele>
        <time>2019-11-15T22:01:12Z</time>
      </trkpt>
      <trkpt lat="44.2922" lon="3.57832">
        <ele>1081</ele>
        <time>2019-11-15T22:01:23Z</time>
      </trkpt>
      <trkpt lat="44.29239" lon="3.57877">
        <ele>1084</ele>
        <time>2019-11-15T22:01:29Z</time>
      </trkpt>
      <trkpt lat="44.29308" lon="3.57963">
        <ele>1089</ele>
        <time>2019-11-15T22:01:46Z</time>
      </trkpt>
      <trkpt lat="44.29329" lon="3.58008">
        <ele>1092</ele>
        <time>2019-11-15T22:01:53Z</time>
      </trkpt>
      <trkpt lat="44.29342" lon="3.58019">
        <ele>1091</ele>
        <time>2019-11-15T22:01:55Z</time>
      </trkpt>
      <trkpt lat="44.29355" lon="3.58051">
        <ele>1090</ele>
        <time>2019-11-15T22:02:00Z</time>
      </trkpt>
      <trkpt lat="44.29361" lon="3.58058">
        <ele>1090</ele>
        <time>2019-11-15T22:02:01Z</time>
      </trkpt>
      <trkpt lat="44.29391" lon="3.58073">
        <ele>1089</ele>
        <time>2019-11-15T22:02:07Z</time>
      </trkpt>
      <trkpt lat="44.29434" lon="3.58075">
        <ele>1089</ele>
        <time>2019-11-15T22:02:15Z</time>
      </trkpt>
      <trkpt lat="44.29464" lon="3.58068">
        <ele>1088</ele>
        <time>2019-11-15T22:02:20Z</time>
      </trkpt>
      <trkpt lat="44.29475" lon="3.58068">
        <ele>1088</ele>
        <time>2019-11-15T22:02:22Z</time>
      </trkpt>
      <trkpt lat="44.29492" lon="3.58073">
        <ele>1089</ele>
        <time>2019-11-15T22:02:25Z</time>
      </trkpt>
      <trkpt lat="44.29505" lon="3.58073">
        <ele>1089</ele>
        <time>2019-11-15T22:02:28Z</time>
      </trkpt>
      <trkpt lat="44.29522" lon="3.58079">
        <ele>1089</ele>
        <time>2019-11-15T22:02:31Z</time>
      </trkpt>
      <trkpt lat="44.29548" lon="3.58105">
        <ele>1087</ele>
        <time>2019-11-15T22:02:36Z</time>
      </trkpt>
      <trkpt lat="44.29563" lon="3.58118">
        <ele>1087</ele>
        <time>2019-11-15T22:02:40Z</time>
      </trkpt>
      <trkpt lat="44.29572" lon="3.58122">
        <ele>1087</ele>
        <time>2019-11-15T22:02:41Z</time>
      </trkpt>
      <trkpt lat="44.29585" lon="3.58137">
        <ele>1087</ele>
        <time>2019-11-15T22:02:44Z</time>
      </trkpt>
      <trkpt lat="44.29642" lon="3.58184">
        <ele>1087</ele>
        <time>2019-11-15T22:02:56Z</time>
      </trkpt>
      <trkpt lat="44.2966" lon="3.58225">
        <ele>1085</ele>
        <time>2019-11-15T22:03:02Z</time>
      </trkpt>
      <trkpt lat="44.29666" lon="3.58234">
        <ele>1085</ele>
        <time>2019-11-15T22:03:04Z</time>
      </trkpt>
      <trkpt lat="44.29672" lon="3.58257">
        <ele>1084</ele>
        <time>2019-11-15T22:03:07Z</time>
      </trkpt>
      <trkpt lat="44.29677" lon="3.58259">
        <ele>1083</ele>
        <time>2019-11-15T22:03:08Z</time>
      </trkpt>
      <trkpt lat="44.29685" lon="3.58289">
        <ele>1082</ele>
        <time>2019-11-15T22:03:12Z</time>
      </trkpt>
      <trkpt lat="44.29707" lon="3.58416">
        <ele>1076</ele>
        <time>2019-11-15T22:03:28Z</time>
      </trkpt>
      <trkpt lat="44.29705" lon="3.58444">
        <ele>1075</ele>
        <time>2019-11-15T22:03:32Z</time>
      </trkpt>
      <trkpt lat="44.29718" lon="3.58541">
        <ele>1077</ele>
        <time>2019-11-15T22:03:45Z</time>
      </trkpt>
      <trkpt lat="44.29703" lon="3.5862">
        <ele>1075</ele>
        <time>2019-11-15T22:03:55Z</time>
      </trkpt>
      <trkpt lat="44.29683" lon="3.58665">
        <ele>1071</ele>
        <time>2019-11-15T22:04:02Z</time>
      </trkpt>
      <trkpt lat="44.29666" lon="3.58725">
        <ele>1065</ele>
        <time>2019-11-15T22:04:10Z</time>
      </trkpt>
      <trkpt lat="44.29662" lon="3.58757">
        <ele>1059</ele>
        <time>2019-11-15T22:04:14Z</time>
      </trkpt>
      <trkpt lat="44.29672" lon="3.58759">
        <ele>1058</ele>
        <time>2019-11-15T22:04:16Z</time>
      </trkpt>
      <trkpt lat="44.29756" lon="3.5874">
        <ele>1056</ele>
        <time>2019-11-15T22:04:31Z</time>
      </trkpt>
      <trkpt lat="44.29797" lon="3.58736">
        <ele>1055</ele>
        <time>2019-11-15T22:04:38Z</time>
      </trkpt>
      <trkpt lat="44.29812" lon="3.5874">
        <ele>1053</ele>
        <time>2019-11-15T22:04:41Z</time>
      </trkpt>
      <trkpt lat="44.29859" lon="3.58781">
        <ele>1040</ele>
        <time>2019-11-15T22:04:51Z</time>
      </trkpt>
      <trkpt lat="44.29883" lon="3.58794">
        <ele>1040</ele>
        <time>2019-11-15T22:04:55Z</time>
      </trkpt>
      <trkpt lat="44.29891" lon="3.58802">
        <ele>1038</ele>
        <time>2019-11-15T22:04:57Z</time>
      </trkpt>
      <trkpt lat="44.29896" lon="3.58813">
        <ele>1036</ele>
        <time>2019-11-15T22:04:59Z</time>
      </trkpt>
      <trkpt lat="44.299" lon="3.58826">
        <ele>1032</ele>
        <time>2019-11-15T22:05:01Z</time>
      </trkpt>
      <trkpt lat="44.299" lon="3.58837">
        <ele>1028</ele>
        <time>2019-11-15T22:05:02Z</time>
      </trkpt>
      <trkpt lat="44.29896" lon="3.58837">
        <ele>1026</ele>
        <time>2019-11-15T22:05:03Z</time>
      </trkpt>
      <trkpt lat="44.29889" lon="3.58826">
        <ele>1029</ele>
        <time>2019-11-15T22:05:05Z</time>
      </trkpt>
      <trkpt lat="44.29876" lon="3.58815">
        <ele>1029</ele>
        <time>2019-11-15T22:05:07Z</time>
      </trkpt>
      <trkpt lat="44.29872" lon="3.58813">
        <ele>1029</ele>
        <time>2019-11-15T22:05:08Z</time>
      </trkpt>
      <trkpt lat="44.29868" lon="3.58815">
        <ele>1027</ele>
        <time>2019-11-15T22:05:09Z</time>
      </trkpt>
      <trkpt lat="44.29876" lon="3.58837">
        <ele>1020</ele>
        <time>2019-11-15T22:05:12Z</time>
      </trkpt>
      <trkpt lat="44.29876" lon="3.58843">
        <ele>1018</ele>
        <time>2019-11-15T22:05:13Z</time>
      </trkpt>
      <trkpt lat="44.29861" lon="3.58832">
        <ele>1018</ele>
        <time>2019-11-15T22:05:16Z</time>
      </trkpt>
      <trkpt lat="44.29848" lon="3.58835">
        <ele>1013</ele>
        <time>2019-11-15T22:05:18Z</time>
      </trkpt>
      <trkpt lat="44.29818" lon="3.58832">
        <ele>1009</ele>
        <time>2019-11-15T22:05:24Z</time>
      </trkpt>
      <trkpt lat="44.2981" lon="3.58837">
        <ele>1006</ele>
        <time>2019-11-15T22:05:25Z</time>
      </trkpt>
      <trkpt lat="44.29799" lon="3.58837">
        <ele>1005</ele>
        <time>2019-11-15T22:05:27Z</time>
      </trkpt>
      <trkpt lat="44.29797" lon="3.58841">
        <ele>1003</ele>
        <time>2019-11-15T22:05:28Z</time>
      </trkpt>
      <trkpt lat="44.29812" lon="3.58845">
        <ele>1002</ele>
        <time>2019-11-15T22:05:30Z</time>
      </trkpt>
      <trkpt lat="44.29821" lon="3.58852">
        <ele>1000</ele>
        <time>2019-11-15T22:05:32Z</time>
      </trkpt>
      <trkpt lat="44.2984" lon="3.58875">
        <ele>993</ele>
        <time>2019-11-15T22:05:37Z</time>
      </trkpt>
      <trkpt lat="44.2984" lon="3.5888">
        <ele>991</ele>
        <time>2019-11-15T22:05:37Z</time>
      </trkpt>
      <trkpt lat="44.29829" lon="3.58877">
        <ele>990</ele>
        <time>2019-11-15T22:05:39Z</time>
      </trkpt>
      <trkpt lat="44.29816" lon="3.58877">
        <ele>988</ele>
        <time>2019-11-15T22:05:42Z</time>
      </trkpt>
      <trkpt lat="44.29756" lon="3.58895">
        <ele>970</ele>
        <time>2019-11-15T22:05:53Z</time>
      </trkpt>
      <trkpt lat="44.29741" lon="3.5889">
        <ele>973</ele>
        <time>2019-11-15T22:05:55Z</time>
      </trkpt>
      <trkpt lat="44.29733" lon="3.58892">
        <ele>973</ele>
        <time>2019-11-15T22:05:57Z</time>
      </trkpt>
      <trkpt lat="44.29724" lon="3.58899">
        <ele>971</ele>
        <time>2019-11-15T22:05:59Z</time>
      </trkpt>
      <trkpt lat="44.29718" lon="3.58922">
        <ele>959</ele>
        <time>2019-11-15T22:06:02Z</time>
      </trkpt>
      <trkpt lat="44.29703" lon="3.5894">
        <ele>951</ele>
        <time>2019-11-15T22:06:05Z</time>
      </trkpt>
      <trkpt lat="44.29694" lon="3.58944">
        <ele>950</ele>
        <time>2019-11-15T22:06:07Z</time>
      </trkpt>
      <trkpt lat="44.29672" lon="3.58946">
        <ele>952</ele>
        <time>2019-11-15T22:06:11Z</time>
      </trkpt>
      <trkpt lat="44.29672" lon="3.58953">
        <ele>948</ele>
        <time>2019-11-15T22:06:12Z</time>
      </trkpt>
      <trkpt lat="44.29672" lon="3.58946">
        <ele>952</ele>
        <time>2019-11-15T22:06:13Z</time>
      </trkpt>
      <trkpt lat="44.29657" lon="3.5895">
        <ele>949</ele>
        <time>2019-11-15T22:06:15Z</time>
      </trkpt>
      <trkpt lat="44.29647" lon="3.58959">
        <ele>942</ele>
        <time>2019-11-15T22:06:17Z</time>
      </trkpt>
      <trkpt lat="44.29642" lon="3.58959">
        <ele>941</ele>
        <time>2019-11-15T22:06:18Z</time>
      </trkpt>
      <trkpt lat="44.29638" lon="3.58957">
        <ele>941</ele>
        <time>2019-11-15T22:06:19Z</time>
      </trkpt>
      <trkpt lat="44.29636" lon="3.5895">
        <ele>945</ele>
        <time>2019-11-15T22:06:20Z</time>
      </trkpt>
      <trkpt lat="44.29632" lon="3.5895">
        <ele>944</ele>
        <time>2019-11-15T22:06:21Z</time>
      </trkpt>
      <trkpt lat="44.29632" lon="3.58965">
        <ele>936</ele>
        <time>2019-11-15T22:06:23Z</time>
      </trkpt>
      <trkpt lat="44.29623" lon="3.58957">
        <ele>939</ele>
        <time>2019-11-15T22:06:25Z</time>
      </trkpt>
      <trkpt lat="44.29617" lon="3.58955">
        <ele>939</ele>
        <time>2019-11-15T22:06:26Z</time>
      </trkpt>
      <trkpt lat="44.29597" lon="3.58955">
        <ele>935</ele>
        <time>2019-11-15T22:06:29Z</time>
      </trkpt>
      <trkpt lat="44.2961" lon="3.58968">
        <ele>930</ele>
        <time>2019-11-15T22:06:32Z</time>
      </trkpt>
      <trkpt lat="44.29621" lon="3.58989">
        <ele>920</ele>
        <time>2019-11-15T22:06:35Z</time>
      </trkpt>
      <trkpt lat="44.29623" lon="3.58998">
        <ele>915</ele>
        <time>2019-11-15T22:06:37Z</time>
      </trkpt>
      <trkpt lat="44.29621" lon="3.59008">
        <ele>908</ele>
        <time>2019-11-15T22:06:38Z</time>
      </trkpt>
      <trkpt lat="44.2961" lon="3.58991">
        <ele>916</ele>
        <time>2019-11-15T22:06:41Z</time>
      </trkpt>
      <trkpt lat="44.29595" lon="3.58983">
        <ele>918</ele>
        <time>2019-11-15T22:06:44Z</time>
      </trkpt>
      <trkpt lat="44.29574" lon="3.5898">
        <ele>915</ele>
        <time>2019-11-15T22:06:47Z</time>
      </trkpt>
      <trkpt lat="44.29565" lon="3.58983">
        <ele>911</ele>
        <time>2019-11-15T22:06:49Z</time>
      </trkpt>
      <trkpt lat="44.29554" lon="3.58978">
        <ele>912</ele>
        <time>2019-11-15T22:06:51Z</time>
      </trkpt>
      <trkpt lat="44.2955" lon="3.5898">
        <ele>910</ele>
        <time>2019-11-15T22:06:52Z</time>
      </trkpt>
      <trkpt lat="44.29544" lon="3.58978">
        <ele>910</ele>
        <time>2019-11-15T22:06:53Z</time>
      </trkpt>
      <trkpt lat="44.29535" lon="3.5898">
        <ele>907</ele>
        <time>2019-11-15T22:06:55Z</time>
      </trkpt>
      <trkpt lat="44.29537" lon="3.58985">
        <ele>904</ele>
        <time>2019-11-15T22:06:55Z</time>
      </trkpt>
      <trkpt lat="44.29572" lon="3.5901">
        <ele>896</ele>
        <time>2019-11-15T22:07:02Z</time>
      </trkpt>
      <trkpt lat="44.29578" lon="3.5901">
        <ele>898</ele>
        <time>2019-11-15T22:07:03Z</time>
      </trkpt>
      <trkpt lat="44.2958" lon="3.59015">
        <ele>895</ele>
        <time>2019-11-15T22:07:04Z</time>
      </trkpt>
      <trkpt lat="44.29563" lon="3.59021">
        <ele>888</ele>
        <time>2019-11-15T22:07:07Z</time>
      </trkpt>
      <trkpt lat="44.29537" lon="3.59019">
        <ele>883</ele>
        <time>2019-11-15T22:07:12Z</time>
      </trkpt>
      <trkpt lat="44.29501" lon="3.59038">
        <ele>864</ele>
        <time>2019-11-15T22:07:19Z</time>
      </trkpt>
      <trkpt lat="44.29464" lon="3.5904">
        <ele>857</ele>
        <time>2019-11-15T22:07:25Z</time>
      </trkpt>
      <trkpt lat="44.2946" lon="3.59043">
        <ele>855</ele>
        <time>2019-11-15T22:07:26Z</time>
      </trkpt>
      <trkpt lat="44.29436" lon="3.59047">
        <ele>849</ele>
        <time>2019-11-15T22:07:30Z</time>
      </trkpt>
      <trkpt lat="44.29432" lon="3.59051">
        <ele>846</ele>
        <time>2019-11-15T22:07:31Z</time>
      </trkpt>
      <trkpt lat="44.29413" lon="3.59053">
        <ele>842</ele>
        <time>2019-11-15T22:07:35Z</time>
      </trkpt>
      <trkpt lat="44.29409" lon="3.59058">
        <ele>838</ele>
        <time>2019-11-15T22:07:36Z</time>
      </trkpt>
      <trkpt lat="44.29398" lon="3.5906">
        <ele>834</ele>
        <time>2019-11-15T22:07:38Z</time>
      </trkpt>
      <trkpt lat="44.29391" lon="3.59058">
        <ele>833</ele>
        <time>2019-11-15T22:07:39Z</time>
      </trkpt>
      <trkpt lat="44.29387" lon="3.5906">
        <ele>831</ele>
        <time>2019-11-15T22:07:40Z</time>
      </trkpt>
      <trkpt lat="44.29387" lon="3.59064">
        <ele>830</ele>
        <time>2019-11-15T22:07:40Z</time>
      </trkpt>
      <trkpt lat="44.29398" lon="3.59079">
        <ele>826</ele>
        <time>2019-11-15T22:07:43Z</time>
      </trkpt>
      <trkpt lat="44.29411" lon="3.59079">
        <ele>829</ele>
        <time>2019-11-15T22:07:45Z</time>
      </trkpt>
      <trkpt lat="44.29413" lon="3.59086">
        <ele>827</ele>
        <time>2019-11-15T22:07:46Z</time>
      </trkpt>
      <trkpt lat="44.29406" lon="3.59092">
        <ele>824</ele>
        <time>2019-11-15T22:07:48Z</time>
      </trkpt>
      <trkpt lat="44.29396" lon="3.59094">
        <ele>821</ele>
        <time>2019-11-15T22:07:49Z</time>
      </trkpt>
      <trkpt lat="44.29391" lon="3.59098">
        <ele>820</ele>
        <time>2019-11-15T22:07:50Z</time>
      </trkpt>
      <trkpt lat="44.29391" lon="3.59103">
        <ele>819</ele>
        <time>2019-11-15T22:07:51Z</time>
      </trkpt>
      <trkpt lat="44.29411" lon="3.59116">
        <ele>819</ele>
        <time>2019-11-15T22:07:55Z</time>
      </trkpt>
      <trkpt lat="44.29454" lon="3.59176">
        <ele>804</ele>
        <time>2019-11-15T22:08:06Z</time>
      </trkpt>
      <trkpt lat="44.29484" lon="3.59171">
        <ele>804</ele>
        <time>2019-11-15T22:08:11Z</time>
      </trkpt>
      <trkpt lat="44.29507" lon="3.59146">
        <ele>814</ele>
        <time>2019-11-15T22:08:16Z</time>
      </trkpt>
      <trkpt lat="44.29524" lon="3.59135">
        <ele>821</ele>
        <time>2019-11-15T22:08:20Z</time>
      </trkpt>
      <trkpt lat="44.29533" lon="3.59135">
        <ele>822</ele>
        <time>2019-11-15T22:08:21Z</time>
      </trkpt>
      <trkpt lat="44.29539" lon="3.59137">
        <ele>822</ele>
        <time>2019-11-15T22:08:22Z</time>
      </trkpt>
      <trkpt lat="44.29575" lon="3.59166">
        <ele>813</ele>
        <time>2019-11-15T22:08:30Z</time>
      </trkpt>
      <trkpt lat="44.29567" lon="3.59159">
        <ele>816</ele>
        <time>2019-11-15T22:08:31Z</time>
      </trkpt>
      <trkpt lat="44.29591" lon="3.59182">
        <ele>809</ele>
        <time>2019-11-15T22:08:37Z</time>
      </trkpt>
      <trkpt lat="44.29606" lon="3.59206">
        <ele>800</ele>
        <time>2019-11-15T22:08:41Z</time>
      </trkpt>
      <trkpt lat="44.29612" lon="3.5921">
        <ele>799</ele>
        <time>2019-11-15T22:08:42Z</time>
      </trkpt>
      <trkpt lat="44.29632" lon="3.59212">
        <ele>799</ele>
        <time>2019-11-15T22:08:45Z</time>
      </trkpt>
      <trkpt lat="44.29688" lon="3.59195">
        <ele>807</ele>
        <time>2019-11-15T22:08:56Z</time>
      </trkpt>
      <trkpt lat="44.29703" lon="3.59195">
        <ele>807</ele>
        <time>2019-11-15T22:08:58Z</time>
      </trkpt>
      <trkpt lat="44.29715" lon="3.59201">
        <ele>805</ele>
        <time>2019-11-15T22:09:01Z</time>
      </trkpt>
      <trkpt lat="44.29763" lon="3.59242">
        <ele>796</ele>
        <time>2019-11-15T22:09:11Z</time>
      </trkpt>
      <trkpt lat="44.29771" lon="3.59246">
        <ele>798</ele>
        <time>2019-11-15T22:09:12Z</time>
      </trkpt>
      <trkpt lat="44.29808" lon="3.59285">
        <ele>802</ele>
        <time>2019-11-15T22:09:20Z</time>
      </trkpt>
      <trkpt lat="44.29851" lon="3.59362">
        <ele>793</ele>
        <time>2019-11-15T22:09:33Z</time>
      </trkpt>
      <trkpt lat="44.29861" lon="3.59377">
        <ele>791</ele>
        <time>2019-11-15T22:09:35Z</time>
      </trkpt>
      <trkpt lat="44.29878" lon="3.59395">
        <ele>788</ele>
        <time>2019-11-15T22:09:39Z</time>
      </trkpt>
      <trkpt lat="44.29902" lon="3.59407">
        <ele>788</ele>
        <time>2019-11-15T22:09:44Z</time>
      </trkpt>
      <trkpt lat="44.29934" lon="3.59403">
        <ele>791</ele>
        <time>2019-11-15T22:09:49Z</time>
      </trkpt>
      <trkpt lat="44.29956" lon="3.59405">
        <ele>789</ele>
        <time>2019-11-15T22:09:53Z</time>
      </trkpt>
      <trkpt lat="44.29994" lon="3.59418">
        <ele>782</ele>
        <time>2019-11-15T22:10:00Z</time>
      </trkpt>
      <trkpt lat="44.30007" lon="3.59416">
        <ele>781</ele>
        <time>2019-11-15T22:10:03Z</time>
      </trkpt>
      <trkpt lat="44.30024" lon="3.59407">
        <ele>782</ele>
        <time>2019-11-15T22:10:06Z</time>
      </trkpt>
      <trkpt lat="44.30067" lon="3.59375">
        <ele>784</ele>
        <time>2019-11-15T22:10:15Z</time>
      </trkpt>
      <trkpt lat="44.30084" lon="3.59367">
        <ele>782</ele>
        <time>2019-11-15T22:10:18Z</time>
      </trkpt>
      <trkpt lat="44.30108" lon="3.59339">
        <ele>780</ele>
        <time>2019-11-15T22:10:23Z</time>
      </trkpt>
      <trkpt lat="44.30121" lon="3.59296">
        <ele>783</ele>
        <time>2019-11-15T22:10:29Z</time>
      </trkpt>
      <trkpt lat="44.3013" lon="3.59283">
        <ele>780</ele>
        <time>2019-11-15T22:10:32Z</time>
      </trkpt>
      <trkpt lat="44.30142" lon="3.59227">
        <ele>783</ele>
        <time>2019-11-15T22:10:39Z</time>
      </trkpt>
      <trkpt lat="44.30153" lon="3.5921">
        <ele>780</ele>
        <time>2019-11-15T22:10:42Z</time>
      </trkpt>
      <trkpt lat="44.30172" lon="3.59191">
        <ele>775</ele>
        <time>2019-11-15T22:10:46Z</time>
      </trkpt>
      <trkpt lat="44.30201" lon="3.59168">
        <ele>772</ele>
        <time>2019-11-15T22:10:52Z</time>
      </trkpt>
      <trkpt lat="44.30222" lon="3.59161">
        <ele>768</ele>
        <time>2019-11-15T22:10:56Z</time>
      </trkpt>
      <trkpt lat="44.3026" lon="3.59159">
        <ele>758</ele>
        <time>2019-11-15T22:11:03Z</time>
      </trkpt>
      <trkpt lat="44.30271" lon="3.59156">
        <ele>756</ele>
        <time>2019-11-15T22:11:05Z</time>
      </trkpt>
      <trkpt lat="44.30286" lon="3.59143">
        <ele>756</ele>
        <time>2019-11-15T22:11:08Z</time>
      </trkpt>
      <trkpt lat="44.3034" lon="3.59086">
        <ele>753</ele>
        <time>2019-11-15T22:11:20Z</time>
      </trkpt>
      <trkpt lat="44.30406" lon="3.59025">
        <ele>755</ele>
        <time>2019-11-15T22:11:34Z</time>
      </trkpt>
      <trkpt lat="44.3043" lon="3.59021">
        <ele>756</ele>
        <time>2019-11-15T22:11:38Z</time>
      </trkpt>
      <trkpt lat="44.30439" lon="3.59023">
        <ele>757</ele>
        <time>2019-11-15T22:11:40Z</time>
      </trkpt>
      <trkpt lat="44.30462" lon="3.59036">
        <ele>756</ele>
        <time>2019-11-15T22:11:44Z</time>
      </trkpt>
      <trkpt lat="44.30471" lon="3.59049">
        <ele>754</ele>
        <time>2019-11-15T22:11:47Z</time>
      </trkpt>
      <trkpt lat="44.30479" lon="3.59056">
        <ele>753</ele>
        <time>2019-11-15T22:11:48Z</time>
      </trkpt>
      <trkpt lat="44.30488" lon="3.59081">
        <ele>746</ele>
        <time>2019-11-15T22:11:52Z</time>
      </trkpt>
      <trkpt lat="44.30499" lon="3.5909">
        <ele>745</ele>
        <time>2019-11-15T22:11:54Z</time>
      </trkpt>
      <trkpt lat="44.30518" lon="3.59118">
        <ele>745</ele>
        <time>2019-11-15T22:11:59Z</time>
      </trkpt>
      <trkpt lat="44.30526" lon="3.59124">
        <ele>747</ele>
        <time>2019-11-15T22:12:01Z</time>
      </trkpt>
      <trkpt lat="44.30533" lon="3.59148">
        <ele>743</ele>
        <time>2019-11-15T22:12:04Z</time>
      </trkpt>
      <trkpt lat="44.30541" lon="3.59162">
        <ele>742</ele>
        <time>2019-11-15T22:12:06Z</time>
      </trkpt>
      <trkpt lat="44.30533" lon="3.59148">
        <ele>743</ele>
        <time>2019-11-15T22:12:08Z</time>
      </trkpt>
      <trkpt lat="44.30567" lon="3.59204">
        <ele>742</ele>
        <time>2019-11-15T22:12:18Z</time>
      </trkpt>
      <trkpt lat="44.30584" lon="3.59227">
        <ele>744</ele>
        <time>2019-11-15T22:12:22Z</time>
      </trkpt>
      <trkpt lat="44.30638" lon="3.59317">
        <ele>735</ele>
        <time>2019-11-15T22:12:37Z</time>
      </trkpt>
      <trkpt lat="44.30645" lon="3.59322">
        <ele>736</ele>
        <time>2019-11-15T22:12:38Z</time>
      </trkpt>
      <trkpt lat="44.30705" lon="3.59309">
        <ele>742</ele>
        <time>2019-11-15T22:12:49Z</time>
      </trkpt>
      <trkpt lat="44.30812" lon="3.59317">
        <ele>721</ele>
        <time>2019-11-15T22:13:08Z</time>
      </trkpt>
      <trkpt lat="44.3082" lon="3.59315">
        <ele>720</ele>
        <time>2019-11-15T22:13:10Z</time>
      </trkpt>
      <trkpt lat="44.30823" lon="3.59319">
        <ele>718</ele>
        <time>2019-11-15T22:13:10Z</time>
      </trkpt>
      <trkpt lat="44.3082" lon="3.59324">
        <ele>718</ele>
        <time>2019-11-15T22:13:11Z</time>
      </trkpt>
      <trkpt lat="44.30799" lon="3.59341">
        <ele>719</ele>
        <time>2019-11-15T22:13:16Z</time>
      </trkpt>
      <trkpt lat="44.30801" lon="3.59345">
        <ele>718</ele>
        <time>2019-11-15T22:13:16Z</time>
      </trkpt>
      <trkpt lat="44.30829" lon="3.59343">
        <ele>713</ele>
        <time>2019-11-15T22:13:21Z</time>
      </trkpt>
      <trkpt lat="44.30838" lon="3.59339">
        <ele>711</ele>
        <time>2019-11-15T22:13:23Z</time>
      </trkpt>
      <trkpt lat="44.30846" lon="3.5933">
        <ele>709</ele>
        <time>2019-11-15T22:13:25Z</time>
      </trkpt>
      <trkpt lat="44.30846" lon="3.59362">
        <ele>703</ele>
        <time>2019-11-15T22:13:29Z</time>
      </trkpt>
      <trkpt lat="44.3084" lon="3.59373">
        <ele>703</ele>
        <time>2019-11-15T22:13:31Z</time>
      </trkpt>
      <trkpt lat="44.30831" lon="3.59382">
        <ele>704</ele>
        <time>2019-11-15T22:13:32Z</time>
      </trkpt>
      <trkpt lat="44.30797" lon="3.59399">
        <ele>703</ele>
        <time>2019-11-15T22:13:39Z</time>
      </trkpt>
      <trkpt lat="44.30797" lon="3.59405">
        <ele>701</ele>
        <time>2019-11-15T22:13:40Z</time>
      </trkpt>
      <trkpt lat="44.30825" lon="3.59412">
        <ele>698</ele>
        <time>2019-11-15T22:13:45Z</time>
      </trkpt>
      <trkpt lat="44.30835" lon="3.5941">
        <ele>698</ele>
        <time>2019-11-15T22:13:47Z</time>
      </trkpt>
      <trkpt lat="44.30872" lon="3.59392">
        <ele>686</ele>
        <time>2019-11-15T22:13:53Z</time>
      </trkpt>
      <trkpt lat="44.30883" lon="3.5939">
        <ele>682</ele>
        <time>2019-11-15T22:13:55Z</time>
      </trkpt>
      <trkpt lat="44.30891" lon="3.59384">
        <ele>680</ele>
        <time>2019-11-15T22:13:57Z</time>
      </trkpt>
      <trkpt lat="44.30889" lon="3.59392">
        <ele>680</ele>
        <time>2019-11-15T22:13:58Z</time>
      </trkpt>
      <trkpt lat="44.30878" lon="3.5941">
        <ele>681</ele>
        <time>2019-11-15T22:14:01Z</time>
      </trkpt>
      <trkpt lat="44.30863" lon="3.59427">
        <ele>682</ele>
        <time>2019-11-15T22:14:05Z</time>
      </trkpt>
      <trkpt lat="44.30868" lon="3.59429">
        <ele>679</ele>
        <time>2019-11-15T22:14:06Z</time>
      </trkpt>
      <trkpt lat="44.30904" lon="3.59405">
        <ele>672</ele>
        <time>2019-11-15T22:14:13Z</time>
      </trkpt>
      <trkpt lat="44.30913" lon="3.59384">
        <ele>671</ele>
        <time>2019-11-15T22:14:16Z</time>
      </trkpt>
      <trkpt lat="44.30915" lon="3.59373">
        <ele>672</ele>
        <time>2019-11-15T22:14:17Z</time>
      </trkpt>
      <trkpt lat="44.30919" lon="3.59375">
        <ele>670</ele>
        <time>2019-11-15T22:14:18Z</time>
      </trkpt>
      <trkpt lat="44.30919" lon="3.59399">
        <ele>667</ele>
        <time>2019-11-15T22:14:21Z</time>
      </trkpt>
      <trkpt lat="44.30915" lon="3.59435">
        <ele>661</ele>
        <time>2019-11-15T22:14:26Z</time>
      </trkpt>
      <trkpt lat="44.30908" lon="3.59442">
        <ele>661</ele>
        <time>2019-11-15T22:14:27Z</time>
      </trkpt>
      <trkpt lat="44.30911" lon="3.59446">
        <ele>659</ele>
        <time>2019-11-15T22:14:28Z</time>
      </trkpt>
      <trkpt lat="44.30915" lon="3.59446">
        <ele>657</ele>
        <time>2019-11-15T22:14:29Z</time>
      </trkpt>
      <trkpt lat="44.30928" lon="3.59437">
        <ele>655</ele>
        <time>2019-11-15T22:14:31Z</time>
      </trkpt>
      <trkpt lat="44.30954" lon="3.59392">
        <ele>654</ele>
        <time>2019-11-15T22:14:39Z</time>
      </trkpt>
      <trkpt lat="44.30962" lon="3.59371">
        <ele>654</ele>
        <time>2019-11-15T22:14:42Z</time>
      </trkpt>
      <trkpt lat="44.30966" lon="3.59341">
        <ele>658</ele>
        <time>2019-11-15T22:14:45Z</time>
      </trkpt>
      <trkpt lat="44.30973" lon="3.59322">
        <ele>659</ele>
        <time>2019-11-15T22:14:48Z</time>
      </trkpt>
      <trkpt lat="44.30977" lon="3.59322">
        <ele>658</ele>
        <time>2019-11-15T22:14:49Z</time>
      </trkpt>
      <trkpt lat="44.30977" lon="3.59369">
        <ele>649</ele>
        <time>2019-11-15T22:14:55Z</time>
      </trkpt>
      <trkpt lat="44.30981" lon="3.59416">
        <ele>638</ele>
        <time>2019-11-15T22:15:01Z</time>
      </trkpt>
      <trkpt lat="44.30977" lon="3.59452">
        <ele>632</ele>
        <time>2019-11-15T22:15:06Z</time>
      </trkpt>
      <trkpt lat="44.30962" lon="3.59504">
        <ele>627</ele>
        <time>2019-11-15T22:15:13Z</time>
      </trkpt>
      <trkpt lat="44.30973" lon="3.59495">
        <ele>625</ele>
        <time>2019-11-15T22:15:15Z</time>
      </trkpt>
      <trkpt lat="44.30981" lon="3.59483">
        <ele>625</ele>
        <time>2019-11-15T22:15:17Z</time>
      </trkpt>
      <trkpt lat="44.31003" lon="3.59444">
        <ele>625</ele>
        <time>2019-11-15T22:15:23Z</time>
      </trkpt>
      <trkpt lat="44.31007" lon="3.59425">
        <ele>629</ele>
        <time>2019-11-15T22:15:26Z</time>
      </trkpt>
      <trkpt lat="44.31016" lon="3.59416">
        <ele>632</ele>
        <time>2019-11-15T22:15:28Z</time>
      </trkpt>
      <trkpt lat="44.31046" lon="3.59414">
        <ele>636</ele>
        <time>2019-11-15T22:15:33Z</time>
      </trkpt>
      <trkpt lat="44.31069" lon="3.59427">
        <ele>635</ele>
        <time>2019-11-15T22:15:38Z</time>
      </trkpt>
      <trkpt lat="44.31114" lon="3.59461">
        <ele>627</ele>
        <time>2019-11-15T22:15:47Z</time>
      </trkpt>
      <trkpt lat="44.31106" lon="3.59455">
        <ele>628</ele>
        <time>2019-11-15T22:15:48Z</time>
      </trkpt>
      <trkpt lat="44.31194" lon="3.59397">
        <ele>644</ele>
        <time>2019-11-15T22:16:06Z</time>
      </trkpt>
      <trkpt lat="44.312" lon="3.59388">
        <ele>647</ele>
        <time>2019-11-15T22:16:07Z</time>
      </trkpt>
      <trkpt lat="44.31205" lon="3.59386">
        <ele>648</ele>
        <time>2019-11-15T22:16:08Z</time>
      </trkpt>
      <trkpt lat="44.31209" lon="3.59388">
        <ele>647</ele>
        <time>2019-11-15T22:16:09Z</time>
      </trkpt>
      <trkpt lat="44.31213" lon="3.59399">
        <ele>645</ele>
        <time>2019-11-15T22:16:10Z</time>
      </trkpt>
      <trkpt lat="44.31245" lon="3.59457">
        <ele>631</ele>
        <time>2019-11-15T22:16:20Z</time>
      </trkpt>
      <trkpt lat="44.31286" lon="3.59508">
        <ele>626</ele>
        <time>2019-11-15T22:16:30Z</time>
      </trkpt>
      <trkpt lat="44.31299" lon="3.59519">
        <ele>626</ele>
        <time>2019-11-15T22:16:32Z</time>
      </trkpt>
      <trkpt lat="44.31391" lon="3.59573">
        <ele>623</ele>
        <time>2019-11-15T22:16:50Z</time>
      </trkpt>
      <trkpt lat="44.31421" lon="3.59596">
        <ele>616</ele>
        <time>2019-11-15T22:16:56Z</time>
      </trkpt>
      <trkpt lat="44.31419" lon="3.59601">
        <ele>614</ele>
        <time>2019-11-15T22:16:57Z</time>
      </trkpt>
      <trkpt lat="44.31449" lon="3.59624">
        <ele>606</ele>
        <time>2019-11-15T22:17:03Z</time>
      </trkpt>
      <trkpt lat="44.31466" lon="3.59632">
        <ele>603</ele>
        <time>2019-11-15T22:17:06Z</time>
      </trkpt>
      <trkpt lat="44.31472" lon="3.59632">
        <ele>603</ele>
        <time>2019-11-15T22:17:07Z</time>
      </trkpt>
      <trkpt lat="44.31479" lon="3.59627">
        <ele>605</ele>
        <time>2019-11-15T22:17:09Z</time>
      </trkpt>
      <trkpt lat="44.31482" lon="3.59628">
        <ele>604</ele>
        <time>2019-11-15T22:17:09Z</time>
      </trkpt>
      <trkpt lat="44.315" lon="3.59665">
        <ele>594</ele>
        <time>2019-11-15T22:17:15Z</time>
      </trkpt>
      <trkpt lat="44.31507" lon="3.59687">
        <ele>589</ele>
        <time>2019-11-15T22:17:18Z</time>
      </trkpt>
      <trkpt lat="44.31519" lon="3.59703">
        <ele>585</ele>
        <time>2019-11-15T22:17:21Z</time>
      </trkpt>
      <trkpt lat="44.31531" lon="3.59709">
        <ele>584</ele>
        <time>2019-11-15T22:17:23Z</time>
      </trkpt>
      <trkpt lat="44.31559" lon="3.59714">
        <ele>584</ele>
        <time>2019-11-15T22:17:28Z</time>
      </trkpt>
      <trkpt lat="44.31574" lon="3.59729">
        <ele>581</ele>
        <time>2019-11-15T22:17:31Z</time>
      </trkpt>
      <trkpt lat="44.31585" lon="3.59755">
        <ele>574</ele>
        <time>2019-11-15T22:17:35Z</time>
      </trkpt>
      <trkpt lat="44.31596" lon="3.59768">
        <ele>570</ele>
        <time>2019-11-15T22:17:38Z</time>
      </trkpt>
      <trkpt lat="44.31586" lon="3.59755">
        <ele>574</ele>
        <time>2019-11-15T22:17:40Z</time>
      </trkpt>
      <trkpt lat="44.31596" lon="3.59768">
        <ele>570</ele>
        <time>2019-11-15T22:17:43Z</time>
      </trkpt>
      <trkpt lat="44.31608" lon="3.59776">
        <ele>568</ele>
        <time>2019-11-15T22:17:45Z</time>
      </trkpt>
      <trkpt lat="44.31628" lon="3.59784">
        <ele>565</ele>
        <time>2019-11-15T22:17:49Z</time>
      </trkpt>
      <trkpt lat="44.31642" lon="3.59795">
        <ele>561</ele>
        <time>2019-11-15T22:17:52Z</time>
      </trkpt>
      <trkpt lat="44.31653" lon="3.598">
        <ele>559</ele>
        <time>2019-11-15T22:17:54Z</time>
      </trkpt>
      <trkpt lat="44.31659" lon="3.59809">
        <ele>557</ele>
        <time>2019-11-15T22:17:55Z</time>
      </trkpt>
      <trkpt lat="44.31687" lon="3.59809">
        <ele>555</ele>
        <time>2019-11-15T22:18:00Z</time>
      </trkpt>
      <trkpt lat="44.31775" lon="3.59802">
        <ele>552</ele>
        <time>2019-11-15T22:18:16Z</time>
      </trkpt>
      <trkpt lat="44.31809" lon="3.59797">
        <ele>550</ele>
        <time>2019-11-15T22:18:22Z</time>
      </trkpt>
      <trkpt lat="44.3187" lon="3.59782">
        <ele>549</ele>
        <time>2019-11-15T22:18:33Z</time>
      </trkpt>
      <trkpt lat="44.31882" lon="3.5979">
        <ele>548</ele>
        <time>2019-11-15T22:18:35Z</time>
      </trkpt>
      <trkpt lat="44.31885" lon="3.59799">
        <ele>548</ele>
        <time>2019-11-15T22:18:37Z</time>
      </trkpt>
      <trkpt lat="44.31892" lon="3.59801">
        <ele>548</ele>
        <time>2019-11-15T22:18:38Z</time>
      </trkpt>
      <trkpt lat="44.31899" lon="3.59796">
        <ele>548</ele>
        <time>2019-11-15T22:18:39Z</time>
      </trkpt>
      <trkpt lat="44.319" lon="3.59789">
        <ele>548</ele>
        <time>2019-11-15T22:18:40Z</time>
      </trkpt>
      <trkpt lat="44.31911" lon="3.59772">
        <ele>548</ele>
        <time>2019-11-15T22:18:43Z</time>
      </trkpt>
      <trkpt lat="44.31981" lon="3.59748">
        <ele>549</ele>
        <time>2019-11-15T22:18:56Z</time>
      </trkpt>
      <trkpt lat="44.32112" lon="3.59662">
        <ele>549</ele>
        <time>2019-11-15T22:19:22Z</time>
      </trkpt>
      <trkpt lat="44.32124" lon="3.59657">
        <ele>550</ele>
        <time>2019-11-15T22:19:24Z</time>
      </trkpt>
      <trkpt lat="44.32209" lon="3.59645">
        <ele>549</ele>
        <time>2019-11-15T22:19:39Z</time>
      </trkpt>
      <trkpt lat="44.32287" lon="3.59625">
        <ele>548</ele>
        <time>2019-11-15T22:19:53Z</time>
      </trkpt>
      <trkpt lat="44.3232" lon="3.5962">
        <ele>548</ele>
        <time>2019-11-15T22:19:59Z</time>
      </trkpt>
      <trkpt lat="44.32333" lon="3.59615">
        <ele>548</ele>
        <time>2019-11-15T22:20:02Z</time>
      </trkpt>
      <trkpt lat="44.32462" lon="3.59515">
        <ele>548</ele>
        <time>2019-11-15T22:20:28Z</time>
      </trkpt>
      <trkpt lat="44.3251" lon="3.59475">
        <ele>548</ele>
        <time>2019-11-15T22:20:38Z</time>
      </trkpt>
      <trkpt lat="44.32641" lon="3.59376">
        <ele>546</ele>
        <time>2019-11-15T22:21:04Z</time>
      </trkpt>
      <trkpt lat="44.32723" lon="3.59308">
        <ele>546</ele>
        <time>2019-11-15T22:21:21Z</time>
      </trkpt>
      <trkpt lat="44.32793" lon="3.59256">
        <ele>545</ele>
        <time>2019-11-15T22:21:35Z</time>
      </trkpt>
      <trkpt lat="44.32862" lon="3.592">
        <ele>545</ele>
        <time>2019-11-15T22:21:50Z</time>
      </trkpt>
      <trkpt lat="44.32871" lon="3.5919">
        <ele>545</ele>
        <time>2019-11-15T22:21:52Z</time>
      </trkpt>
      <trkpt lat="44.32876" lon="3.59179">
        <ele>545</ele>
        <time>2019-11-15T22:21:53Z</time>
      </trkpt>
      <trkpt lat="44.32884" lon="3.59181">
        <ele>544</ele>
        <time>2019-11-15T22:21:55Z</time>
      </trkpt>
      <trkpt lat="44.3289" lon="3.59171">
        <ele>544</ele>
        <time>2019-11-15T22:21:56Z</time>
      </trkpt>
      <trkpt lat="44.32907" lon="3.59163">
        <ele>544</ele>
        <time>2019-11-15T22:22:00Z</time>
      </trkpt>
      <trkpt lat="44.33042" lon="3.59061">
        <ele>543</ele>
        <time>2019-11-15T22:22:27Z</time>
      </trkpt>
      <trkpt lat="44.33053" lon="3.59056">
        <ele>543</ele>
        <time>2019-11-15T22:22:29Z</time>
      </trkpt>
      <trkpt lat="44.33079" lon="3.5905">
        <ele>542</ele>
        <time>2019-11-15T22:22:34Z</time>
      </trkpt>
      <trkpt lat="44.331" lon="3.59056">
        <ele>543</ele>
        <time>2019-11-15T22:22:37Z</time>
      </trkpt>
      <trkpt lat="44.3311" lon="3.59064">
        <ele>544</ele>
        <time>2019-11-15T22:22:39Z</time>
      </trkpt>
      <trkpt lat="44.33143" lon="3.59109">
        <ele>553</ele>
        <time>2019-11-15T22:22:48Z</time>
      </trkpt>
      <trkpt lat="44.33145" lon="3.59132">
        <ele>558</ele>
        <time>2019-11-15T22:22:51Z</time>
      </trkpt>
      <trkpt lat="44.33155" lon="3.59121">
        <ele>558</ele>
        <time>2019-11-15T22:22:53Z</time>
      </trkpt>
      <trkpt lat="44.3316" lon="3.59126">
        <ele>560</ele>
        <time>2019-11-15T22:22:54Z</time>
      </trkpt>
      <trkpt lat="44.33164" lon="3.59125">
        <ele>561</ele>
        <time>2019-11-15T22:22:55Z</time>
      </trkpt>
      <trkpt lat="44.33177" lon="3.59107">
        <ele>561</ele>
        <time>2019-11-15T22:22:58Z</time>
      </trkpt>
      <trkpt lat="44.33159" lon="3.59116">
        <ele>557</ele>
        <time>2019-11-15T22:23:01Z</time>
      </trkpt>
      <trkpt lat="44.33171" lon="3.59101">
        <ele>557</ele>
        <time>2019-11-15T22:23:04Z</time>
      </trkpt>
      <trkpt lat="44.33183" lon="3.59078">
        <ele>556</ele>
        <time>2019-11-15T22:23:08Z</time>
      </trkpt>
      <trkpt lat="44.33229" lon="3.58971">
        <ele>557</ele>
        <time>2019-11-15T22:23:24Z</time>
      </trkpt>
      <trkpt lat="44.33285" lon="3.5882">
        <ele>559</ele>
        <time>2019-11-15T22:23:45Z</time>
      </trkpt>
      <trkpt lat="44.33308" lon="3.5877">
        <ele>556</ele>
        <time>2019-11-15T22:23:53Z</time>
      </trkpt>
      <trkpt lat="44.33328" lon="3.58735">
        <ele>553</ele>
        <time>2019-11-15T22:23:59Z</time>
      </trkpt>
      <trkpt lat="44.33345" lon="3.58712">
        <ele>554</ele>
        <time>2019-11-15T22:24:03Z</time>
      </trkpt>
      <trkpt lat="44.33358" lon="3.58696">
        <ele>554</ele>
        <time>2019-11-15T22:24:06Z</time>
      </trkpt>
      <trkpt lat="44.33396" lon="3.5866">
        <ele>553</ele>
        <time>2019-11-15T22:24:14Z</time>
      </trkpt>
      <trkpt lat="44.33417" lon="3.58645">
        <ele>553</ele>
        <time>2019-11-15T22:24:18Z</time>
      </trkpt>
      <trkpt lat="44.33441" lon="3.58632">
        <ele>553</ele>
        <time>2019-11-15T22:24:23Z</time>
      </trkpt>
      <trkpt lat="44.3346" lon="3.58624">
        <ele>552</ele>
        <time>2019-11-15T22:24:26Z</time>
      </trkpt>
      <trkpt lat="44.33505" lon="3.58614">
        <ele>552</ele>
        <time>2019-11-15T22:24:34Z</time>
      </trkpt>
      <trkpt lat="44.33546" lon="3.58615">
        <ele>549</ele>
        <time>2019-11-15T22:24:42Z</time>
      </trkpt>
      <trkpt lat="44.33572" lon="3.5862">
        <ele>548</ele>
        <time>2019-11-15T22:24:46Z</time>
      </trkpt>
      <trkpt lat="44.33586" lon="3.58628">
        <ele>548</ele>
        <time>2019-11-15T22:24:49Z</time>
      </trkpt>
      <trkpt lat="44.33592" lon="3.58644">
        <ele>549</ele>
        <time>2019-11-15T22:24:51Z</time>
      </trkpt>
      <trkpt lat="44.33596" lon="3.58703">
        <ele>552</ele>
        <time>2019-11-15T22:24:59Z</time>
      </trkpt>
      <trkpt lat="44.33596" lon="3.58721">
        <ele>553</ele>
        <time>2019-11-15T22:25:01Z</time>
      </trkpt>
      <trkpt lat="44.33589" lon="3.58783">
        <ele>553</ele>
        <time>2019-11-15T22:25:09Z</time>
      </trkpt>
      <trkpt lat="44.3356" lon="3.58919">
        <ele>558</ele>
        <time>2019-11-15T22:25:27Z</time>
      </trkpt>
      <trkpt lat="44.33556" lon="3.58957">
        <ele>559</ele>
        <time>2019-11-15T22:25:32Z</time>
      </trkpt>
      <trkpt lat="44.33557" lon="3.5902">
        <ele>558</ele>
        <time>2019-11-15T22:25:40Z</time>
      </trkpt>
      <trkpt lat="44.33573" lon="3.59222">
        <ele>562</ele>
        <time>2019-11-15T22:26:06Z</time>
      </trkpt>
      <trkpt lat="44.33595" lon="3.59295">
        <ele>565</ele>
        <time>2019-11-15T22:26:16Z</time>
      </trkpt>
      <trkpt lat="44.33628" lon="3.59387">
        <ele>569</ele>
        <time>2019-11-15T22:26:29Z</time>
      </trkpt>
      <trkpt lat="44.33636" lon="3.59443">
        <ele>575</ele>
        <time>2019-11-15T22:26:37Z</time>
      </trkpt>
      <trkpt lat="44.33651" lon="3.59493">
        <ele>575</ele>
        <time>2019-11-15T22:26:43Z</time>
      </trkpt>
      <trkpt lat="44.33661" lon="3.5955">
        <ele>577</ele>
        <time>2019-11-15T22:26:51Z</time>
      </trkpt>
      <trkpt lat="44.33682" lon="3.59593">
        <ele>576</ele>
        <time>2019-11-15T22:26:58Z</time>
      </trkpt>
      <trkpt lat="44.33692" lon="3.59605">
        <ele>577</ele>
        <time>2019-11-15T22:27:00Z</time>
      </trkpt>
      <trkpt lat="44.33763" lon="3.59672">
        <ele>579</ele>
        <time>2019-11-15T22:27:15Z</time>
      </trkpt>
      <trkpt lat="44.3377" lon="3.59676">
        <ele>580</ele>
        <time>2019-11-15T22:27:16Z</time>
      </trkpt>
      <trkpt lat="44.33786" lon="3.5968">
        <ele>578</ele>
        <time>2019-11-15T22:27:19Z</time>
      </trkpt>
      <trkpt lat="44.33951" lon="3.59701">
        <ele>582</ele>
        <time>2019-11-15T22:27:49Z</time>
      </trkpt>
      <trkpt lat="44.34005" lon="3.59702">
        <ele>586</ele>
        <time>2019-11-15T22:27:58Z</time>
      </trkpt>
      <trkpt lat="44.34016" lon="3.597">
        <ele>586</ele>
        <time>2019-11-15T22:28:00Z</time>
      </trkpt>
      <trkpt lat="44.3405" lon="3.59684">
        <ele>583</ele>
        <time>2019-11-15T22:28:07Z</time>
      </trkpt>
      <trkpt lat="44.34107" lon="3.59672">
        <ele>588</ele>
        <time>2019-11-15T22:28:17Z</time>
      </trkpt>
      <trkpt lat="44.34159" lon="3.59645">
        <ele>591</ele>
        <time>2019-11-15T22:28:27Z</time>
      </trkpt>
      <trkpt lat="44.34189" lon="3.59624">
        <ele>591</ele>
        <time>2019-11-15T22:28:33Z</time>
      </trkpt>
      <trkpt lat="44.34216" lon="3.59613">
        <ele>594</ele>
        <time>2019-11-15T22:28:38Z</time>
      </trkpt>
      <trkpt lat="44.34235" lon="3.59608">
        <ele>597</ele>
        <time>2019-11-15T22:28:41Z</time>
      </trkpt>
      <trkpt lat="44.34277" lon="3.59602">
        <ele>596</ele>
        <time>2019-11-15T22:28:49Z</time>
      </trkpt>
      <trkpt lat="44.34294" lon="3.59604">
        <ele>595</ele>
        <time>2019-11-15T22:28:52Z</time>
      </trkpt>
      <trkpt lat="44.34303" lon="3.59612">
        <ele>595</ele>
        <time>2019-11-15T22:28:54Z</time>
      </trkpt>
      <trkpt lat="44.34308" lon="3.59626">
        <ele>597</ele>
        <time>2019-11-15T22:28:56Z</time>
      </trkpt>
      <trkpt lat="44.34297" lon="3.59804">
        <ele>622</ele>
        <time>2019-11-15T22:29:19Z</time>
      </trkpt>
      <trkpt lat="44.34282" lon="3.59856">
        <ele>629</ele>
        <time>2019-11-15T22:29:26Z</time>
      </trkpt>
      <trkpt lat="44.34263" lon="3.59895">
        <ele>634</ele>
        <time>2019-11-15T22:29:32Z</time>
      </trkpt>
      <trkpt lat="44.34252" lon="3.5991">
        <ele>637</ele>
        <time>2019-11-15T22:29:34Z</time>
      </trkpt>
      <trkpt lat="44.34232" lon="3.59925">
        <ele>640</ele>
        <time>2019-11-15T22:29:38Z</time>
      </trkpt>
      <trkpt lat="44.34113" lon="3.59922">
        <ele>662</ele>
        <time>2019-11-15T22:30:00Z</time>
      </trkpt>
      <trkpt lat="44.34085" lon="3.59928">
        <ele>664</ele>
        <time>2019-11-15T22:30:05Z</time>
      </trkpt>
      <trkpt lat="44.34053" lon="3.59942">
        <ele>667</ele>
        <time>2019-11-15T22:30:11Z</time>
      </trkpt>
      <trkpt lat="44.34038" lon="3.59946">
        <ele>668</ele>
        <time>2019-11-15T22:30:13Z</time>
      </trkpt>
      <trkpt lat="44.3399" lon="3.59948">
        <ele>676</ele>
        <time>2019-11-15T22:30:22Z</time>
      </trkpt>
      <trkpt lat="44.33974" lon="3.59954">
        <ele>679</ele>
        <time>2019-11-15T22:30:25Z</time>
      </trkpt>
      <trkpt lat="44.33962" lon="3.59962">
        <ele>681</ele>
        <time>2019-11-15T22:30:27Z</time>
      </trkpt>
      <trkpt lat="44.33947" lon="3.5998">
        <ele>684</ele>
        <time>2019-11-15T22:30:31Z</time>
      </trkpt>
      <trkpt lat="44.33888" lon="3.60077">
        <ele>697</ele>
        <time>2019-11-15T22:30:47Z</time>
      </trkpt>
      <trkpt lat="44.33862" lon="3.60138">
        <ele>696</ele>
        <time>2019-11-15T22:30:56Z</time>
      </trkpt>
      <trkpt lat="44.33855" lon="3.60149">
        <ele>697</ele>
        <time>2019-11-15T22:30:58Z</time>
      </trkpt>
      <trkpt lat="44.33837" lon="3.60163">
        <ele>700</ele>
        <time>2019-11-15T22:31:01Z</time>
      </trkpt>
      <trkpt lat="44.3381" lon="3.60163">
        <ele>703</ele>
        <time>2019-11-15T22:31:06Z</time>
      </trkpt>
      <trkpt lat="44.33791" lon="3.60159">
        <ele>705</ele>
        <time>2019-11-15T22:31:10Z</time>
      </trkpt>
      <trkpt lat="44.33766" lon="3.60148">
        <ele>711</ele>
        <time>2019-11-15T22:31:14Z</time>
      </trkpt>
      <trkpt lat="44.33715" lon="3.60116">
        <ele>731</ele>
        <time>2019-11-15T22:31:24Z</time>
      </trkpt>
      <trkpt lat="44.33707" lon="3.60112">
        <ele>733</ele>
        <time>2019-11-15T22:31:26Z</time>
      </trkpt>
      <trkpt lat="44.33698" lon="3.60112">
        <ele>735</ele>
        <time>2019-11-15T22:31:27Z</time>
      </trkpt>
      <trkpt lat="44.33688" lon="3.60117">
        <ele>736</ele>
        <time>2019-11-15T22:31:29Z</time>
      </trkpt>
      <trkpt lat="44.33671" lon="3.60134">
        <ele>735</ele>
        <time>2019-11-15T22:31:33Z</time>
      </trkpt>
      <trkpt lat="44.33635" lon="3.60178">
        <ele>736</ele>
        <time>2019-11-15T22:31:42Z</time>
      </trkpt>
      <trkpt lat="44.33627" lon="3.60178">
        <ele>739</ele>
        <time>2019-11-15T22:31:43Z</time>
      </trkpt>
      <trkpt lat="44.33608" lon="3.60163">
        <ele>748</ele>
        <time>2019-11-15T22:31:47Z</time>
      </trkpt>
      <trkpt lat="44.33598" lon="3.6016">
        <ele>752</ele>
        <time>2019-11-15T22:31:49Z</time>
      </trkpt>
      <trkpt lat="44.33588" lon="3.60161">
        <ele>755</ele>
        <time>2019-11-15T22:31:50Z</time>
      </trkpt>
      <trkpt lat="44.33576" lon="3.60166">
        <ele>758</ele>
        <time>2019-11-15T22:31:53Z</time>
      </trkpt>
      <trkpt lat="44.3348" lon="3.60279">
        <ele>766</ele>
        <time>2019-11-15T22:32:15Z</time>
      </trkpt>
      <trkpt lat="44.33444" lon="3.60314">
        <ele>774</ele>
        <time>2019-11-15T22:32:23Z</time>
      </trkpt>
      <trkpt lat="44.33401" lon="3.60391">
        <ele>785</ele>
        <time>2019-11-15T22:32:35Z</time>
      </trkpt>
      <trkpt lat="44.33391" lon="3.60405">
        <ele>790</ele>
        <time>2019-11-15T22:32:38Z</time>
      </trkpt>
      <trkpt lat="44.33384" lon="3.60423">
        <ele>795</ele>
        <time>2019-11-15T22:32:40Z</time>
      </trkpt>
      <trkpt lat="44.33384" lon="3.60446">
        <ele>798</ele>
        <time>2019-11-15T22:32:43Z</time>
      </trkpt>
      <trkpt lat="44.33398" lon="3.60497">
        <ele>797</ele>
        <time>2019-11-15T22:32:50Z</time>
      </trkpt>
      <trkpt lat="44.33413" lon="3.60605">
        <ele>798</ele>
        <time>2019-11-15T22:33:04Z</time>
      </trkpt>
      <trkpt lat="44.33413" lon="3.60618">
        <ele>797</ele>
        <time>2019-11-15T22:33:06Z</time>
      </trkpt>
      <trkpt lat="44.33409" lon="3.60637">
        <ele>799</ele>
        <time>2019-11-15T22:33:08Z</time>
      </trkpt>
      <trkpt lat="44.33395" lon="3.60664">
        <ele>808</ele>
        <time>2019-11-15T22:33:13Z</time>
      </trkpt>
      <trkpt lat="44.33365" lon="3.60744">
        <ele>817</ele>
        <time>2019-11-15T22:33:24Z</time>
      </trkpt>
      <trkpt lat="44.33331" lon="3.60893">
        <ele>830</ele>
        <time>2019-11-15T22:33:44Z</time>
      </trkpt>
      <trkpt lat="44.33328" lon="3.60919">
        <ele>832</ele>
        <time>2019-11-15T22:33:47Z</time>
      </trkpt>
      <trkpt lat="44.33327" lon="3.60992">
        <ele>832</ele>
        <time>2019-11-15T22:33:57Z</time>
      </trkpt>
      <trkpt lat="44.3332" lon="3.61064">
        <ele>835</ele>
        <time>2019-11-15T22:34:06Z</time>
      </trkpt>
      <trkpt lat="44.33318" lon="3.61083">
        <ele>835</ele>
        <time>2019-11-15T22:34:08Z</time>
      </trkpt>
      <trkpt lat="44.33304" lon="3.61127">
        <ele>848</ele>
        <time>2019-11-15T22:34:15Z</time>
      </trkpt>
      <trkpt lat="44.33303" lon="3.61134">
        <ele>850</ele>
        <time>2019-11-15T22:34:15Z</time>
      </trkpt>
      <trkpt lat="44.33305" lon="3.6114">
        <ele>849</ele>
        <time>2019-11-15T22:34:16Z</time>
      </trkpt>
      <trkpt lat="44.3331" lon="3.61145">
        <ele>848</ele>
        <time>2019-11-15T22:34:17Z</time>
      </trkpt>
      <trkpt lat="44.33333" lon="3.61148">
        <ele>838</ele>
        <time>2019-11-15T22:34:21Z</time>
      </trkpt>
      <trkpt lat="44.33378" lon="3.61166">
        <ele>830</ele>
        <time>2019-11-15T22:34:30Z</time>
      </trkpt>
      <trkpt lat="44.33423" lon="3.61188">
        <ele>829</ele>
        <time>2019-11-15T22:34:38Z</time>
      </trkpt>
      <trkpt lat="44.33445" lon="3.61195">
        <ele>831</ele>
        <time>2019-11-15T22:34:42Z</time>
      </trkpt>
      <trkpt lat="44.33476" lon="3.61193">
        <ele>828</ele>
        <time>2019-11-15T22:34:48Z</time>
      </trkpt>
      <trkpt lat="44.33497" lon="3.61195">
        <ele>827</ele>
        <time>2019-11-15T22:34:52Z</time>
      </trkpt>
      <trkpt lat="44.33587" lon="3.61214">
        <ele>824</ele>
        <time>2019-11-15T22:35:08Z</time>
      </trkpt>
      <trkpt lat="44.33666" lon="3.61247">
        <ele>825</ele>
        <time>2019-11-15T22:35:22Z</time>
      </trkpt>
      <trkpt lat="44.33687" lon="3.6126">
        <ele>825</ele>
        <time>2019-11-15T22:35:27Z</time>
      </trkpt>
      <trkpt lat="44.33713" lon="3.61282">
        <ele>825</ele>
        <time>2019-11-15T22:35:32Z</time>
      </trkpt>
      <trkpt lat="44.33774" lon="3.61385">
        <ele>830</ele>
        <time>2019-11-15T22:35:49Z</time>
      </trkpt>
      <trkpt lat="44.3381" lon="3.6142">
        <ele>827</ele>
        <time>2019-11-15T22:35:57Z</time>
      </trkpt>
      <trkpt lat="44.33817" lon="3.61431">
        <ele>826</ele>
        <time>2019-11-15T22:35:59Z</time>
      </trkpt>
      <trkpt lat="44.33826" lon="3.6145">
        <ele>825</ele>
        <time>2019-11-15T22:36:02Z</time>
      </trkpt>
      <trkpt lat="44.33835" lon="3.61481">
        <ele>825</ele>
        <time>2019-11-15T22:36:06Z</time>
      </trkpt>
      <trkpt lat="44.33835" lon="3.61503">
        <ele>826</ele>
        <time>2019-11-15T22:36:09Z</time>
      </trkpt>
      <trkpt lat="44.33829" lon="3.61524">
        <ele>824</ele>
        <time>2019-11-15T22:36:11Z</time>
      </trkpt>
      <trkpt lat="44.33819" lon="3.61531">
        <ele>824</ele>
        <time>2019-11-15T22:36:13Z</time>
      </trkpt>
      <trkpt lat="44.33794" lon="3.61526">
        <ele>826</ele>
        <time>2019-11-15T22:36:18Z</time>
      </trkpt>
      <trkpt lat="44.33769" lon="3.61507">
        <ele>832</ele>
        <time>2019-11-15T22:36:23Z</time>
      </trkpt>
      <trkpt lat="44.3376" lon="3.61503">
        <ele>834</ele>
        <time>2019-11-15T22:36:25Z</time>
      </trkpt>
      <trkpt lat="44.33707" lon="3.61501">
        <ele>844</ele>
        <time>2019-11-15T22:36:34Z</time>
      </trkpt>
      <trkpt lat="44.33677" lon="3.61504">
        <ele>849</ele>
        <time>2019-11-15T22:36:39Z</time>
      </trkpt>
      <trkpt lat="44.33582" lon="3.61542">
        <ele>853</ele>
        <time>2019-11-15T22:36:57Z</time>
      </trkpt>
      <trkpt lat="44.33571" lon="3.61548">
        <ele>854</ele>
        <time>2019-11-15T22:36:59Z</time>
      </trkpt>
      <trkpt lat="44.33524" lon="3.61584">
        <ele>856</ele>
        <time>2019-11-15T22:37:09Z</time>
      </trkpt>
      <trkpt lat="44.33505" lon="3.61604">
        <ele>855</ele>
        <time>2019-11-15T22:37:13Z</time>
      </trkpt>
      <trkpt lat="44.33424" lon="3.61669">
        <ele>863</ele>
        <time>2019-11-15T22:37:30Z</time>
      </trkpt>
      <trkpt lat="44.33391" lon="3.61712">
        <ele>873</ele>
        <time>2019-11-15T22:37:38Z</time>
      </trkpt>
      <trkpt lat="44.33385" lon="3.61717">
        <ele>876</ele>
        <time>2019-11-15T22:37:39Z</time>
      </trkpt>
      <trkpt lat="44.33383" lon="3.6173">
        <ele>875</ele>
        <time>2019-11-15T22:37:41Z</time>
      </trkpt>
      <trkpt lat="44.33387" lon="3.61732">
        <ele>872</ele>
        <time>2019-11-15T22:37:41Z</time>
      </trkpt>
      <trkpt lat="44.33383" lon="3.61732">
        <ele>875</ele>
        <time>2019-11-15T22:37:42Z</time>
      </trkpt>
      <trkpt lat="44.33387" lon="3.6177">
        <ele>868</ele>
        <time>2019-11-15T22:37:47Z</time>
      </trkpt>
      <trkpt lat="44.33388" lon="3.61819">
        <ele>865</ele>
        <time>2019-11-15T22:37:53Z</time>
      </trkpt>
      <trkpt lat="44.33384" lon="3.6185">
        <ele>863</ele>
        <time>2019-11-15T22:37:57Z</time>
      </trkpt>
      <trkpt lat="44.33378" lon="3.61863">
        <ele>864</ele>
        <time>2019-11-15T22:37:59Z</time>
      </trkpt>
      <trkpt lat="44.3331" lon="3.61955">
        <ele>877</ele>
        <time>2019-11-15T22:38:16Z</time>
      </trkpt>
      <trkpt lat="44.33296" lon="3.61968">
        <ele>881</ele>
        <time>2019-11-15T22:38:19Z</time>
      </trkpt>
      <trkpt lat="44.3327" lon="3.61978">
        <ele>894</ele>
        <time>2019-11-15T22:38:24Z</time>
      </trkpt>
      <trkpt lat="44.33265" lon="3.61993">
        <ele>894</ele>
        <time>2019-11-15T22:38:26Z</time>
      </trkpt>
      <trkpt lat="44.33267" lon="3.62002">
        <ele>892</ele>
        <time>2019-11-15T22:38:27Z</time>
      </trkpt>
      <trkpt lat="44.33293" lon="3.62047">
        <ele>878</ele>
        <time>2019-11-15T22:38:34Z</time>
      </trkpt>
      <trkpt lat="44.33315" lon="3.62095">
        <ele>870</ele>
        <time>2019-11-15T22:38:42Z</time>
      </trkpt>
      <trkpt lat="44.33416" lon="3.62209">
        <ele>856</ele>
        <time>2019-11-15T22:39:05Z</time>
      </trkpt>
      <trkpt lat="44.33482" lon="3.62312">
        <ele>856</ele>
        <time>2019-11-15T22:39:22Z</time>
      </trkpt>
      <trkpt lat="44.33501" lon="3.62347">
        <ele>852</ele>
        <time>2019-11-15T22:39:28Z</time>
      </trkpt>
      <trkpt lat="44.33506" lon="3.62362">
        <ele>850</ele>
        <time>2019-11-15T22:39:30Z</time>
      </trkpt>
      <trkpt lat="44.33498" lon="3.62363">
        <ele>851</ele>
        <time>2019-11-15T22:39:31Z</time>
      </trkpt>
      <trkpt lat="44.33478" lon="3.62386">
        <ele>855</ele>
        <time>2019-11-15T22:39:36Z</time>
      </trkpt>
      <trkpt lat="44.33446" lon="3.62403">
        <ele>860</ele>
        <time>2019-11-15T22:39:42Z</time>
      </trkpt>
      <trkpt lat="44.33403" lon="3.62445">
        <ele>858</ele>
        <time>2019-11-15T22:39:51Z</time>
      </trkpt>
      <trkpt lat="44.33372" lon="3.62465">
        <ele>857</ele>
        <time>2019-11-15T22:39:58Z</time>
      </trkpt>
      <trkpt lat="44.33342" lon="3.62474">
        <ele>858</ele>
        <time>2019-11-15T22:40:03Z</time>
      </trkpt>
      <trkpt lat="44.33318" lon="3.62473">
        <ele>860</ele>
        <time>2019-11-15T22:40:07Z</time>
      </trkpt>
      <trkpt lat="44.33301" lon="3.62469">
        <ele>861</ele>
        <time>2019-11-15T22:40:10Z</time>
      </trkpt>
      <trkpt lat="44.33227" lon="3.62438">
        <ele>879</ele>
        <time>2019-11-15T22:40:24Z</time>
      </trkpt>
      <trkpt lat="44.33197" lon="3.62433">
        <ele>887</ele>
        <time>2019-11-15T22:40:29Z</time>
      </trkpt>
      <trkpt lat="44.3319" lon="3.62435">
        <ele>888</ele>
        <time>2019-11-15T22:40:31Z</time>
      </trkpt>
      <trkpt lat="44.33172" lon="3.62455">
        <ele>882</ele>
        <time>2019-11-15T22:40:35Z</time>
      </trkpt>
      <trkpt lat="44.33164" lon="3.62475">
        <ele>875</ele>
        <time>2019-11-15T22:40:38Z</time>
      </trkpt>
      <trkpt lat="44.33145" lon="3.62504">
        <ele>874</ele>
        <time>2019-11-15T22:40:43Z</time>
      </trkpt>
      <trkpt lat="44.33115" lon="3.62536">
        <ele>886</ele>
        <time>2019-11-15T22:40:49Z</time>
      </trkpt>
      <trkpt lat="44.33111" lon="3.62548">
        <ele>886</ele>
        <time>2019-11-15T22:40:51Z</time>
      </trkpt>
      <trkpt lat="44.33097" lon="3.62631">
        <ele>883</ele>
        <time>2019-11-15T22:41:02Z</time>
      </trkpt>
      <trkpt lat="44.33092" lon="3.62648">
        <ele>885</ele>
        <time>2019-11-15T22:41:04Z</time>
      </trkpt>
      <trkpt lat="44.33077" lon="3.62673">
        <ele>892</ele>
        <time>2019-11-15T22:41:09Z</time>
      </trkpt>
      <trkpt lat="44.33076" lon="3.62702">
        <ele>892</ele>
        <time>2019-11-15T22:41:12Z</time>
      </trkpt>
      <trkpt lat="44.33093" lon="3.62785">
        <ele>887</ele>
        <time>2019-11-15T22:41:23Z</time>
      </trkpt>
      <trkpt lat="44.33123" lon="3.62885">
        <ele>884</ele>
        <time>2019-11-15T22:41:37Z</time>
      </trkpt>
      <trkpt lat="44.33127" lon="3.62935">
        <ele>884</ele>
        <time>2019-11-15T22:41:43Z</time>
      </trkpt>
      <trkpt lat="44.33124" lon="3.62946">
        <ele>883</ele>
        <time>2019-11-15T22:41:45Z</time>
      </trkpt>
      <trkpt lat="44.33109" lon="3.62972">
        <ele>884</ele>
        <time>2019-11-15T22:41:49Z</time>
      </trkpt>
      <trkpt lat="44.33101" lon="3.62979">
        <ele>885</ele>
        <time>2019-11-15T22:41:51Z</time>
      </trkpt>
      <trkpt lat="44.33087" lon="3.62984">
        <ele>887</ele>
        <time>2019-11-15T22:41:53Z</time>
      </trkpt>
      <trkpt lat="44.33069" lon="3.6298">
        <ele>891</ele>
        <time>2019-11-15T22:41:57Z</time>
      </trkpt>
      <trkpt lat="44.33058" lon="3.6298">
        <ele>894</ele>
        <time>2019-11-15T22:41:59Z</time>
      </trkpt>
      <trkpt lat="44.33048" lon="3.62983">
        <ele>895</ele>
        <time>2019-11-15T22:42:00Z</time>
      </trkpt>
      <trkpt lat="44.33021" lon="3.63">
        <ele>895</ele>
        <time>2019-11-15T22:42:06Z</time>
      </trkpt>
      <trkpt lat="44.32995" lon="3.63027">
        <ele>895</ele>
        <time>2019-11-15T22:42:11Z</time>
      </trkpt>
      <trkpt lat="44.32984" lon="3.63049">
        <ele>896</ele>
        <time>2019-11-15T22:42:15Z</time>
      </trkpt>
      <trkpt lat="44.32972" lon="3.6312">
        <ele>891</ele>
        <time>2019-11-15T22:42:24Z</time>
      </trkpt>
      <trkpt lat="44.32962" lon="3.63161">
        <ele>893</ele>
        <time>2019-11-15T22:42:30Z</time>
      </trkpt>
      <trkpt lat="44.32945" lon="3.63215">
        <ele>897</ele>
        <time>2019-11-15T22:42:37Z</time>
      </trkpt>
      <trkpt lat="44.32928" lon="3.63249">
        <ele>900</ele>
        <time>2019-11-15T22:42:42Z</time>
      </trkpt>
      <trkpt lat="44.32914" lon="3.63267">
        <ele>903</ele>
        <time>2019-11-15T22:42:46Z</time>
      </trkpt>
      <trkpt lat="44.32897" lon="3.63295">
        <ele>907</ele>
        <time>2019-11-15T22:42:51Z</time>
      </trkpt>
      <trkpt lat="44.32883" lon="3.63352">
        <ele>909</ele>
        <time>2019-11-15T22:42:58Z</time>
      </trkpt>
      <trkpt lat="44.32872" lon="3.63431">
        <ele>916</ele>
        <time>2019-11-15T22:43:08Z</time>
      </trkpt>
      <trkpt lat="44.32866" lon="3.63494">
        <ele>925</ele>
        <time>2019-11-15T22:43:17Z</time>
      </trkpt>
      <trkpt lat="44.32889" lon="3.6355">
        <ele>926</ele>
        <time>2019-11-15T22:43:25Z</time>
      </trkpt>
      <trkpt lat="44.32915" lon="3.636">
        <ele>930</ele>
        <time>2019-11-15T22:43:33Z</time>
      </trkpt>
      <trkpt lat="44.32922" lon="3.63607">
        <ele>929</ele>
        <time>2019-11-15T22:43:34Z</time>
      </trkpt>
      <trkpt lat="44.3296" lon="3.63625">
        <ele>921</ele>
        <time>2019-11-15T22:43:41Z</time>
      </trkpt>
      <trkpt lat="44.32972" lon="3.6364">
        <ele>919</ele>
        <time>2019-11-15T22:43:44Z</time>
      </trkpt>
      <trkpt lat="44.3297" lon="3.63673">
        <ele>924</ele>
        <time>2019-11-15T22:43:48Z</time>
      </trkpt>
      <trkpt lat="44.32957" lon="3.63706">
        <ele>928</ele>
        <time>2019-11-15T22:43:53Z</time>
      </trkpt>
      <trkpt lat="44.3293" lon="3.6376">
        <ele>938</ele>
        <time>2019-11-15T22:44:02Z</time>
      </trkpt>
      <trkpt lat="44.32923" lon="3.63785">
        <ele>939</ele>
        <time>2019-11-15T22:44:05Z</time>
      </trkpt>
      <trkpt lat="44.32915" lon="3.63832">
        <ele>939</ele>
        <time>2019-11-15T22:44:11Z</time>
      </trkpt>
      <trkpt lat="44.32909" lon="3.63914">
        <ele>942</ele>
        <time>2019-11-15T22:44:22Z</time>
      </trkpt>
      <trkpt lat="44.3291" lon="3.63996">
        <ele>949</ele>
        <time>2019-11-15T22:44:32Z</time>
      </trkpt>
      <trkpt lat="44.32907" lon="3.64082">
        <ele>955</ele>
        <time>2019-11-15T22:44:43Z</time>
      </trkpt>
      <trkpt lat="44.32904" lon="3.64102">
        <ele>956</ele>
        <time>2019-11-15T22:44:46Z</time>
      </trkpt>
      <trkpt lat="44.32905" lon="3.6413">
        <ele>956</ele>
        <time>2019-11-15T22:44:49Z</time>
      </trkpt>
      <trkpt lat="44.32902" lon="3.64192">
        <ele>956</ele>
        <time>2019-11-15T22:44:57Z</time>
      </trkpt>
      <trkpt lat="44.32913" lon="3.64231">
        <ele>953</ele>
        <time>2019-11-15T22:45:02Z</time>
      </trkpt>
      <trkpt lat="44.32928" lon="3.64263">
        <ele>950</ele>
        <time>2019-11-15T22:45:07Z</time>
      </trkpt>
      <trkpt lat="44.32927" lon="3.6427">
        <ele>950</ele>
        <time>2019-11-15T22:45:08Z</time>
      </trkpt>
      <trkpt lat="44.32937" lon="3.64282">
        <ele>949</ele>
        <time>2019-11-15T22:45:11Z</time>
      </trkpt>
      <trkpt lat="44.3294" lon="3.64274">
        <ele>950</ele>
        <time>2019-11-15T22:45:12Z</time>
      </trkpt>
      <trkpt lat="44.32937" lon="3.64282">
        <ele>949</ele>
        <time>2019-11-15T22:45:13Z</time>
      </trkpt>
      <trkpt lat="44.32957" lon="3.64337">
        <ele>952</ele>
        <time>2019-11-15T22:45:21Z</time>
      </trkpt>
      <trkpt lat="44.32968" lon="3.64378">
        <ele>958</ele>
        <time>2019-11-15T22:45:26Z</time>
      </trkpt>
      <trkpt lat="44.32982" lon="3.64468">
        <ele>969</ele>
        <time>2019-11-15T22:45:38Z</time>
      </trkpt>
      <trkpt lat="44.32984" lon="3.64521">
        <ele>973</ele>
        <time>2019-11-15T22:45:45Z</time>
      </trkpt>
      <trkpt lat="44.32975" lon="3.64588">
        <ele>976</ele>
        <time>2019-11-15T22:45:53Z</time>
      </trkpt>
      <trkpt lat="44.32971" lon="3.64599">
        <ele>977</ele>
        <time>2019-11-15T22:45:55Z</time>
      </trkpt>
      <trkpt lat="44.32945" lon="3.64639">
        <ele>977</ele>
        <time>2019-11-15T22:46:02Z</time>
      </trkpt>
      <trkpt lat="44.32914" lon="3.64674">
        <ele>974</ele>
        <time>2019-11-15T22:46:09Z</time>
      </trkpt>
      <trkpt lat="44.32885" lon="3.64713">
        <ele>976</ele>
        <time>2019-11-15T22:46:16Z</time>
      </trkpt>
      <trkpt lat="44.32879" lon="3.64727">
        <ele>978</ele>
        <time>2019-11-15T22:46:18Z</time>
      </trkpt>
      <trkpt lat="44.32873" lon="3.64746">
        <ele>982</ele>
        <time>2019-11-15T22:46:21Z</time>
      </trkpt>
      <trkpt lat="44.32864" lon="3.64798">
        <ele>985</ele>
        <time>2019-11-15T22:46:28Z</time>
      </trkpt>
      <trkpt lat="44.32863" lon="3.6487">
        <ele>987</ele>
        <time>2019-11-15T22:46:37Z</time>
      </trkpt>
      <trkpt lat="44.32865" lon="3.64893">
        <ele>988</ele>
        <time>2019-11-15T22:46:40Z</time>
      </trkpt>
      <trkpt lat="44.32871" lon="3.64916">
        <ele>990</ele>
        <time>2019-11-15T22:46:43Z</time>
      </trkpt>
      <trkpt lat="44.32879" lon="3.64937">
        <ele>991</ele>
        <time>2019-11-15T22:46:46Z</time>
      </trkpt>
      <trkpt lat="44.32894" lon="3.64961">
        <ele>995</ele>
        <time>2019-11-15T22:46:50Z</time>
      </trkpt>
      <trkpt lat="44.32939" lon="3.65015">
        <ele>1005</ele>
        <time>2019-11-15T22:47:01Z</time>
      </trkpt>
      <trkpt lat="44.32982" lon="3.65052">
        <ele>1017</ele>
        <time>2019-11-15T22:47:09Z</time>
      </trkpt>
      <trkpt lat="44.32987" lon="3.65069">
        <ele>1016</ele>
        <time>2019-11-15T22:47:12Z</time>
      </trkpt>
      <trkpt lat="44.32994" lon="3.6514">
        <ele>1019</ele>
        <time>2019-11-15T22:47:21Z</time>
      </trkpt>
      <trkpt lat="44.32993" lon="3.65149">
        <ele>1019</ele>
        <time>2019-11-15T22:47:22Z</time>
      </trkpt>
      <trkpt lat="44.32984" lon="3.65173">
        <ele>1017</ele>
        <time>2019-11-15T22:47:26Z</time>
      </trkpt>
      <trkpt lat="44.32963" lon="3.65208">
        <ele>1018</ele>
        <time>2019-11-15T22:47:31Z</time>
      </trkpt>
      <trkpt lat="44.32939" lon="3.65241">
        <ele>1019</ele>
        <time>2019-11-15T22:47:37Z</time>
      </trkpt>
      <trkpt lat="44.32925" lon="3.65259">
        <ele>1019</ele>
        <time>2019-11-15T22:47:41Z</time>
      </trkpt>
      <trkpt lat="44.32842" lon="3.65332">
        <ele>1014</ele>
        <time>2019-11-15T22:47:58Z</time>
      </trkpt>
      <trkpt lat="44.32835" lon="3.65346">
        <ele>1014</ele>
        <time>2019-11-15T22:48:00Z</time>
      </trkpt>
      <trkpt lat="44.32831" lon="3.65362">
        <ele>1014</ele>
        <time>2019-11-15T22:48:03Z</time>
      </trkpt>
      <trkpt lat="44.32832" lon="3.65383">
        <ele>1016</ele>
        <time>2019-11-15T22:48:05Z</time>
      </trkpt>
      <trkpt lat="44.32853" lon="3.65452">
        <ele>1026</ele>
        <time>2019-11-15T22:48:15Z</time>
      </trkpt>
      <trkpt lat="44.32868" lon="3.6553">
        <ele>1026</ele>
        <time>2019-11-15T22:48:25Z</time>
      </trkpt>
      <trkpt lat="44.32873" lon="3.65544">
        <ele>1027</ele>
        <time>2019-11-15T22:48:27Z</time>
      </trkpt>
      <trkpt lat="44.32901" lon="3.65581">
        <ele>1034</ele>
        <time>2019-11-15T22:48:34Z</time>
      </trkpt>
      <trkpt lat="44.32915" lon="3.65617">
        <ele>1035</ele>
        <time>2019-11-15T22:48:39Z</time>
      </trkpt>
      <trkpt lat="44.32931" lon="3.65666">
        <ele>1025</ele>
        <time>2019-11-15T22:48:46Z</time>
      </trkpt>
      <trkpt lat="44.32934" lon="3.65703">
        <ele>1023</ele>
        <time>2019-11-15T22:48:51Z</time>
      </trkpt>
      <trkpt lat="44.32921" lon="3.65739">
        <ele>1027</ele>
        <time>2019-11-15T22:48:56Z</time>
      </trkpt>
      <trkpt lat="44.32917" lon="3.6578">
        <ele>1026</ele>
        <time>2019-11-15T22:49:01Z</time>
      </trkpt>
      <trkpt lat="44.32897" lon="3.65812">
        <ele>1029</ele>
        <time>2019-11-15T22:49:06Z</time>
      </trkpt>
      <trkpt lat="44.32895" lon="3.65825">
        <ele>1029</ele>
        <time>2019-11-15T22:49:08Z</time>
      </trkpt>
      <trkpt lat="44.32901" lon="3.65874">
        <ele>1025</ele>
        <time>2019-11-15T22:49:15Z</time>
      </trkpt>
      <trkpt lat="44.32897" lon="3.65904">
        <ele>1026</ele>
        <time>2019-11-15T22:49:18Z</time>
      </trkpt>
      <trkpt lat="44.32862" lon="3.65988">
        <ele>1037</ele>
        <time>2019-11-15T22:49:31Z</time>
      </trkpt>
      <trkpt lat="44.32852" lon="3.66023">
        <ele>1035</ele>
        <time>2019-11-15T22:49:36Z</time>
      </trkpt>
      <trkpt lat="44.32832" lon="3.66056">
        <ele>1039</ele>
        <time>2019-11-15T22:49:41Z</time>
      </trkpt>
      <trkpt lat="44.32809" lon="3.66088">
        <ele>1045</ele>
        <time>2019-11-15T22:49:47Z</time>
      </trkpt>
      <trkpt lat="44.32807" lon="3.6617">
        <ele>1040</ele>
        <time>2019-11-15T22:49:57Z</time>
      </trkpt>
      <trkpt lat="44.32817" lon="3.66217">
        <ele>1031</ele>
        <time>2019-11-15T22:50:04Z</time>
      </trkpt>
      <trkpt lat="44.32801" lon="3.6629">
        <ele>1034</ele>
        <time>2019-11-15T22:50:13Z</time>
      </trkpt>
      <trkpt lat="44.32798" lon="3.66299">
        <ele>1034</ele>
        <time>2019-11-15T22:50:15Z</time>
      </trkpt>
      <trkpt lat="44.32785" lon="3.66316">
        <ele>1037</ele>
        <time>2019-11-15T22:50:18Z</time>
      </trkpt>
      <trkpt lat="44.32765" lon="3.66321">
        <ele>1043</ele>
        <time>2019-11-15T22:50:21Z</time>
      </trkpt>
      <trkpt lat="44.32722" lon="3.66322">
        <ele>1055</ele>
        <time>2019-11-15T22:50:29Z</time>
      </trkpt>
      <trkpt lat="44.32713" lon="3.66325">
        <ele>1056</ele>
        <time>2019-11-15T22:50:31Z</time>
      </trkpt>
      <trkpt lat="44.32678" lon="3.66347">
        <ele>1059</ele>
        <time>2019-11-15T22:50:37Z</time>
      </trkpt>
      <trkpt lat="44.32667" lon="3.66361">
        <ele>1059</ele>
        <time>2019-11-15T22:50:40Z</time>
      </trkpt>
      <trkpt lat="44.32649" lon="3.66399">
        <ele>1058</ele>
        <time>2019-11-15T22:50:46Z</time>
      </trkpt>
      <trkpt lat="44.32628" lon="3.66435">
        <ele>1058</ele>
        <time>2019-11-15T22:50:52Z</time>
      </trkpt>
      <trkpt lat="44.32594" lon="3.6648">
        <ele>1059</ele>
        <time>2019-11-15T22:51:00Z</time>
      </trkpt>
      <trkpt lat="44.32527" lon="3.6661">
        <ele>1054</ele>
        <time>2019-11-15T22:51:21Z</time>
      </trkpt>
      <trkpt lat="44.32498" lon="3.66679">
        <ele>1055</ele>
        <time>2019-11-15T22:51:31Z</time>
      </trkpt>
      <trkpt lat="44.32486" lon="3.66718">
        <ele>1050</ele>
        <time>2019-11-15T22:51:36Z</time>
      </trkpt>
      <trkpt lat="44.32483" lon="3.66736">
        <ele>1048</ele>
        <time>2019-11-15T22:51:38Z</time>
      </trkpt>
      <trkpt lat="44.32482" lon="3.66824">
        <ele>1042</ele>
        <time>2019-11-15T22:51:50Z</time>
      </trkpt>
      <trkpt lat="44.32459" lon="3.66956">
        <ele>1040</ele>
        <time>2019-11-15T22:52:07Z</time>
      </trkpt>
      <trkpt lat="44.32469" lon="3.67011">
        <ele>1040</ele>
        <time>2019-11-15T22:52:14Z</time>
      </trkpt>
      <trkpt lat="44.32475" lon="3.67025">
        <ele>1040</ele>
        <time>2019-11-15T22:52:16Z</time>
      </trkpt>
      <trkpt lat="44.32494" lon="3.67048">
        <ele>1040</ele>
        <time>2019-11-15T22:52:21Z</time>
      </trkpt>
      <trkpt lat="44.32493" lon="3.67089">
        <ele>1041</ele>
        <time>2019-11-15T22:52:26Z</time>
      </trkpt>
      <trkpt lat="44.32481" lon="3.6714">
        <ele>1043</ele>
        <time>2019-11-15T22:52:33Z</time>
      </trkpt>
      <trkpt lat="44.32481" lon="3.67169">
        <ele>1044</ele>
        <time>2019-11-15T22:52:36Z</time>
      </trkpt>
      <trkpt lat="44.32493" lon="3.67205">
        <ele>1049</ele>
        <time>2019-11-15T22:52:42Z</time>
      </trkpt>
      <trkpt lat="44.32524" lon="3.67276">
        <ele>1054</ele>
        <time>2019-11-15T22:52:52Z</time>
      </trkpt>
      <trkpt lat="44.32541" lon="3.67301">
        <ele>1055</ele>
        <time>2019-11-15T22:52:57Z</time>
      </trkpt>
      <trkpt lat="44.32572" lon="3.67332">
        <ele>1056</ele>
        <time>2019-11-15T22:53:03Z</time>
      </trkpt>
      <trkpt lat="44.32591" lon="3.67356">
        <ele>1057</ele>
        <time>2019-11-15T22:53:08Z</time>
      </trkpt>
      <trkpt lat="44.32621" lon="3.67408">
        <ele>1058</ele>
        <time>2019-11-15T22:53:16Z</time>
      </trkpt>
      <trkpt lat="44.3264" lon="3.67451">
        <ele>1058</ele>
        <time>2019-11-15T22:53:23Z</time>
      </trkpt>
      <trkpt lat="44.32648" lon="3.67477">
        <ele>1059</ele>
        <time>2019-11-15T22:53:26Z</time>
      </trkpt>
      <trkpt lat="44.32662" lon="3.6755">
        <ele>1062</ele>
        <time>2019-11-15T22:53:36Z</time>
      </trkpt>
      <trkpt lat="44.32657" lon="3.67678">
        <ele>1065</ele>
        <time>2019-11-15T22:53:52Z</time>
      </trkpt>
      <trkpt lat="44.32651" lon="3.67725">
        <ele>1065</ele>
        <time>2019-11-15T22:53:58Z</time>
      </trkpt>
      <trkpt lat="44.3264" lon="3.67778">
        <ele>1067</ele>
        <time>2019-11-15T22:54:05Z</time>
      </trkpt>
      <trkpt lat="44.32615" lon="3.67877">
        <ele>1073</ele>
        <time>2019-11-15T22:54:19Z</time>
      </trkpt>
      <trkpt lat="44.32612" lon="3.67906">
        <ele>1075</ele>
        <time>2019-11-15T22:54:23Z</time>
      </trkpt>
      <trkpt lat="44.3262" lon="3.67944">
        <ele>1074</ele>
        <time>2019-11-15T22:54:28Z</time>
      </trkpt>
      <trkpt lat="44.32622" lon="3.67977">
        <ele>1075</ele>
        <time>2019-11-15T22:54:32Z</time>
      </trkpt>
      <trkpt lat="44.32621" lon="3.68041">
        <ele>1078</ele>
        <time>2019-11-15T22:54:40Z</time>
      </trkpt>
      <trkpt lat="44.32624" lon="3.68147">
        <ele>1077</ele>
        <time>2019-11-15T22:54:53Z</time>
      </trkpt>
      <trkpt lat="44.32621" lon="3.68244">
        <ele>1076</ele>
        <time>2019-11-15T22:55:06Z</time>
      </trkpt>
      <trkpt lat="44.32618" lon="3.68273">
        <ele>1076</ele>
        <time>2019-11-15T22:55:10Z</time>
      </trkpt>
      <trkpt lat="44.32604" lon="3.68323">
        <ele>1076</ele>
        <time>2019-11-15T22:55:16Z</time>
      </trkpt>
      <trkpt lat="44.32584" lon="3.68381">
        <ele>1077</ele>
        <time>2019-11-15T22:55:25Z</time>
      </trkpt>
      <trkpt lat="44.32556" lon="3.68494">
        <ele>1076</ele>
        <time>2019-11-15T22:55:40Z</time>
      </trkpt>
      <trkpt lat="44.32544" lon="3.6856">
        <ele>1077</ele>
        <time>2019-11-15T22:55:48Z</time>
      </trkpt>
      <trkpt lat="44.32537" lon="3.68585">
        <ele>1077</ele>
        <time>2019-11-15T22:55:52Z</time>
      </trkpt>
      <trkpt lat="44.3253" lon="3.68596">
        <ele>1078</ele>
        <time>2019-11-15T22:55:54Z</time>
      </trkpt>
      <trkpt lat="44.32523" lon="3.68647">
        <ele>1081</ele>
        <time>2019-11-15T22:56:00Z</time>
      </trkpt>
      <trkpt lat="44.32508" lon="3.68694">
        <ele>1082</ele>
        <time>2019-11-15T22:56:07Z</time>
      </trkpt>
      <trkpt lat="44.32499" lon="3.68732">
        <ele>1083</ele>
        <time>2019-11-15T22:56:12Z</time>
      </trkpt>
      <trkpt lat="44.32502" lon="3.68775">
        <ele>1086</ele>
        <time>2019-11-15T22:56:17Z</time>
      </trkpt>
      <trkpt lat="44.32496" lon="3.68877">
        <ele>1086</ele>
        <time>2019-11-15T22:56:31Z</time>
      </trkpt>
      <trkpt lat="44.32517" lon="3.68981">
        <ele>1091</ele>
        <time>2019-11-15T22:56:44Z</time>
      </trkpt>
      <trkpt lat="44.32526" lon="3.69008">
        <ele>1094</ele>
        <time>2019-11-15T22:56:48Z</time>
      </trkpt>
      <trkpt lat="44.3254" lon="3.69037">
        <ele>1101</ele>
        <time>2019-11-15T22:56:52Z</time>
      </trkpt>
      <trkpt lat="44.32549" lon="3.69086">
        <ele>1107</ele>
        <time>2019-11-15T22:56:59Z</time>
      </trkpt>
      <trkpt lat="44.32547" lon="3.69112">
        <ele>1108</ele>
        <time>2019-11-15T22:57:02Z</time>
      </trkpt>
      <trkpt lat="44.32538" lon="3.69156">
        <ele>1107</ele>
        <time>2019-11-15T22:57:08Z</time>
      </trkpt>
      <trkpt lat="44.32526" lon="3.69258">
        <ele>1108</ele>
        <time>2019-11-15T22:57:21Z</time>
      </trkpt>
      <trkpt lat="44.3252" lon="3.69273">
        <ele>1106</ele>
        <time>2019-11-15T22:57:23Z</time>
      </trkpt>
      <trkpt lat="44.32518" lon="3.69291">
        <ele>1106</ele>
        <time>2019-11-15T22:57:26Z</time>
      </trkpt>
      <trkpt lat="44.32515" lon="3.69362">
        <ele>1108</ele>
        <time>2019-11-15T22:57:35Z</time>
      </trkpt>
      <trkpt lat="44.32511" lon="3.69387">
        <ele>1107</ele>
        <time>2019-11-15T22:57:38Z</time>
      </trkpt>
      <trkpt lat="44.32508" lon="3.6948">
        <ele>1116</ele>
        <time>2019-11-15T22:57:50Z</time>
      </trkpt>
      <trkpt lat="44.325" lon="3.69547">
        <ele>1121</ele>
        <time>2019-11-15T22:57:59Z</time>
      </trkpt>
      <trkpt lat="44.3249" lon="3.69599">
        <ele>1123</ele>
        <time>2019-11-15T22:58:05Z</time>
      </trkpt>
      <trkpt lat="44.32473" lon="3.69645">
        <ele>1123</ele>
        <time>2019-11-15T22:58:12Z</time>
      </trkpt>
      <trkpt lat="44.32462" lon="3.69698">
        <ele>1126</ele>
        <time>2019-11-15T22:58:19Z</time>
      </trkpt>
      <trkpt lat="44.32444" lon="3.69752">
        <ele>1132</ele>
        <time>2019-11-15T22:58:27Z</time>
      </trkpt>
      <trkpt lat="44.3243" lon="3.69768">
        <ele>1133</ele>
        <time>2019-11-15T22:58:30Z</time>
      </trkpt>
      <trkpt lat="44.32431" lon="3.69775">
        <ele>1134</ele>
        <time>2019-11-15T22:58:31Z</time>
      </trkpt>
      <trkpt lat="44.3244" lon="3.69787">
        <ele>1135</ele>
        <time>2019-11-15T22:58:33Z</time>
      </trkpt>
      <trkpt lat="44.32441" lon="3.69792">
        <ele>1135</ele>
        <time>2019-11-15T22:58:34Z</time>
      </trkpt>
      <trkpt lat="44.32441" lon="3.69805">
        <ele>1136</ele>
        <time>2019-11-15T22:58:35Z</time>
      </trkpt>
      <trkpt lat="44.32446" lon="3.69819">
        <ele>1136</ele>
        <time>2019-11-15T22:58:37Z</time>
      </trkpt>
      <trkpt lat="44.32443" lon="3.69838">
        <ele>1137</ele>
        <time>2019-11-15T22:58:40Z</time>
      </trkpt>
      <trkpt lat="44.32386" lon="3.69951">
        <ele>1142</ele>
        <time>2019-11-15T22:58:57Z</time>
      </trkpt>
      <trkpt lat="44.32362" lon="3.69985">
        <ele>1149</ele>
        <time>2019-11-15T22:59:03Z</time>
      </trkpt>
      <trkpt lat="44.32309" lon="3.70035">
        <ele>1158</ele>
        <time>2019-11-15T22:59:15Z</time>
      </trkpt>
      <trkpt lat="44.3229" lon="3.70079">
        <ele>1161</ele>
        <time>2019-11-15T22:59:21Z</time>
      </trkpt>
      <trkpt lat="44.3227" lon="3.70221">
        <ele>1170</ele>
        <time>2019-11-15T22:59:40Z</time>
      </trkpt>
      <trkpt lat="44.32251" lon="3.70297">
        <ele>1177</ele>
        <time>2019-11-15T22:59:50Z</time>
      </trkpt>
      <trkpt lat="44.32221" lon="3.70363">
        <ele>1170</ele>
        <time>2019-11-15T23:00:00Z</time>
      </trkpt>
      <trkpt lat="44.3222" lon="3.70395">
        <ele>1171</ele>
        <time>2019-11-15T23:00:04Z</time>
      </trkpt>
      <trkpt lat="44.3221" lon="3.70437">
        <ele>1171</ele>
        <time>2019-11-15T23:00:10Z</time>
      </trkpt>
      <trkpt lat="44.32183" lon="3.70502">
        <ele>1172</ele>
        <time>2019-11-15T23:00:19Z</time>
      </trkpt>
      <trkpt lat="44.32179" lon="3.70527">
        <ele>1172</ele>
        <time>2019-11-15T23:00:23Z</time>
      </trkpt>
      <trkpt lat="44.32149" lon="3.7058">
        <ele>1174</ele>
        <time>2019-11-15T23:00:31Z</time>
      </trkpt>
      <trkpt lat="44.32128" lon="3.70602">
        <ele>1172</ele>
        <time>2019-11-15T23:00:36Z</time>
      </trkpt>
      <trkpt lat="44.32108" lon="3.70666">
        <ele>1181</ele>
        <time>2019-11-15T23:00:45Z</time>
      </trkpt>
      <trkpt lat="44.32085" lon="3.70691">
        <ele>1186</ele>
        <time>2019-11-15T23:00:50Z</time>
      </trkpt>
      <trkpt lat="44.32048" lon="3.70789">
        <ele>1191</ele>
        <time>2019-11-15T23:01:04Z</time>
      </trkpt>
      <trkpt lat="44.32041" lon="3.70799">
        <ele>1191</ele>
        <time>2019-11-15T23:01:06Z</time>
      </trkpt>
      <trkpt lat="44.32028" lon="3.7081">
        <ele>1193</ele>
        <time>2019-11-15T23:01:08Z</time>
      </trkpt>
      <trkpt lat="44.32006" lon="3.70841">
        <ele>1198</ele>
        <time>2019-11-15T23:01:14Z</time>
      </trkpt>
      <trkpt lat="44.31994" lon="3.70847">
        <ele>1199</ele>
        <time>2019-11-15T23:01:16Z</time>
      </trkpt>
      <trkpt lat="44.31972" lon="3.70852">
        <ele>1198</ele>
        <time>2019-11-15T23:01:20Z</time>
      </trkpt>
      <trkpt lat="44.31894" lon="3.7102">
        <ele>1217</ele>
        <time>2019-11-15T23:01:46Z</time>
      </trkpt>
      <trkpt lat="44.31863" lon="3.71104">
        <ele>1230</ele>
        <time>2019-11-15T23:01:58Z</time>
      </trkpt>
      <trkpt lat="44.31843" lon="3.71144">
        <ele>1239</ele>
        <time>2019-11-15T23:02:04Z</time>
      </trkpt>
      <trkpt lat="44.31841" lon="3.71157">
        <ele>1241</ele>
        <time>2019-11-15T23:02:06Z</time>
      </trkpt>
      <trkpt lat="44.31842" lon="3.71161">
        <ele>1242</ele>
        <time>2019-11-15T23:02:06Z</time>
      </trkpt>
      <trkpt lat="44.31855" lon="3.71168">
        <ele>1243</ele>
        <time>2019-11-15T23:02:09Z</time>
      </trkpt>
      <trkpt lat="44.31862" lon="3.71175">
        <ele>1243</ele>
        <time>2019-11-15T23:02:10Z</time>
      </trkpt>
      <trkpt lat="44.31868" lon="3.71197">
        <ele>1247</ele>
        <time>2019-11-15T23:02:13Z</time>
      </trkpt>
      <trkpt lat="44.31874" lon="3.71224">
        <ele>1251</ele>
        <time>2019-11-15T23:02:17Z</time>
      </trkpt>
      <trkpt lat="44.31877" lon="3.71293">
        <ele>1263</ele>
        <time>2019-11-15T23:02:26Z</time>
      </trkpt>
      <trkpt lat="44.31886" lon="3.71358">
        <ele>1273</ele>
        <time>2019-11-15T23:02:34Z</time>
      </trkpt>
      <trkpt lat="44.31894" lon="3.71391">
        <ele>1278</ele>
        <time>2019-11-15T23:02:38Z</time>
      </trkpt>
      <trkpt lat="44.31905" lon="3.71409">
        <ele>1280</ele>
        <time>2019-11-15T23:02:41Z</time>
      </trkpt>
      <trkpt lat="44.3191" lon="3.71425">
        <ele>1282</ele>
        <time>2019-11-15T23:02:44Z</time>
      </trkpt>
      <trkpt lat="44.31912" lon="3.71466">
        <ele>1289</ele>
        <time>2019-11-15T23:02:49Z</time>
      </trkpt>
      <trkpt lat="44.31918" lon="3.71498">
        <ele>1294</ele>
        <time>2019-11-15T23:02:53Z</time>
      </trkpt>
      <trkpt lat="44.31924" lon="3.71512">
        <ele>1296</ele>
        <time>2019-11-15T23:02:55Z</time>
      </trkpt>
      <trkpt lat="44.31972" lon="3.71577">
        <ele>1303</ele>
        <time>2019-11-15T23:03:07Z</time>
      </trkpt>
      <trkpt lat="44.31997" lon="3.7162">
        <ele>1300</ele>
        <time>2019-11-15T23:03:14Z</time>
      </trkpt>
      <trkpt lat="44.32005" lon="3.71624">
        <ele>1299</ele>
        <time>2019-11-15T23:03:16Z</time>
      </trkpt>
      <trkpt lat="44.32003" lon="3.71572">
        <ele>1298</ele>
        <time>2019-11-15T23:03:22Z</time>
      </trkpt>
      <trkpt lat="44.32008" lon="3.7153">
        <ele>1292</ele>
        <time>2019-11-15T23:03:28Z</time>
      </trkpt>
      <trkpt lat="44.32047" lon="3.71393">
        <ele>1271</ele>
        <time>2019-11-15T23:03:47Z</time>
      </trkpt>
      <trkpt lat="44.3206" lon="3.71333">
        <ele>1263</ele>
        <time>2019-11-15T23:03:54Z</time>
      </trkpt>
      <trkpt lat="44.32071" lon="3.71302">
        <ele>1258</ele>
        <time>2019-11-15T23:03:59Z</time>
      </trkpt>
      <trkpt lat="44.32106" lon="3.71233">
        <ele>1248</ele>
        <time>2019-11-15T23:04:10Z</time>
      </trkpt>
      <trkpt lat="44.32164" lon="3.71131">
        <ele>1239</ele>
        <time>2019-11-15T23:04:26Z</time>
      </trkpt>
      <trkpt lat="44.32184" lon="3.71101">
        <ele>1235</ele>
        <time>2019-11-15T23:04:31Z</time>
      </trkpt>
      <trkpt lat="44.32273" lon="3.70989">
        <ele>1221</ele>
        <time>2019-11-15T23:04:53Z</time>
      </trkpt>
      <trkpt lat="44.3231" lon="3.71147">
        <ele>1239</ele>
        <time>2019-11-15T23:05:14Z</time>
      </trkpt>
      <trkpt lat="44.32312" lon="3.71164">
        <ele>1240</ele>
        <time>2019-11-15T23:05:16Z</time>
      </trkpt>
      <trkpt lat="44.32309" lon="3.71244">
        <ele>1245</ele>
        <time>2019-11-15T23:05:26Z</time>
      </trkpt>
      <trkpt lat="44.32303" lon="3.71289">
        <ele>1246</ele>
        <time>2019-11-15T23:05:32Z</time>
      </trkpt>
      <trkpt lat="44.32292" lon="3.71321">
        <ele>1248</ele>
        <time>2019-11-15T23:05:37Z</time>
      </trkpt>
      <trkpt lat="44.32278" lon="3.71347">
        <ele>1249</ele>
        <time>2019-11-15T23:05:41Z</time>
      </trkpt>
      <trkpt lat="44.32252" lon="3.71381">
        <ele>1251</ele>
        <time>2019-11-15T23:05:47Z</time>
      </trkpt>
      <trkpt lat="44.32238" lon="3.71405">
        <ele>1253</ele>
        <time>2019-11-15T23:05:51Z</time>
      </trkpt>
      <trkpt lat="44.32216" lon="3.71473">
        <ele>1254</ele>
        <time>2019-11-15T23:06:01Z</time>
      </trkpt>
      <trkpt lat="44.32202" lon="3.71507">
        <ele>1256</ele>
        <time>2019-11-15T23:06:06Z</time>
      </trkpt>
      <trkpt lat="44.32191" lon="3.71553">
        <ele>1257</ele>
        <time>2019-11-15T23:06:12Z</time>
      </trkpt>
      <trkpt lat="44.32167" lon="3.716">
        <ele>1261</ele>
        <time>2019-11-15T23:06:19Z</time>
      </trkpt>
      <trkpt lat="44.32144" lon="3.71681">
        <ele>1259</ele>
        <time>2019-11-15T23:06:30Z</time>
      </trkpt>
      <trkpt lat="44.32141" lon="3.71705">
        <ele>1258</ele>
        <time>2019-11-15T23:06:33Z</time>
      </trkpt>
      <trkpt lat="44.32147" lon="3.71777">
        <ele>1251</ele>
        <time>2019-11-15T23:06:43Z</time>
      </trkpt>
      <trkpt lat="44.32142" lon="3.71807">
        <ele>1249</ele>
        <time>2019-11-15T23:06:46Z</time>
      </trkpt>
      <trkpt lat="44.32137" lon="3.71817">
        <ele>1249</ele>
        <time>2019-11-15T23:06:48Z</time>
      </trkpt>
      <trkpt lat="44.32105" lon="3.71851">
        <ele>1251</ele>
        <time>2019-11-15T23:06:55Z</time>
      </trkpt>
      <trkpt lat="44.32088" lon="3.71875">
        <ele>1250</ele>
        <time>2019-11-15T23:06:59Z</time>
      </trkpt>
      <trkpt lat="44.32072" lon="3.71923">
        <ele>1249</ele>
        <time>2019-11-15T23:07:06Z</time>
      </trkpt>
      <trkpt lat="44.32067" lon="3.71944">
        <ele>1250</ele>
        <time>2019-11-15T23:07:09Z</time>
      </trkpt>
      <trkpt lat="44.32066" lon="3.7196">
        <ele>1249</ele>
        <time>2019-11-15T23:07:11Z</time>
      </trkpt>
      <trkpt lat="44.32074" lon="3.72003">
        <ele>1242</ele>
        <time>2019-11-15T23:07:17Z</time>
      </trkpt>
      <trkpt lat="44.32075" lon="3.72033">
        <ele>1242</ele>
        <time>2019-11-15T23:07:21Z</time>
      </trkpt>
      <trkpt lat="44.32069" lon="3.72069">
        <ele>1245</ele>
        <time>2019-11-15T23:07:25Z</time>
      </trkpt>
      <trkpt lat="44.32066" lon="3.72079">
        <ele>1247</ele>
        <time>2019-11-15T23:07:27Z</time>
      </trkpt>
      <trkpt lat="44.32059" lon="3.72088">
        <ele>1251</ele>
        <time>2019-11-15T23:07:28Z</time>
      </trkpt>
      <trkpt lat="44.32064" lon="3.72112">
        <ele>1249</ele>
        <time>2019-11-15T23:07:31Z</time>
      </trkpt>
      <trkpt lat="44.32062" lon="3.72129">
        <ele>1250</ele>
        <time>2019-11-15T23:07:34Z</time>
      </trkpt>
      <trkpt lat="44.32066" lon="3.72169">
        <ele>1250</ele>
        <time>2019-11-15T23:07:39Z</time>
      </trkpt>
      <trkpt lat="44.32064" lon="3.72189">
        <ele>1255</ele>
        <time>2019-11-15T23:07:41Z</time>
      </trkpt>
      <trkpt lat="44.32057" lon="3.72207">
        <ele>1262</ele>
        <time>2019-11-15T23:07:44Z</time>
      </trkpt>
      <trkpt lat="44.32057" lon="3.72216">
        <ele>1263</ele>
        <time>2019-11-15T23:07:45Z</time>
      </trkpt>
      <trkpt lat="44.32062" lon="3.72224">
        <ele>1263</ele>
        <time>2019-11-15T23:07:47Z</time>
      </trkpt>
      <trkpt lat="44.32083" lon="3.72232">
        <ele>1258</ele>
        <time>2019-11-15T23:07:50Z</time>
      </trkpt>
      <trkpt lat="44.32108" lon="3.72249">
        <ele>1254</ele>
        <time>2019-11-15T23:07:55Z</time>
      </trkpt>
      <trkpt lat="44.32133" lon="3.7227">
        <ele>1253</ele>
        <time>2019-11-15T23:08:01Z</time>
      </trkpt>
      <trkpt lat="44.32156" lon="3.72274">
        <ele>1247</ele>
        <time>2019-11-15T23:08:05Z</time>
      </trkpt>
      <trkpt lat="44.32261" lon="3.72323">
        <ele>1228</ele>
        <time>2019-11-15T23:08:24Z</time>
      </trkpt>
      <trkpt lat="44.3229" lon="3.7232">
        <ele>1220</ele>
        <time>2019-11-15T23:08:30Z</time>
      </trkpt>
      <trkpt lat="44.32334" lon="3.72321">
        <ele>1208</ele>
        <time>2019-11-15T23:08:37Z</time>
      </trkpt>
      <trkpt lat="44.32377" lon="3.72338">
        <ele>1200</ele>
        <time>2019-11-15T23:08:45Z</time>
      </trkpt>
      <trkpt lat="44.32386" lon="3.72346">
        <ele>1199</ele>
        <time>2019-11-15T23:08:47Z</time>
      </trkpt>
      <trkpt lat="44.32396" lon="3.72361">
        <ele>1197</ele>
        <time>2019-11-15T23:08:50Z</time>
      </trkpt>
      <trkpt lat="44.32421" lon="3.72418">
        <ele>1193</ele>
        <time>2019-11-15T23:08:58Z</time>
      </trkpt>
      <trkpt lat="44.32431" lon="3.7246">
        <ele>1193</ele>
        <time>2019-11-15T23:09:04Z</time>
      </trkpt>
      <trkpt lat="44.32462" lon="3.72535">
        <ele>1188</ele>
        <time>2019-11-15T23:09:15Z</time>
      </trkpt>
      <trkpt lat="44.32465" lon="3.72559">
        <ele>1186</ele>
        <time>2019-11-15T23:09:18Z</time>
      </trkpt>
      <trkpt lat="44.32463" lon="3.72593">
        <ele>1185</ele>
        <time>2019-11-15T23:09:22Z</time>
      </trkpt>
      <trkpt lat="44.32466" lon="3.72639">
        <ele>1179</ele>
        <time>2019-11-15T23:09:28Z</time>
      </trkpt>
      <trkpt lat="44.32463" lon="3.72671">
        <ele>1176</ele>
        <time>2019-11-15T23:09:32Z</time>
      </trkpt>
      <trkpt lat="44.32467" lon="3.72712">
        <ele>1171</ele>
        <time>2019-11-15T23:09:38Z</time>
      </trkpt>
      <trkpt lat="44.32481" lon="3.72742">
        <ele>1164</ele>
        <time>2019-11-15T23:09:42Z</time>
      </trkpt>
      <trkpt lat="44.32501" lon="3.72765">
        <ele>1157</ele>
        <time>2019-11-15T23:09:47Z</time>
      </trkpt>
      <trkpt lat="44.32526" lon="3.72771">
        <ele>1152</ele>
        <time>2019-11-15T23:09:51Z</time>
      </trkpt>
      <trkpt lat="44.32532" lon="3.72775">
        <ele>1150</ele>
        <time>2019-11-15T23:09:53Z</time>
      </trkpt>
      <trkpt lat="44.32541" lon="3.72772">
        <ele>1149</ele>
        <time>2019-11-15T23:09:54Z</time>
      </trkpt>
      <trkpt lat="44.32552" lon="3.72759">
        <ele>1147</ele>
        <time>2019-11-15T23:09:57Z</time>
      </trkpt>
      <trkpt lat="44.32578" lon="3.72704">
        <ele>1146</ele>
        <time>2019-11-15T23:10:05Z</time>
      </trkpt>
      <trkpt lat="44.32585" lon="3.72699">
        <ele>1144</ele>
        <time>2019-11-15T23:10:07Z</time>
      </trkpt>
      <trkpt lat="44.32589" lon="3.72699">
        <ele>1144</ele>
        <time>2019-11-15T23:10:07Z</time>
      </trkpt>
      <trkpt lat="44.32631" lon="3.72781">
        <ele>1134</ele>
        <time>2019-11-15T23:10:20Z</time>
      </trkpt>
      <trkpt lat="44.32636" lon="3.72789">
        <ele>1133</ele>
        <time>2019-11-15T23:10:21Z</time>
      </trkpt>
      <trkpt lat="44.32643" lon="3.72791">
        <ele>1132</ele>
        <time>2019-11-15T23:10:23Z</time>
      </trkpt>
      <trkpt lat="44.32673" lon="3.72773">
        <ele>1128</ele>
        <time>2019-11-15T23:10:29Z</time>
      </trkpt>
      <trkpt lat="44.32714" lon="3.72758">
        <ele>1125</ele>
        <time>2019-11-15T23:10:36Z</time>
      </trkpt>
      <trkpt lat="44.32738" lon="3.7273">
        <ele>1122</ele>
        <time>2019-11-15T23:10:42Z</time>
      </trkpt>
      <trkpt lat="44.3278" lon="3.72709">
        <ele>1119</ele>
        <time>2019-11-15T23:10:50Z</time>
      </trkpt>
      <trkpt lat="44.3279" lon="3.72693">
        <ele>1118</ele>
        <time>2019-11-15T23:10:52Z</time>
      </trkpt>
      <trkpt lat="44.32797" lon="3.72658">
        <ele>1118</ele>
        <time>2019-11-15T23:10:57Z</time>
      </trkpt>
      <trkpt lat="44.32821" lon="3.72623">
        <ele>1116</ele>
        <time>2019-11-15T23:11:03Z</time>
      </trkpt>
      <trkpt lat="44.32836" lon="3.72584">
        <ele>1116</ele>
        <time>2019-11-15T23:11:09Z</time>
      </trkpt>
      <trkpt lat="44.32877" lon="3.72531">
        <ele>1112</ele>
        <time>2019-11-15T23:11:19Z</time>
      </trkpt>
      <trkpt lat="44.329" lon="3.72513">
        <ele>1111</ele>
        <time>2019-11-15T23:11:23Z</time>
      </trkpt>
      <trkpt lat="44.32959" lon="3.72496">
        <ele>1108</ele>
        <time>2019-11-15T23:11:34Z</time>
      </trkpt>
      <trkpt lat="44.3299" lon="3.72491">
        <ele>1106</ele>
        <time>2019-11-15T23:11:40Z</time>
      </trkpt>
      <trkpt lat="44.33024" lon="3.72469">
        <ele>1103</ele>
        <time>2019-11-15T23:11:46Z</time>
      </trkpt>
      <trkpt lat="44.33046" lon="3.72467">
        <ele>1102</ele>
        <time>2019-11-15T23:11:50Z</time>
      </trkpt>
      <trkpt lat="44.33063" lon="3.72462">
        <ele>1101</ele>
        <time>2019-11-15T23:11:53Z</time>
      </trkpt>
      <trkpt lat="44.33113" lon="3.72439">
        <ele>1099</ele>
        <time>2019-11-15T23:12:03Z</time>
      </trkpt>
      <trkpt lat="44.33131" lon="3.72427">
        <ele>1097</ele>
        <time>2019-11-15T23:12:06Z</time>
      </trkpt>
      <trkpt lat="44.33163" lon="3.72423">
        <ele>1095</ele>
        <time>2019-11-15T23:12:12Z</time>
      </trkpt>
      <trkpt lat="44.33173" lon="3.72425">
        <ele>1094</ele>
        <time>2019-11-15T23:12:14Z</time>
      </trkpt>
      <trkpt lat="44.33185" lon="3.72423">
        <ele>1093</ele>
        <time>2019-11-15T23:12:16Z</time>
      </trkpt>
      <trkpt lat="44.33195" lon="3.72409">
        <ele>1092</ele>
        <time>2019-11-15T23:12:18Z</time>
      </trkpt>
      <trkpt lat="44.33241" lon="3.72364">
        <ele>1086</ele>
        <time>2019-11-15T23:12:28Z</time>
      </trkpt>
      <trkpt lat="44.3326" lon="3.72369">
        <ele>1086</ele>
        <time>2019-11-15T23:12:32Z</time>
      </trkpt>
      <trkpt lat="44.3331" lon="3.72368">
        <ele>1085</ele>
        <time>2019-11-15T23:12:41Z</time>
      </trkpt>
      <trkpt lat="44.33343" lon="3.72366">
        <ele>1086</ele>
        <time>2019-11-15T23:12:47Z</time>
      </trkpt>
      <trkpt lat="44.33372" lon="3.7236">
        <ele>1087</ele>
        <time>2019-11-15T23:12:52Z</time>
      </trkpt>
      <trkpt lat="44.33395" lon="3.7236">
        <ele>1089</ele>
        <time>2019-11-15T23:12:56Z</time>
      </trkpt>
      <trkpt lat="44.33405" lon="3.72367">
        <ele>1089</ele>
        <time>2019-11-15T23:12:58Z</time>
      </trkpt>
      <trkpt lat="44.33409" lon="3.72375">
        <ele>1090</ele>
        <time>2019-11-15T23:12:59Z</time>
      </trkpt>
      <trkpt lat="44.3341" lon="3.72394">
        <ele>1091</ele>
        <time>2019-11-15T23:13:02Z</time>
      </trkpt>
      <trkpt lat="44.33428" lon="3.72492">
        <ele>1096</ele>
        <time>2019-11-15T23:13:14Z</time>
      </trkpt>
      <trkpt lat="44.33435" lon="3.72559">
        <ele>1099</ele>
        <time>2019-11-15T23:13:23Z</time>
      </trkpt>
      <trkpt lat="44.33438" lon="3.72572">
        <ele>1100</ele>
        <time>2019-11-15T23:13:25Z</time>
      </trkpt>
      <trkpt lat="44.33452" lon="3.72604">
        <ele>1103</ele>
        <time>2019-11-15T23:13:30Z</time>
      </trkpt>
      <trkpt lat="44.3345" lon="3.72682">
        <ele>1104</ele>
        <time>2019-11-15T23:13:39Z</time>
      </trkpt>
      <trkpt lat="44.33474" lon="3.72757">
        <ele>1108</ele>
        <time>2019-11-15T23:13:50Z</time>
      </trkpt>
      <trkpt lat="44.33492" lon="3.7279">
        <ele>1107</ele>
        <time>2019-11-15T23:13:55Z</time>
      </trkpt>
      <trkpt lat="44.33506" lon="3.72803">
        <ele>1107</ele>
        <time>2019-11-15T23:13:58Z</time>
      </trkpt>
      <trkpt lat="44.33519" lon="3.72808">
        <ele>1106</ele>
        <time>2019-11-15T23:14:01Z</time>
      </trkpt>
      <trkpt lat="44.33526" lon="3.72808">
        <ele>1105</ele>
        <time>2019-11-15T23:14:02Z</time>
      </trkpt>
      <trkpt lat="44.33561" lon="3.72788">
        <ele>1106</ele>
        <time>2019-11-15T23:14:09Z</time>
      </trkpt>
      <trkpt lat="44.33583" lon="3.72768">
        <ele>1108</ele>
        <time>2019-11-15T23:14:13Z</time>
      </trkpt>
      <trkpt lat="44.33595" lon="3.72765">
        <ele>1109</ele>
        <time>2019-11-15T23:14:15Z</time>
      </trkpt>
      <trkpt lat="44.33616" lon="3.72778">
        <ele>1108</ele>
        <time>2019-11-15T23:14:19Z</time>
      </trkpt>
      <trkpt lat="44.33637" lon="3.72796">
        <ele>1107</ele>
        <time>2019-11-15T23:14:24Z</time>
      </trkpt>
      <trkpt lat="44.33674" lon="3.72838">
        <ele>1105</ele>
        <time>2019-11-15T23:14:32Z</time>
      </trkpt>
      <trkpt lat="44.33736" lon="3.72879">
        <ele>1103</ele>
        <time>2019-11-15T23:14:45Z</time>
      </trkpt>
      <trkpt lat="44.33762" lon="3.72903">
        <ele>1102</ele>
        <time>2019-11-15T23:14:50Z</time>
      </trkpt>
      <trkpt lat="44.33767" lon="3.72912">
        <ele>1102</ele>
        <time>2019-11-15T23:14:52Z</time>
      </trkpt>
      <trkpt lat="44.33777" lon="3.7295">
        <ele>1103</ele>
        <time>2019-11-15T23:14:57Z</time>
      </trkpt>
      <trkpt lat="44.33779" lon="3.73001">
        <ele>1103</ele>
        <time>2019-11-15T23:15:03Z</time>
      </trkpt>
      <trkpt lat="44.33783" lon="3.73017">
        <ele>1103</ele>
        <time>2019-11-15T23:15:05Z</time>
      </trkpt>
      <trkpt lat="44.33828" lon="3.7307">
        <ele>1102</ele>
        <time>2019-11-15T23:15:16Z</time>
      </trkpt>
      <trkpt lat="44.33842" lon="3.73097">
        <ele>1101</ele>
        <time>2019-11-15T23:15:20Z</time>
      </trkpt>
      <trkpt lat="44.33848" lon="3.73125">
        <ele>1100</ele>
        <time>2019-11-15T23:15:24Z</time>
      </trkpt>
      <trkpt lat="44.3385" lon="3.7318">
        <ele>1099</ele>
        <time>2019-11-15T23:15:31Z</time>
      </trkpt>
      <trkpt lat="44.33857" lon="3.73203">
        <ele>1098</ele>
        <time>2019-11-15T23:15:34Z</time>
      </trkpt>
      <trkpt lat="44.33886" lon="3.7325">
        <ele>1098</ele>
        <time>2019-11-15T23:15:42Z</time>
      </trkpt>
      <trkpt lat="44.33975" lon="3.7337">
        <ele>1095</ele>
        <time>2019-11-15T23:16:04Z</time>
      </trkpt>
      <trkpt lat="44.33981" lon="3.73383">
        <ele>1094</ele>
        <time>2019-11-15T23:16:06Z</time>
      </trkpt>
      <trkpt lat="44.33997" lon="3.73456">
        <ele>1089</ele>
        <time>2019-11-15T23:16:16Z</time>
      </trkpt>
      <trkpt lat="44.33999" lon="3.73519">
        <ele>1089</ele>
        <time>2019-11-15T23:16:24Z</time>
      </trkpt>
      <trkpt lat="44.34003" lon="3.73529">
        <ele>1089</ele>
        <time>2019-11-15T23:16:25Z</time>
      </trkpt>
      <trkpt lat="44.34016" lon="3.73547">
        <ele>1090</ele>
        <time>2019-11-15T23:16:28Z</time>
      </trkpt>
      <trkpt lat="44.3403" lon="3.73557">
        <ele>1091</ele>
        <time>2019-11-15T23:16:31Z</time>
      </trkpt>
      <trkpt lat="44.34038" lon="3.73558">
        <ele>1091</ele>
        <time>2019-11-15T23:16:33Z</time>
      </trkpt>
      <trkpt lat="44.34058" lon="3.73555">
        <ele>1090</ele>
        <time>2019-11-15T23:16:36Z</time>
      </trkpt>
      <trkpt lat="44.34096" lon="3.73545">
        <ele>1087</ele>
        <time>2019-11-15T23:16:43Z</time>
      </trkpt>
      <trkpt lat="44.34109" lon="3.73546">
        <ele>1086</ele>
        <time>2019-11-15T23:16:45Z</time>
      </trkpt>
      <trkpt lat="44.34168" lon="3.73572">
        <ele>1089</ele>
        <time>2019-11-15T23:16:56Z</time>
      </trkpt>
      <trkpt lat="44.3418" lon="3.73573">
        <ele>1088</ele>
        <time>2019-11-15T23:16:58Z</time>
      </trkpt>
      <trkpt lat="44.34194" lon="3.73624">
        <ele>1094</ele>
        <time>2019-11-15T23:17:05Z</time>
      </trkpt>
      <trkpt lat="44.342" lon="3.73678">
        <ele>1098</ele>
        <time>2019-11-15T23:17:12Z</time>
      </trkpt>
      <trkpt lat="44.34207" lon="3.73695">
        <ele>1098</ele>
        <time>2019-11-15T23:17:15Z</time>
      </trkpt>
      <trkpt lat="44.34274" lon="3.73779">
        <ele>1100</ele>
        <time>2019-11-15T23:17:31Z</time>
      </trkpt>
      <trkpt lat="44.34282" lon="3.73781">
        <ele>1100</ele>
        <time>2019-11-15T23:17:32Z</time>
      </trkpt>
      <trkpt lat="44.34293" lon="3.73777">
        <ele>1101</ele>
        <time>2019-11-15T23:17:34Z</time>
      </trkpt>
      <trkpt lat="44.343" lon="3.73778">
        <ele>1101</ele>
        <time>2019-11-15T23:17:36Z</time>
      </trkpt>
      <trkpt lat="44.34317" lon="3.73785">
        <ele>1102</ele>
        <time>2019-11-15T23:17:39Z</time>
      </trkpt>
      <trkpt lat="44.34343" lon="3.73789">
        <ele>1103</ele>
        <time>2019-11-15T23:17:43Z</time>
      </trkpt>
      <trkpt lat="44.34381" lon="3.73784">
        <ele>1104</ele>
        <time>2019-11-15T23:17:50Z</time>
      </trkpt>
      <trkpt lat="44.34418" lon="3.73785">
        <ele>1104</ele>
        <time>2019-11-15T23:17:57Z</time>
      </trkpt>
      <trkpt lat="44.34439" lon="3.73778">
        <ele>1104</ele>
        <time>2019-11-15T23:18:01Z</time>
      </trkpt>
      <trkpt lat="44.34478" lon="3.73756">
        <ele>1103</ele>
        <time>2019-11-15T23:18:08Z</time>
      </trkpt>
      <trkpt lat="44.34489" lon="3.73752">
        <ele>1104</ele>
        <time>2019-11-15T23:18:10Z</time>
      </trkpt>
      <trkpt lat="44.34517" lon="3.73748">
        <ele>1103</ele>
        <time>2019-11-15T23:18:15Z</time>
      </trkpt>
      <trkpt lat="44.34547" lon="3.73748">
        <ele>1102</ele>
        <time>2019-11-15T23:18:20Z</time>
      </trkpt>
      <trkpt lat="44.34566" lon="3.73756">
        <ele>1101</ele>
        <time>2019-11-15T23:18:24Z</time>
      </trkpt>
      <trkpt lat="44.34584" lon="3.73771">
        <ele>1100</ele>
        <time>2019-11-15T23:18:28Z</time>
      </trkpt>
      <trkpt lat="44.34615" lon="3.73772">
        <ele>1100</ele>
        <time>2019-11-15T23:18:33Z</time>
      </trkpt>
      <trkpt lat="44.34631" lon="3.73765">
        <ele>1100</ele>
        <time>2019-11-15T23:18:36Z</time>
      </trkpt>
      <trkpt lat="44.34643" lon="3.73753">
        <ele>1101</ele>
        <time>2019-11-15T23:18:39Z</time>
      </trkpt>
      <trkpt lat="44.34666" lon="3.73737">
        <ele>1101</ele>
        <time>2019-11-15T23:18:43Z</time>
      </trkpt>
      <trkpt lat="44.34681" lon="3.73717">
        <ele>1101</ele>
        <time>2019-11-15T23:18:47Z</time>
      </trkpt>
      <trkpt lat="44.3472" lon="3.73678">
        <ele>1102</ele>
        <time>2019-11-15T23:18:56Z</time>
      </trkpt>
      <trkpt lat="44.34725" lon="3.73677">
        <ele>1102</ele>
        <time>2019-11-15T23:18:57Z</time>
      </trkpt>
      <trkpt lat="44.34739" lon="3.73682">
        <ele>1101</ele>
        <time>2019-11-15T23:18:59Z</time>
      </trkpt>
      <trkpt lat="44.34762" lon="3.73679">
        <ele>1101</ele>
        <time>2019-11-15T23:19:03Z</time>
      </trkpt>
      <trkpt lat="44.34791" lon="3.73686">
        <ele>1101</ele>
        <time>2019-11-15T23:19:08Z</time>
      </trkpt>
      <trkpt lat="44.34856" lon="3.73682">
        <ele>1101</ele>
        <time>2019-11-15T23:19:20Z</time>
      </trkpt>
      <trkpt lat="44.34926" lon="3.73721">
        <ele>1101</ele>
        <time>2019-11-15T23:19:33Z</time>
      </trkpt>
      <trkpt lat="44.34934" lon="3.73723">
        <ele>1101</ele>
        <time>2019-11-15T23:19:35Z</time>
      </trkpt>
      <trkpt lat="44.34947" lon="3.73722">
        <ele>1101</ele>
        <time>2019-11-15T23:19:37Z</time>
      </trkpt>
      <trkpt lat="44.34975" lon="3.73738">
        <ele>1101</ele>
        <time>2019-11-15T23:19:43Z</time>
      </trkpt>
      <trkpt lat="44.34995" lon="3.73754">
        <ele>1102</ele>
        <time>2019-11-15T23:19:47Z</time>
      </trkpt>
      <trkpt lat="44.35017" lon="3.73762">
        <ele>1103</ele>
        <time>2019-11-15T23:19:51Z</time>
      </trkpt>
      <trkpt lat="44.35032" lon="3.73774">
        <ele>1103</ele>
        <time>2019-11-15T23:19:54Z</time>
      </trkpt>
      <trkpt lat="44.35043" lon="3.73779">
        <ele>1104</ele>
        <time>2019-11-15T23:19:56Z</time>
      </trkpt>
      <trkpt lat="44.35103" lon="3.73828">
        <ele>1106</ele>
        <time>2019-11-15T23:20:08Z</time>
      </trkpt>
      <trkpt lat="44.35144" lon="3.73873">
        <ele>1107</ele>
        <time>2019-11-15T23:20:17Z</time>
      </trkpt>
      <trkpt lat="44.35158" lon="3.73881">
        <ele>1106</ele>
        <time>2019-11-15T23:20:20Z</time>
      </trkpt>
      <trkpt lat="44.35173" lon="3.73902">
        <ele>1106</ele>
        <time>2019-11-15T23:20:24Z</time>
      </trkpt>
      <trkpt lat="44.35184" lon="3.73904">
        <ele>1105</ele>
        <time>2019-11-15T23:20:26Z</time>
      </trkpt>
      <trkpt lat="44.35216" lon="3.73931">
        <ele>1103</ele>
        <time>2019-11-15T23:20:33Z</time>
      </trkpt>
      <trkpt lat="44.35245" lon="3.7394">
        <ele>1100</ele>
        <time>2019-11-15T23:20:38Z</time>
      </trkpt>
      <trkpt lat="44.35304" lon="3.73988">
        <ele>1100</ele>
        <time>2019-11-15T23:20:50Z</time>
      </trkpt>
      <trkpt lat="44.35344" lon="3.74007">
        <ele>1101</ele>
        <time>2019-11-15T23:20:58Z</time>
      </trkpt>
      <trkpt lat="44.35351" lon="3.74013">
        <ele>1101</ele>
        <time>2019-11-15T23:20:59Z</time>
      </trkpt>
      <trkpt lat="44.35381" lon="3.74026">
        <ele>1101</ele>
        <time>2019-11-15T23:21:05Z</time>
      </trkpt>
      <trkpt lat="44.35392" lon="3.74036">
        <ele>1101</ele>
        <time>2019-11-15T23:21:07Z</time>
      </trkpt>
      <trkpt lat="44.35404" lon="3.74041">
        <ele>1101</ele>
        <time>2019-11-15T23:21:09Z</time>
      </trkpt>
      <trkpt lat="44.35416" lon="3.7404">
        <ele>1101</ele>
        <time>2019-11-15T23:21:11Z</time>
      </trkpt>
      <trkpt lat="44.35448" lon="3.74045">
        <ele>1099</ele>
        <time>2019-11-15T23:21:17Z</time>
      </trkpt>
      <trkpt lat="44.35467" lon="3.74042">
        <ele>1099</ele>
        <time>2019-11-15T23:21:20Z</time>
      </trkpt>
      <trkpt lat="44.35485" lon="3.74044">
        <ele>1098</ele>
        <time>2019-11-15T23:21:24Z</time>
      </trkpt>
      <trkpt lat="44.35524" lon="3.74059">
        <ele>1093</ele>
        <time>2019-11-15T23:21:31Z</time>
      </trkpt>
      <trkpt lat="44.35542" lon="3.74056">
        <ele>1092</ele>
        <time>2019-11-15T23:21:34Z</time>
      </trkpt>
      <trkpt lat="44.35569" lon="3.74058">
        <ele>1089</ele>
        <time>2019-11-15T23:21:39Z</time>
      </trkpt>
      <trkpt lat="44.35601" lon="3.74049">
        <ele>1087</ele>
        <time>2019-11-15T23:21:45Z</time>
      </trkpt>
      <trkpt lat="44.35639" lon="3.74042">
        <ele>1082</ele>
        <time>2019-11-15T23:21:51Z</time>
      </trkpt>
      <trkpt lat="44.35693" lon="3.74036">
        <ele>1073</ele>
        <time>2019-11-15T23:22:01Z</time>
      </trkpt>
      <trkpt lat="44.35704" lon="3.74032">
        <ele>1072</ele>
        <time>2019-11-15T23:22:03Z</time>
      </trkpt>
      <trkpt lat="44.35706" lon="3.74036">
        <ele>1070</ele>
        <time>2019-11-15T23:22:04Z</time>
      </trkpt>
      <trkpt lat="44.35691" lon="3.74045">
        <ele>1070</ele>
        <time>2019-11-15T23:22:07Z</time>
      </trkpt>
      <trkpt lat="44.35684" lon="3.74053">
        <ele>1069</ele>
        <time>2019-11-15T23:22:08Z</time>
      </trkpt>
      <trkpt lat="44.35685" lon="3.74058">
        <ele>1066</ele>
        <time>2019-11-15T23:22:09Z</time>
      </trkpt>
      <trkpt lat="44.35689" lon="3.74058">
        <ele>1065</ele>
        <time>2019-11-15T23:22:10Z</time>
      </trkpt>
      <trkpt lat="44.35737" lon="3.74052">
        <ele>1056</ele>
        <time>2019-11-15T23:22:18Z</time>
      </trkpt>
      <trkpt lat="44.35746" lon="3.74049">
        <ele>1055</ele>
        <time>2019-11-15T23:22:20Z</time>
      </trkpt>
      <trkpt lat="44.35768" lon="3.74034">
        <ele>1057</ele>
        <time>2019-11-15T23:22:24Z</time>
      </trkpt>
      <trkpt lat="44.35793" lon="3.74028">
        <ele>1055</ele>
        <time>2019-11-15T23:22:29Z</time>
      </trkpt>
      <trkpt lat="44.35802" lon="3.74028">
        <ele>1053</ele>
        <time>2019-11-15T23:22:30Z</time>
      </trkpt>
      <trkpt lat="44.35829" lon="3.74039">
        <ele>1045</ele>
        <time>2019-11-15T23:22:35Z</time>
      </trkpt>
      <trkpt lat="44.35843" lon="3.74056">
        <ele>1038</ele>
        <time>2019-11-15T23:22:39Z</time>
      </trkpt>
      <trkpt lat="44.35851" lon="3.74062">
        <ele>1035</ele>
        <time>2019-11-15T23:22:40Z</time>
      </trkpt>
      <trkpt lat="44.35862" lon="3.74067">
        <ele>1033</ele>
        <time>2019-11-15T23:22:42Z</time>
      </trkpt>
      <trkpt lat="44.35889" lon="3.74086">
        <ele>1026</ele>
        <time>2019-11-15T23:22:48Z</time>
      </trkpt>
      <trkpt lat="44.35901" lon="3.7409">
        <ele>1025</ele>
        <time>2019-11-15T23:22:50Z</time>
      </trkpt>
      <trkpt lat="44.35928" lon="3.74106">
        <ele>1018</ele>
        <time>2019-11-15T23:22:55Z</time>
      </trkpt>
      <trkpt lat="44.35939" lon="3.74121">
        <ele>1012</ele>
        <time>2019-11-15T23:22:58Z</time>
      </trkpt>
      <trkpt lat="44.35954" lon="3.74131">
        <ele>1008</ele>
        <time>2019-11-15T23:23:01Z</time>
      </trkpt>
      <trkpt lat="44.35978" lon="3.74132">
        <ele>1005</ele>
        <time>2019-11-15T23:23:05Z</time>
      </trkpt>
      <trkpt lat="44.36026" lon="3.74148">
        <ele>995</ele>
        <time>2019-11-15T23:23:14Z</time>
      </trkpt>
      <trkpt lat="44.36052" lon="3.74149">
        <ele>991</ele>
        <time>2019-11-15T23:23:18Z</time>
      </trkpt>
      <trkpt lat="44.3606" lon="3.74147">
        <ele>990</ele>
        <time>2019-11-15T23:23:20Z</time>
      </trkpt>
      <trkpt lat="44.36149" lon="3.74113">
        <ele>976</ele>
        <time>2019-11-15T23:23:36Z</time>
      </trkpt>
      <trkpt lat="44.36169" lon="3.74098">
        <ele>975</ele>
        <time>2019-11-15T23:23:40Z</time>
      </trkpt>
      <trkpt lat="44.36173" lon="3.74098">
        <ele>974</ele>
        <time>2019-11-15T23:23:41Z</time>
      </trkpt>
      <trkpt lat="44.36176" lon="3.74101">
        <ele>972</ele>
        <time>2019-11-15T23:23:42Z</time>
      </trkpt>
      <trkpt lat="44.36177" lon="3.74106">
        <ele>970</ele>
        <time>2019-11-15T23:23:42Z</time>
      </trkpt>
      <trkpt lat="44.36166" lon="3.7412">
        <ele>971</ele>
        <time>2019-11-15T23:23:45Z</time>
      </trkpt>
      <trkpt lat="44.36152" lon="3.74148">
        <ele>968</ele>
        <time>2019-11-15T23:23:49Z</time>
      </trkpt>
      <trkpt lat="44.36137" lon="3.74191">
        <ele>961</ele>
        <time>2019-11-15T23:23:55Z</time>
      </trkpt>
      <trkpt lat="44.3613" lon="3.74201">
        <ele>960</ele>
        <time>2019-11-15T23:23:57Z</time>
      </trkpt>
      <trkpt lat="44.36114" lon="3.74242">
        <ele>951</ele>
        <time>2019-11-15T23:24:03Z</time>
      </trkpt>
      <trkpt lat="44.36108" lon="3.74263">
        <ele>947</ele>
        <time>2019-11-15T23:24:06Z</time>
      </trkpt>
      <trkpt lat="44.36095" lon="3.74283">
        <ele>944</ele>
        <time>2019-11-15T23:24:10Z</time>
      </trkpt>
      <trkpt lat="44.36086" lon="3.74292">
        <ele>944</ele>
        <time>2019-11-15T23:24:11Z</time>
      </trkpt>
      <trkpt lat="44.36085" lon="3.74295">
        <ele>944</ele>
        <time>2019-11-15T23:24:12Z</time>
      </trkpt>
      <trkpt lat="44.36089" lon="3.74298">
        <ele>942</ele>
        <time>2019-11-15T23:24:13Z</time>
      </trkpt>
      <trkpt lat="44.36096" lon="3.74296">
        <ele>941</ele>
        <time>2019-11-15T23:24:14Z</time>
      </trkpt>
      <trkpt lat="44.36107" lon="3.74298">
        <ele>937</ele>
        <time>2019-11-15T23:24:16Z</time>
      </trkpt>
      <trkpt lat="44.36107" lon="3.74302">
        <ele>936</ele>
        <time>2019-11-15T23:24:16Z</time>
      </trkpt>
      <trkpt lat="44.36096" lon="3.74309">
        <ele>937</ele>
        <time>2019-11-15T23:24:19Z</time>
      </trkpt>
      <trkpt lat="44.3609" lon="3.74316">
        <ele>937</ele>
        <time>2019-11-15T23:24:20Z</time>
      </trkpt>
      <trkpt lat="44.36089" lon="3.74322">
        <ele>936</ele>
        <time>2019-11-15T23:24:21Z</time>
      </trkpt>
      <trkpt lat="44.36092" lon="3.7433">
        <ele>933</ele>
        <time>2019-11-15T23:24:22Z</time>
      </trkpt>
      <trkpt lat="44.36099" lon="3.74333">
        <ele>930</ele>
        <time>2019-11-15T23:24:23Z</time>
      </trkpt>
      <trkpt lat="44.36101" lon="3.74337">
        <ele>928</ele>
        <time>2019-11-15T23:24:24Z</time>
      </trkpt>
      <trkpt lat="44.36097" lon="3.74351">
        <ele>925</ele>
        <time>2019-11-15T23:24:26Z</time>
      </trkpt>
      <trkpt lat="44.36088" lon="3.74365">
        <ele>923</ele>
        <time>2019-11-15T23:24:28Z</time>
      </trkpt>
      <trkpt lat="44.36084" lon="3.74367">
        <ele>923</ele>
        <time>2019-11-15T23:24:29Z</time>
      </trkpt>
      <trkpt lat="44.36071" lon="3.7436">
        <ele>926</ele>
        <time>2019-11-15T23:24:31Z</time>
      </trkpt>
      <trkpt lat="44.36075" lon="3.74374">
        <ele>921</ele>
        <time>2019-11-15T23:24:33Z</time>
      </trkpt>
      <trkpt lat="44.3608" lon="3.7438">
        <ele>919</ele>
        <time>2019-11-15T23:24:35Z</time>
      </trkpt>
      <trkpt lat="44.36087" lon="3.74383">
        <ele>918</ele>
        <time>2019-11-15T23:24:36Z</time>
      </trkpt>
      <trkpt lat="44.36118" lon="3.7438">
        <ele>912</ele>
        <time>2019-11-15T23:24:41Z</time>
      </trkpt>
      <trkpt lat="44.36133" lon="3.74382">
        <ele>909</ele>
        <time>2019-11-15T23:24:44Z</time>
      </trkpt>
      <trkpt lat="44.36139" lon="3.74381">
        <ele>908</ele>
        <time>2019-11-15T23:24:45Z</time>
      </trkpt>
      <trkpt lat="44.36155" lon="3.74372">
        <ele>907</ele>
        <time>2019-11-15T23:24:48Z</time>
      </trkpt>
      <trkpt lat="44.36171" lon="3.74368">
        <ele>904</ele>
        <time>2019-11-15T23:24:51Z</time>
      </trkpt>
      <trkpt lat="44.36176" lon="3.74365">
        <ele>903</ele>
        <time>2019-11-15T23:24:52Z</time>
      </trkpt>
      <trkpt lat="44.3619" lon="3.74346">
        <ele>903</ele>
        <time>2019-11-15T23:24:56Z</time>
      </trkpt>
      <trkpt lat="44.362" lon="3.74327">
        <ele>903</ele>
        <time>2019-11-15T23:24:59Z</time>
      </trkpt>
      <trkpt lat="44.36241" lon="3.7428">
        <ele>901</ele>
        <time>2019-11-15T23:25:08Z</time>
      </trkpt>
      <trkpt lat="44.36244" lon="3.74279">
        <ele>900</ele>
        <time>2019-11-15T23:25:08Z</time>
      </trkpt>
      <trkpt lat="44.36245" lon="3.74283">
        <ele>899</ele>
        <time>2019-11-15T23:25:09Z</time>
      </trkpt>
      <trkpt lat="44.3624" lon="3.74303">
        <ele>896</ele>
        <time>2019-11-15T23:25:12Z</time>
      </trkpt>
      <trkpt lat="44.36225" lon="3.74341">
        <ele>892</ele>
        <time>2019-11-15T23:25:17Z</time>
      </trkpt>
      <trkpt lat="44.36227" lon="3.74348">
        <ele>891</ele>
        <time>2019-11-15T23:25:18Z</time>
      </trkpt>
      <trkpt lat="44.36235" lon="3.74358">
        <ele>887</ele>
        <time>2019-11-15T23:25:20Z</time>
      </trkpt>
      <trkpt lat="44.3625" lon="3.74337">
        <ele>885</ele>
        <time>2019-11-15T23:25:24Z</time>
      </trkpt>
      <trkpt lat="44.36254" lon="3.74336">
        <ele>884</ele>
        <time>2019-11-15T23:25:25Z</time>
      </trkpt>
      <trkpt lat="44.36261" lon="3.7434">
        <ele>883</ele>
        <time>2019-11-15T23:25:26Z</time>
      </trkpt>
      <trkpt lat="44.36267" lon="3.74352">
        <ele>882</ele>
        <time>2019-11-15T23:25:28Z</time>
      </trkpt>
      <trkpt lat="44.36277" lon="3.74362">
        <ele>881</ele>
        <time>2019-11-15T23:25:30Z</time>
      </trkpt>
      <trkpt lat="44.36285" lon="3.74341">
        <ele>881</ele>
        <time>2019-11-15T23:25:33Z</time>
      </trkpt>
      <trkpt lat="44.36322" lon="3.74356">
        <ele>877</ele>
        <time>2019-11-15T23:25:40Z</time>
      </trkpt>
      <trkpt lat="44.36331" lon="3.74363">
        <ele>877</ele>
        <time>2019-11-15T23:25:42Z</time>
      </trkpt>
      <trkpt lat="44.36339" lon="3.74358">
        <ele>877</ele>
        <time>2019-11-15T23:25:43Z</time>
      </trkpt>
      <trkpt lat="44.3634" lon="3.74371">
        <ele>878</ele>
        <time>2019-11-15T23:25:45Z</time>
      </trkpt>
      <trkpt lat="44.36338" lon="3.7438">
        <ele>878</ele>
        <time>2019-11-15T23:25:46Z</time>
      </trkpt>
      <trkpt lat="44.36342" lon="3.74389">
        <ele>879</ele>
        <time>2019-11-15T23:25:47Z</time>
      </trkpt>
      <trkpt lat="44.36358" lon="3.74396">
        <ele>881</ele>
        <time>2019-11-15T23:25:50Z</time>
      </trkpt>
      <trkpt lat="44.36359" lon="3.74428">
        <ele>883</ele>
        <time>2019-11-15T23:25:55Z</time>
      </trkpt>
      <trkpt lat="44.36368" lon="3.7447">
        <ele>886</ele>
        <time>2019-11-15T23:26:00Z</time>
      </trkpt>
      <trkpt lat="44.36365" lon="3.74478">
        <ele>886</ele>
        <time>2019-11-15T23:26:01Z</time>
      </trkpt>
      <trkpt lat="44.36366" lon="3.74492">
        <ele>887</ele>
        <time>2019-11-15T23:26:03Z</time>
      </trkpt>
      <trkpt lat="44.36372" lon="3.74504">
        <ele>888</ele>
        <time>2019-11-15T23:26:05Z</time>
      </trkpt>
      <trkpt lat="44.36379" lon="3.74534">
        <ele>892</ele>
        <time>2019-11-15T23:26:09Z</time>
      </trkpt>
      <trkpt lat="44.36383" lon="3.74531">
        <ele>892</ele>
        <time>2019-11-15T23:26:10Z</time>
      </trkpt>
      <trkpt lat="44.36395" lon="3.7453">
        <ele>893</ele>
        <time>2019-11-15T23:26:12Z</time>
      </trkpt>
      <trkpt lat="44.36401" lon="3.74544">
        <ele>896</ele>
        <time>2019-11-15T23:26:14Z</time>
      </trkpt>
      <trkpt lat="44.36365" lon="3.74715">
        <ele>902</ele>
        <time>2019-11-15T23:26:37Z</time>
      </trkpt>
      <trkpt lat="44.36366" lon="3.74747">
        <ele>905</ele>
        <time>2019-11-15T23:26:41Z</time>
      </trkpt>
      <trkpt lat="44.3637" lon="3.74756">
        <ele>908</ele>
        <time>2019-11-15T23:26:42Z</time>
      </trkpt>
      <trkpt lat="44.36368" lon="3.74797">
        <ele>912</ele>
        <time>2019-11-15T23:26:47Z</time>
      </trkpt>
      <trkpt lat="44.36372" lon="3.74896">
        <ele>925</ele>
        <time>2019-11-15T23:27:00Z</time>
      </trkpt>
      <trkpt lat="44.36375" lon="3.7491">
        <ele>928</ele>
        <time>2019-11-15T23:27:02Z</time>
      </trkpt>
      <trkpt lat="44.3637" lon="3.74958">
        <ele>929</ele>
        <time>2019-11-15T23:27:08Z</time>
      </trkpt>
      <trkpt lat="44.3637" lon="3.75005">
        <ele>932</ele>
        <time>2019-11-15T23:27:14Z</time>
      </trkpt>
      <trkpt lat="44.36367" lon="3.75023">
        <ele>931</ele>
        <time>2019-11-15T23:27:16Z</time>
      </trkpt>
      <trkpt lat="44.36378" lon="3.75082">
        <ele>939</ele>
        <time>2019-11-15T23:27:24Z</time>
      </trkpt>
      <trkpt lat="44.36385" lon="3.75106">
        <ele>943</ele>
        <time>2019-11-15T23:27:27Z</time>
      </trkpt>
      <trkpt lat="44.36384" lon="3.75061">
        <ele>941</ele>
        <time>2019-11-15T23:27:33Z</time>
      </trkpt>
      <trkpt lat="44.3639" lon="3.75023">
        <ele>943</ele>
        <time>2019-11-15T23:27:38Z</time>
      </trkpt>
      <trkpt lat="44.36394" lon="3.75016">
        <ele>945</ele>
        <time>2019-11-15T23:27:39Z</time>
      </trkpt>
      <trkpt lat="44.36402" lon="3.75071">
        <ele>951</ele>
        <time>2019-11-15T23:27:46Z</time>
      </trkpt>
      <trkpt lat="44.36411" lon="3.75174">
        <ele>958</ele>
        <time>2019-11-15T23:27:59Z</time>
      </trkpt>
      <trkpt lat="44.36412" lon="3.75229">
        <ele>962</ele>
        <time>2019-11-15T23:28:06Z</time>
      </trkpt>
      <trkpt lat="44.36409" lon="3.75359">
        <ele>971</ele>
        <time>2019-11-15T23:28:23Z</time>
      </trkpt>
      <trkpt lat="44.36396" lon="3.75394">
        <ele>969</ele>
        <time>2019-11-15T23:28:28Z</time>
      </trkpt>
      <trkpt lat="44.36377" lon="3.75478">
        <ele>971</ele>
        <time>2019-11-15T23:28:39Z</time>
      </trkpt>
      <trkpt lat="44.36376" lon="3.75499">
        <ele>973</ele>
        <time>2019-11-15T23:28:42Z</time>
      </trkpt>
      <trkpt lat="44.36379" lon="3.75531">
        <ele>980</ele>
        <time>2019-11-15T23:28:46Z</time>
      </trkpt>
      <trkpt lat="44.3637" lon="3.75555">
        <ele>980</ele>
        <time>2019-11-15T23:28:49Z</time>
      </trkpt>
      <trkpt lat="44.3636" lon="3.75572">
        <ele>980</ele>
        <time>2019-11-15T23:28:52Z</time>
      </trkpt>
      <trkpt lat="44.36354" lon="3.75592">
        <ele>983</ele>
        <time>2019-11-15T23:28:55Z</time>
      </trkpt>
      <trkpt lat="44.3635" lon="3.75612">
        <ele>988</ele>
        <time>2019-11-15T23:28:58Z</time>
      </trkpt>
      <trkpt lat="44.36352" lon="3.75622">
        <ele>992</ele>
        <time>2019-11-15T23:28:59Z</time>
      </trkpt>
      <trkpt lat="44.3635" lon="3.75634">
        <ele>996</ele>
        <time>2019-11-15T23:29:01Z</time>
      </trkpt>
      <trkpt lat="44.36345" lon="3.75647">
        <ele>998</ele>
        <time>2019-11-15T23:29:02Z</time>
      </trkpt>
      <trkpt lat="44.36331" lon="3.75669">
        <ele>1002</ele>
        <time>2019-11-15T23:29:06Z</time>
      </trkpt>
      <trkpt lat="44.36305" lon="3.757">
        <ele>1008</ele>
        <time>2019-11-15T23:29:12Z</time>
      </trkpt>
      <trkpt lat="44.36303" lon="3.75708">
        <ele>1010</ele>
        <time>2019-11-15T23:29:13Z</time>
      </trkpt>
      <trkpt lat="44.36293" lon="3.7572">
        <ele>1012</ele>
        <time>2019-11-15T23:29:16Z</time>
      </trkpt>
      <trkpt lat="44.36294" lon="3.75724">
        <ele>1013</ele>
        <time>2019-11-15T23:29:16Z</time>
      </trkpt>
      <trkpt lat="44.36312" lon="3.75733">
        <ele>1018</ele>
        <time>2019-11-15T23:29:20Z</time>
      </trkpt>
      <trkpt lat="44.36302" lon="3.75782">
        <ele>1027</ele>
        <time>2019-11-15T23:29:26Z</time>
      </trkpt>
      <trkpt lat="44.36287" lon="3.7583">
        <ele>1034</ele>
        <time>2019-11-15T23:29:33Z</time>
      </trkpt>
      <trkpt lat="44.36276" lon="3.75948">
        <ele>1042</ele>
        <time>2019-11-15T23:29:48Z</time>
      </trkpt>
      <trkpt lat="44.36281" lon="3.75996">
        <ele>1049</ele>
        <time>2019-11-15T23:29:54Z</time>
      </trkpt>
      <trkpt lat="44.36277" lon="3.76032">
        <ele>1051</ele>
        <time>2019-11-15T23:29:59Z</time>
      </trkpt>
      <trkpt lat="44.3628" lon="3.76054">
        <ele>1052</ele>
        <time>2019-11-15T23:30:02Z</time>
      </trkpt>
      <trkpt lat="44.36278" lon="3.76079">
        <ele>1053</ele>
        <time>2019-11-15T23:30:05Z</time>
      </trkpt>
      <trkpt lat="44.3628" lon="3.76103">
        <ele>1054</ele>
        <time>2019-11-15T23:30:08Z</time>
      </trkpt>
      <trkpt lat="44.36286" lon="3.76123">
        <ele>1055</ele>
        <time>2019-11-15T23:30:11Z</time>
      </trkpt>
      <trkpt lat="44.36289" lon="3.76156">
        <ele>1056</ele>
        <time>2019-11-15T23:30:15Z</time>
      </trkpt>
      <trkpt lat="44.36302" lon="3.76183">
        <ele>1055</ele>
        <time>2019-11-15T23:30:19Z</time>
      </trkpt>
      <trkpt lat="44.36325" lon="3.76184">
        <ele>1057</ele>
        <time>2019-11-15T23:30:23Z</time>
      </trkpt>
      <trkpt lat="44.36331" lon="3.76187">
        <ele>1057</ele>
        <time>2019-11-15T23:30:24Z</time>
      </trkpt>
      <trkpt lat="44.36373" lon="3.76187">
        <ele>1052</ele>
        <time>2019-11-15T23:30:32Z</time>
      </trkpt>
      <trkpt lat="44.36394" lon="3.76163">
        <ele>1055</ele>
        <time>2019-11-15T23:30:36Z</time>
      </trkpt>
      <trkpt lat="44.36428" lon="3.76154">
        <ele>1054</ele>
        <time>2019-11-15T23:30:43Z</time>
      </trkpt>
      <trkpt lat="44.36441" lon="3.76146">
        <ele>1055</ele>
        <time>2019-11-15T23:30:45Z</time>
      </trkpt>
      <trkpt lat="44.3649" lon="3.76106">
        <ele>1064</ele>
        <time>2019-11-15T23:30:55Z</time>
      </trkpt>
      <trkpt lat="44.36506" lon="3.76096">
        <ele>1067</ele>
        <time>2019-11-15T23:30:58Z</time>
      </trkpt>
      <trkpt lat="44.36593" lon="3.76054">
        <ele>1076</ele>
        <time>2019-11-15T23:31:15Z</time>
      </trkpt>
      <trkpt lat="44.36642" lon="3.76012">
        <ele>1084</ele>
        <time>2019-11-15T23:31:25Z</time>
      </trkpt>
      <trkpt lat="44.36723" lon="3.75932">
        <ele>1101</ele>
        <time>2019-11-15T23:31:43Z</time>
      </trkpt>
      <trkpt lat="44.36733" lon="3.7593">
        <ele>1101</ele>
        <time>2019-11-15T23:31:44Z</time>
      </trkpt>
      <trkpt lat="44.3674" lon="3.75936">
        <ele>1101</ele>
        <time>2019-11-15T23:31:46Z</time>
      </trkpt>
      <trkpt lat="44.36752" lon="3.75986">
        <ele>1099</ele>
        <time>2019-11-15T23:31:53Z</time>
      </trkpt>
      <trkpt lat="44.36753" lon="3.76012">
        <ele>1099</ele>
        <time>2019-11-15T23:31:56Z</time>
      </trkpt>
      <trkpt lat="44.36748" lon="3.76134">
        <ele>1099</ele>
        <time>2019-11-15T23:32:11Z</time>
      </trkpt>
      <trkpt lat="44.3675" lon="3.76152">
        <ele>1099</ele>
        <time>2019-11-15T23:32:14Z</time>
      </trkpt>
      <trkpt lat="44.36754" lon="3.7616">
        <ele>1099</ele>
        <time>2019-11-15T23:32:15Z</time>
      </trkpt>
      <trkpt lat="44.36768" lon="3.76169">
        <ele>1103</ele>
        <time>2019-11-15T23:32:18Z</time>
      </trkpt>
      <trkpt lat="44.3685" lon="3.76187">
        <ele>1124</ele>
        <time>2019-11-15T23:32:33Z</time>
      </trkpt>
      <trkpt lat="44.36862" lon="3.76197">
        <ele>1126</ele>
        <time>2019-11-15T23:32:35Z</time>
      </trkpt>
      <trkpt lat="44.36866" lon="3.76208">
        <ele>1126</ele>
        <time>2019-11-15T23:32:37Z</time>
      </trkpt>
      <trkpt lat="44.36864" lon="3.76229">
        <ele>1123</ele>
        <time>2019-11-15T23:32:39Z</time>
      </trkpt>
      <trkpt lat="44.36857" lon="3.76251">
        <ele>1117</ele>
        <time>2019-11-15T23:32:42Z</time>
      </trkpt>
      <trkpt lat="44.36863" lon="3.76286">
        <ele>1123</ele>
        <time>2019-11-15T23:32:47Z</time>
      </trkpt>
      <trkpt lat="44.36863" lon="3.76331">
        <ele>1127</ele>
        <time>2019-11-15T23:32:53Z</time>
      </trkpt>
      <trkpt lat="44.36847" lon="3.76415">
        <ele>1133</ele>
        <time>2019-11-15T23:33:04Z</time>
      </trkpt>
      <trkpt lat="44.36843" lon="3.76428">
        <ele>1134</ele>
        <time>2019-11-15T23:33:05Z</time>
      </trkpt>
      <trkpt lat="44.36831" lon="3.76449">
        <ele>1134</ele>
        <time>2019-11-15T23:33:09Z</time>
      </trkpt>
      <trkpt lat="44.36807" lon="3.76478">
        <ele>1129</ele>
        <time>2019-11-15T23:33:15Z</time>
      </trkpt>
      <trkpt lat="44.36797" lon="3.76497">
        <ele>1128</ele>
        <time>2019-11-15T23:33:18Z</time>
      </trkpt>
      <trkpt lat="44.36792" lon="3.76517">
        <ele>1126</ele>
        <time>2019-11-15T23:33:20Z</time>
      </trkpt>
      <trkpt lat="44.36794" lon="3.76537">
        <ele>1127</ele>
        <time>2019-11-15T23:33:23Z</time>
      </trkpt>
      <trkpt lat="44.36802" lon="3.76553">
        <ele>1131</ele>
        <time>2019-11-15T23:33:25Z</time>
      </trkpt>
      <trkpt lat="44.36861" lon="3.76626">
        <ele>1156</ele>
        <time>2019-11-15T23:33:39Z</time>
      </trkpt>
      <trkpt lat="44.36867" lon="3.7664">
        <ele>1158</ele>
        <time>2019-11-15T23:33:41Z</time>
      </trkpt>
      <trkpt lat="44.36865" lon="3.76691">
        <ele>1158</ele>
        <time>2019-11-15T23:33:48Z</time>
      </trkpt>
      <trkpt lat="44.36861" lon="3.76707">
        <ele>1158</ele>
        <time>2019-11-15T23:33:50Z</time>
      </trkpt>
      <trkpt lat="44.36848" lon="3.76725">
        <ele>1154</ele>
        <time>2019-11-15T23:33:53Z</time>
      </trkpt>
      <trkpt lat="44.36836" lon="3.76754">
        <ele>1151</ele>
        <time>2019-11-15T23:33:58Z</time>
      </trkpt>
      <trkpt lat="44.36832" lon="3.7678">
        <ele>1154</ele>
        <time>2019-11-15T23:34:01Z</time>
      </trkpt>
      <trkpt lat="44.36832" lon="3.76805">
        <ele>1158</ele>
        <time>2019-11-15T23:34:04Z</time>
      </trkpt>
      <trkpt lat="44.36813" lon="3.769">
        <ele>1162</ele>
        <time>2019-11-15T23:34:17Z</time>
      </trkpt>
      <trkpt lat="44.36814" lon="3.76987">
        <ele>1171</ele>
        <time>2019-11-15T23:34:28Z</time>
      </trkpt>
      <trkpt lat="44.36823" lon="3.77037">
        <ele>1180</ele>
        <time>2019-11-15T23:34:34Z</time>
      </trkpt>
      <trkpt lat="44.36823" lon="3.7705">
        <ele>1181</ele>
        <time>2019-11-15T23:34:36Z</time>
      </trkpt>
      <trkpt lat="44.3681" lon="3.77082">
        <ele>1178</ele>
        <time>2019-11-15T23:34:41Z</time>
      </trkpt>
      <trkpt lat="44.36802" lon="3.77114">
        <ele>1176</ele>
        <time>2019-11-15T23:34:45Z</time>
      </trkpt>
      <trkpt lat="44.36801" lon="3.77138">
        <ele>1177</ele>
        <time>2019-11-15T23:34:48Z</time>
      </trkpt>
      <trkpt lat="44.36806" lon="3.77158">
        <ele>1180</ele>
        <time>2019-11-15T23:34:51Z</time>
      </trkpt>
      <trkpt lat="44.3681" lon="3.77167">
        <ele>1182</ele>
        <time>2019-11-15T23:34:52Z</time>
      </trkpt>
      <trkpt lat="44.36862" lon="3.77212">
        <ele>1190</ele>
        <time>2019-11-15T23:35:03Z</time>
      </trkpt>
      <trkpt lat="44.36962" lon="3.77284">
        <ele>1200</ele>
        <time>2019-11-15T23:35:23Z</time>
      </trkpt>
      <trkpt lat="44.36981" lon="3.77295">
        <ele>1201</ele>
        <time>2019-11-15T23:35:27Z</time>
      </trkpt>
      <trkpt lat="44.37002" lon="3.773">
        <ele>1204</ele>
        <time>2019-11-15T23:35:30Z</time>
      </trkpt>
      <trkpt lat="44.37015" lon="3.77299">
        <ele>1206</ele>
        <time>2019-11-15T23:35:33Z</time>
      </trkpt>
      <trkpt lat="44.37032" lon="3.77294">
        <ele>1209</ele>
        <time>2019-11-15T23:35:36Z</time>
      </trkpt>
      <trkpt lat="44.37057" lon="3.77292">
        <ele>1212</ele>
        <time>2019-11-15T23:35:40Z</time>
      </trkpt>
      <trkpt lat="44.37161" lon="3.77305">
        <ele>1220</ele>
        <time>2019-11-15T23:35:59Z</time>
      </trkpt>
      <trkpt lat="44.37253" lon="3.77341">
        <ele>1227</ele>
        <time>2019-11-15T23:36:16Z</time>
      </trkpt>
      <trkpt lat="44.37275" lon="3.77354">
        <ele>1228</ele>
        <time>2019-11-15T23:36:20Z</time>
      </trkpt>
      <trkpt lat="44.37366" lon="3.77436">
        <ele>1236</ele>
        <time>2019-11-15T23:36:39Z</time>
      </trkpt>
      <trkpt lat="44.37378" lon="3.77452">
        <ele>1238</ele>
        <time>2019-11-15T23:36:42Z</time>
      </trkpt>
      <trkpt lat="44.37387" lon="3.77477">
        <ele>1239</ele>
        <time>2019-11-15T23:36:46Z</time>
      </trkpt>
      <trkpt lat="44.37393" lon="3.77525">
        <ele>1241</ele>
        <time>2019-11-15T23:36:52Z</time>
      </trkpt>
      <trkpt lat="44.37388" lon="3.77585">
        <ele>1241</ele>
        <time>2019-11-15T23:37:00Z</time>
      </trkpt>
      <trkpt lat="44.37381" lon="3.77621">
        <ele>1242</ele>
        <time>2019-11-15T23:37:04Z</time>
      </trkpt>
      <trkpt lat="44.37413" lon="3.77645">
        <ele>1246</ele>
        <time>2019-11-15T23:37:11Z</time>
      </trkpt>
      <trkpt lat="44.37421" lon="3.77646">
        <ele>1247</ele>
        <time>2019-11-15T23:37:12Z</time>
      </trkpt>
    </trkseg>
  </trk>
</gpx>